<?xml version="1.0" encoding="UTF-8" standalone="no" ?>
<gpx xmlns="http://www.topografix.com/GPX/1/1" xmlns:xsi="http://www.w3.org/2001/XMLSchema-instance" xsi:schemaLocation="http://www.topografix.com/GPX/1/1 http://www.topografix.com/GPX/1/1/gpx.xsd" version="1.1" creator="VisuGPX - https://www.visugpx.com">
  <metadata>
    <name>Rando Corbeil-Ballancourt </name>
    <desc><![CDATA[Randonnée de 22 km dans l'Essonne , depuis la gare de Corbeil jusqu'à celle de Ballancourt. Passage par le château de Villeroy et les marais . 
A retrouver sur [url]http://trekkingzone.fr[/url]]]></desc>
  </metadata>
  <trk>
    <name><![CDATA[7 janv. 2024 à 09:21:02]]></name>
    <cmt><![CDATA[7 janv. 2024 à 09:21:02]]></cmt>
    <trkseg>
      <trkpt lat="48.61347" lon="2.47274">
        <ele>38</ele>
        <time>2024-01-07T08:21:03Z</time>
      </trkpt>
      <trkpt lat="48.61346" lon="2.47276">
        <ele>38</ele>
        <time>2024-01-07T08:21:45Z</time>
      </trkpt>
      <trkpt lat="48.61341" lon="2.47273">
        <ele>38</ele>
        <time>2024-01-07T08:21:52Z</time>
      </trkpt>
      <trkpt lat="48.61333" lon="2.47259">
        <ele>38</ele>
        <time>2024-01-07T08:21:57Z</time>
      </trkpt>
      <trkpt lat="48.61329" lon="2.47257">
        <ele>38</ele>
        <time>2024-01-07T08:22:01Z</time>
      </trkpt>
      <trkpt lat="48.61324" lon="2.47258">
        <ele>38</ele>
        <time>2024-01-07T08:22:05Z</time>
      </trkpt>
      <trkpt lat="48.61319" lon="2.47259">
        <ele>41</ele>
        <time>2024-01-07T08:22:19Z</time>
      </trkpt>
      <trkpt lat="48.61312" lon="2.47259">
        <ele>44</ele>
        <time>2024-01-07T08:22:32Z</time>
      </trkpt>
      <trkpt lat="48.61311" lon="2.47269">
        <ele>43</ele>
        <time>2024-01-07T08:23:08Z</time>
      </trkpt>
      <trkpt lat="48.61317" lon="2.47282">
        <ele>39</ele>
        <time>2024-01-07T08:23:23Z</time>
      </trkpt>
      <trkpt lat="48.61326" lon="2.4729">
        <ele>36</ele>
        <time>2024-01-07T08:23:33Z</time>
      </trkpt>
      <trkpt lat="48.61336" lon="2.47297">
        <ele>37</ele>
        <time>2024-01-07T08:23:41Z</time>
      </trkpt>
      <trkpt lat="48.6134" lon="2.47301">
        <ele>37</ele>
        <time>2024-01-07T08:23:44Z</time>
      </trkpt>
      <trkpt lat="48.61352" lon="2.47316">
        <ele>37</ele>
        <time>2024-01-07T08:23:56Z</time>
      </trkpt>
      <trkpt lat="48.61359" lon="2.47327">
        <ele>37</ele>
        <time>2024-01-07T08:24:04Z</time>
      </trkpt>
      <trkpt lat="48.61368" lon="2.47335">
        <ele>37</ele>
        <time>2024-01-07T08:24:12Z</time>
      </trkpt>
      <trkpt lat="48.61372" lon="2.47337">
        <ele>37</ele>
        <time>2024-01-07T08:24:16Z</time>
      </trkpt>
      <trkpt lat="48.61378" lon="2.47345">
        <ele>37</ele>
        <time>2024-01-07T08:24:22Z</time>
      </trkpt>
      <trkpt lat="48.61381" lon="2.4735">
        <ele>37</ele>
        <time>2024-01-07T08:24:25Z</time>
      </trkpt>
      <trkpt lat="48.61383" lon="2.47358">
        <ele>37</ele>
        <time>2024-01-07T08:24:28Z</time>
      </trkpt>
      <trkpt lat="48.61381" lon="2.47372">
        <ele>36</ele>
        <time>2024-01-07T08:24:40Z</time>
      </trkpt>
      <trkpt lat="48.61384" lon="2.47381">
        <ele>36</ele>
        <time>2024-01-07T08:24:44Z</time>
      </trkpt>
      <trkpt lat="48.61381" lon="2.47385">
        <ele>36</ele>
        <time>2024-01-07T08:25:02Z</time>
      </trkpt>
      <trkpt lat="48.61384" lon="2.47396">
        <ele>37</ele>
        <time>2024-01-07T08:25:20Z</time>
      </trkpt>
      <trkpt lat="48.61386" lon="2.47407">
        <ele>37</ele>
        <time>2024-01-07T08:25:38Z</time>
      </trkpt>
      <trkpt lat="48.61378" lon="2.47418">
        <ele>37</ele>
        <time>2024-01-07T08:26:08Z</time>
      </trkpt>
      <trkpt lat="48.61376" lon="2.47427">
        <ele>37</ele>
        <time>2024-01-07T08:26:20Z</time>
      </trkpt>
      <trkpt lat="48.61378" lon="2.47435">
        <ele>37</ele>
        <time>2024-01-07T08:26:28Z</time>
      </trkpt>
      <trkpt lat="48.61382" lon="2.4744">
        <ele>37</ele>
        <time>2024-01-07T08:26:36Z</time>
      </trkpt>
      <trkpt lat="48.61393" lon="2.47442">
        <ele>37</ele>
        <time>2024-01-07T08:26:49Z</time>
      </trkpt>
      <trkpt lat="48.61399" lon="2.47441">
        <ele>37</ele>
        <time>2024-01-07T08:26:53Z</time>
      </trkpt>
      <trkpt lat="48.61402" lon="2.47448">
        <ele>37</ele>
        <time>2024-01-07T08:26:57Z</time>
      </trkpt>
      <trkpt lat="48.61402" lon="2.47455">
        <ele>37</ele>
        <time>2024-01-07T08:27:01Z</time>
      </trkpt>
      <trkpt lat="48.61403" lon="2.47471">
        <ele>37</ele>
        <time>2024-01-07T08:27:10Z</time>
      </trkpt>
      <trkpt lat="48.61405" lon="2.47479">
        <ele>37</ele>
        <time>2024-01-07T08:27:16Z</time>
      </trkpt>
      <trkpt lat="48.61404" lon="2.47487">
        <ele>37</ele>
        <time>2024-01-07T08:27:21Z</time>
      </trkpt>
      <trkpt lat="48.61404" lon="2.47514">
        <ele>37</ele>
        <time>2024-01-07T08:27:34Z</time>
      </trkpt>
      <trkpt lat="48.61403" lon="2.47529">
        <ele>37</ele>
        <time>2024-01-07T08:27:40Z</time>
      </trkpt>
      <trkpt lat="48.61399" lon="2.47534">
        <ele>36</ele>
        <time>2024-01-07T08:27:45Z</time>
      </trkpt>
      <trkpt lat="48.61398" lon="2.47541">
        <ele>36</ele>
        <time>2024-01-07T08:28:04Z</time>
      </trkpt>
      <trkpt lat="48.61398" lon="2.47563">
        <ele>37</ele>
        <time>2024-01-07T08:28:19Z</time>
      </trkpt>
      <trkpt lat="48.61398" lon="2.47577">
        <ele>36</ele>
        <time>2024-01-07T08:28:33Z</time>
      </trkpt>
      <trkpt lat="48.61399" lon="2.47584">
        <ele>36</ele>
        <time>2024-01-07T08:28:37Z</time>
      </trkpt>
      <trkpt lat="48.61399" lon="2.47601">
        <ele>37</ele>
        <time>2024-01-07T08:28:48Z</time>
      </trkpt>
      <trkpt lat="48.61399" lon="2.47624">
        <ele>36</ele>
        <time>2024-01-07T08:29:00Z</time>
      </trkpt>
      <trkpt lat="48.61402" lon="2.47633">
        <ele>37</ele>
        <time>2024-01-07T08:29:06Z</time>
      </trkpt>
      <trkpt lat="48.61403" lon="2.4764">
        <ele>36</ele>
        <time>2024-01-07T08:29:11Z</time>
      </trkpt>
      <trkpt lat="48.61404" lon="2.47648">
        <ele>36</ele>
        <time>2024-01-07T08:29:15Z</time>
      </trkpt>
      <trkpt lat="48.61404" lon="2.47662">
        <ele>36</ele>
        <time>2024-01-07T08:29:24Z</time>
      </trkpt>
      <trkpt lat="48.61399" lon="2.47685">
        <ele>36</ele>
        <time>2024-01-07T08:29:36Z</time>
      </trkpt>
      <trkpt lat="48.61401" lon="2.47692">
        <ele>36</ele>
        <time>2024-01-07T08:29:41Z</time>
      </trkpt>
      <trkpt lat="48.61404" lon="2.47704">
        <ele>36</ele>
        <time>2024-01-07T08:29:57Z</time>
      </trkpt>
      <trkpt lat="48.61405" lon="2.47723">
        <ele>36</ele>
        <time>2024-01-07T08:30:09Z</time>
      </trkpt>
      <trkpt lat="48.61402" lon="2.47731">
        <ele>36</ele>
        <time>2024-01-07T08:30:12Z</time>
      </trkpt>
      <trkpt lat="48.61401" lon="2.4774">
        <ele>36</ele>
        <time>2024-01-07T08:30:15Z</time>
      </trkpt>
      <trkpt lat="48.61402" lon="2.47748">
        <ele>36</ele>
        <time>2024-01-07T08:30:19Z</time>
      </trkpt>
      <trkpt lat="48.614" lon="2.47772">
        <ele>35</ele>
        <time>2024-01-07T08:30:29Z</time>
      </trkpt>
      <trkpt lat="48.61401" lon="2.47795">
        <ele>36</ele>
        <time>2024-01-07T08:30:40Z</time>
      </trkpt>
      <trkpt lat="48.61399" lon="2.47818">
        <ele>37</ele>
        <time>2024-01-07T08:30:50Z</time>
      </trkpt>
      <trkpt lat="48.61401" lon="2.47851">
        <ele>37</ele>
        <time>2024-01-07T08:31:08Z</time>
      </trkpt>
      <trkpt lat="48.61401" lon="2.47886">
        <ele>37</ele>
        <time>2024-01-07T08:31:31Z</time>
      </trkpt>
      <trkpt lat="48.61398" lon="2.479">
        <ele>36</ele>
        <time>2024-01-07T08:31:39Z</time>
      </trkpt>
      <trkpt lat="48.61398" lon="2.47907">
        <ele>36</ele>
        <time>2024-01-07T08:31:43Z</time>
      </trkpt>
      <trkpt lat="48.61399" lon="2.47919">
        <ele>36</ele>
        <time>2024-01-07T08:31:52Z</time>
      </trkpt>
      <trkpt lat="48.61406" lon="2.47941">
        <ele>36</ele>
        <time>2024-01-07T08:32:05Z</time>
      </trkpt>
      <trkpt lat="48.61407" lon="2.47948">
        <ele>36</ele>
        <time>2024-01-07T08:32:09Z</time>
      </trkpt>
      <trkpt lat="48.6141" lon="2.47965">
        <ele>36</ele>
        <time>2024-01-07T08:32:20Z</time>
      </trkpt>
      <trkpt lat="48.61411" lon="2.47972">
        <ele>36</ele>
        <time>2024-01-07T08:32:24Z</time>
      </trkpt>
      <trkpt lat="48.61412" lon="2.47984">
        <ele>35</ele>
        <time>2024-01-07T08:32:32Z</time>
      </trkpt>
      <trkpt lat="48.61407" lon="2.47989">
        <ele>36</ele>
        <time>2024-01-07T08:32:41Z</time>
      </trkpt>
      <trkpt lat="48.6139" lon="2.47986">
        <ele>36</ele>
        <time>2024-01-07T08:33:10Z</time>
      </trkpt>
      <trkpt lat="48.61388" lon="2.47993">
        <ele>37</ele>
        <time>2024-01-07T08:33:18Z</time>
      </trkpt>
      <trkpt lat="48.61387" lon="2.48001">
        <ele>37</ele>
        <time>2024-01-07T08:33:23Z</time>
      </trkpt>
      <trkpt lat="48.61385" lon="2.48007">
        <ele>37</ele>
        <time>2024-01-07T08:33:28Z</time>
      </trkpt>
      <trkpt lat="48.61384" lon="2.48015">
        <ele>37</ele>
        <time>2024-01-07T08:33:32Z</time>
      </trkpt>
      <trkpt lat="48.6138" lon="2.48033">
        <ele>37</ele>
        <time>2024-01-07T08:33:44Z</time>
      </trkpt>
      <trkpt lat="48.61378" lon="2.48039">
        <ele>37</ele>
        <time>2024-01-07T08:33:48Z</time>
      </trkpt>
      <trkpt lat="48.6137" lon="2.48061">
        <ele>37</ele>
        <time>2024-01-07T08:34:02Z</time>
      </trkpt>
      <trkpt lat="48.61368" lon="2.48072">
        <ele>37</ele>
        <time>2024-01-07T08:34:10Z</time>
      </trkpt>
      <trkpt lat="48.61365" lon="2.48077">
        <ele>37</ele>
        <time>2024-01-07T08:34:14Z</time>
      </trkpt>
      <trkpt lat="48.61362" lon="2.48084">
        <ele>37</ele>
        <time>2024-01-07T08:34:19Z</time>
      </trkpt>
      <trkpt lat="48.61359" lon="2.4809">
        <ele>37</ele>
        <time>2024-01-07T08:34:24Z</time>
      </trkpt>
      <trkpt lat="48.6136" lon="2.48099">
        <ele>36</ele>
        <time>2024-01-07T08:34:28Z</time>
      </trkpt>
      <trkpt lat="48.61359" lon="2.48106">
        <ele>36</ele>
        <time>2024-01-07T08:34:31Z</time>
      </trkpt>
      <trkpt lat="48.61355" lon="2.48121">
        <ele>36</ele>
        <time>2024-01-07T08:34:40Z</time>
      </trkpt>
      <trkpt lat="48.61353" lon="2.48134">
        <ele>36</ele>
        <time>2024-01-07T08:34:48Z</time>
      </trkpt>
      <trkpt lat="48.61354" lon="2.48156">
        <ele>36</ele>
        <time>2024-01-07T08:34:54Z</time>
      </trkpt>
      <trkpt lat="48.61351" lon="2.48169">
        <ele>36</ele>
        <time>2024-01-07T08:35:02Z</time>
      </trkpt>
      <trkpt lat="48.61352" lon="2.48177">
        <ele>36</ele>
        <time>2024-01-07T08:35:07Z</time>
      </trkpt>
      <trkpt lat="48.61355" lon="2.48183">
        <ele>36</ele>
        <time>2024-01-07T08:35:11Z</time>
      </trkpt>
      <trkpt lat="48.61357" lon="2.48191">
        <ele>36</ele>
        <time>2024-01-07T08:35:18Z</time>
      </trkpt>
      <trkpt lat="48.61361" lon="2.48197">
        <ele>36</ele>
        <time>2024-01-07T08:35:22Z</time>
      </trkpt>
      <trkpt lat="48.61371" lon="2.48202">
        <ele>36</ele>
        <time>2024-01-07T08:35:31Z</time>
      </trkpt>
      <trkpt lat="48.61366" lon="2.48209">
        <ele>36</ele>
        <time>2024-01-07T08:35:38Z</time>
      </trkpt>
      <trkpt lat="48.61357" lon="2.48213">
        <ele>36</ele>
        <time>2024-01-07T08:35:44Z</time>
      </trkpt>
      <trkpt lat="48.61335" lon="2.48242">
        <ele>36</ele>
        <time>2024-01-07T08:36:15Z</time>
      </trkpt>
      <trkpt lat="48.61331" lon="2.48248">
        <ele>36</ele>
        <time>2024-01-07T08:36:20Z</time>
      </trkpt>
      <trkpt lat="48.61316" lon="2.4826">
        <ele>36</ele>
        <time>2024-01-07T08:36:33Z</time>
      </trkpt>
      <trkpt lat="48.61295" lon="2.48287">
        <ele>36</ele>
        <time>2024-01-07T08:36:51Z</time>
      </trkpt>
      <trkpt lat="48.61293" lon="2.48294">
        <ele>36</ele>
        <time>2024-01-07T08:36:54Z</time>
      </trkpt>
      <trkpt lat="48.61291" lon="2.48301">
        <ele>37</ele>
        <time>2024-01-07T08:36:59Z</time>
      </trkpt>
      <trkpt lat="48.61291" lon="2.48308">
        <ele>37</ele>
        <time>2024-01-07T08:37:07Z</time>
      </trkpt>
      <trkpt lat="48.61292" lon="2.48315">
        <ele>37</ele>
        <time>2024-01-07T08:37:12Z</time>
      </trkpt>
      <trkpt lat="48.61291" lon="2.48322">
        <ele>36</ele>
        <time>2024-01-07T08:37:21Z</time>
      </trkpt>
      <trkpt lat="48.61287" lon="2.48332">
        <ele>36</ele>
        <time>2024-01-07T08:37:31Z</time>
      </trkpt>
      <trkpt lat="48.61281" lon="2.48334">
        <ele>36</ele>
        <time>2024-01-07T08:37:35Z</time>
      </trkpt>
      <trkpt lat="48.6127" lon="2.48339">
        <ele>36</ele>
        <time>2024-01-07T08:37:47Z</time>
      </trkpt>
      <trkpt lat="48.61254" lon="2.48342">
        <ele>36</ele>
        <time>2024-01-07T08:38:06Z</time>
      </trkpt>
      <trkpt lat="48.61241" lon="2.48343">
        <ele>36</ele>
        <time>2024-01-07T08:38:16Z</time>
      </trkpt>
      <trkpt lat="48.61234" lon="2.48341">
        <ele>36</ele>
        <time>2024-01-07T08:38:22Z</time>
      </trkpt>
      <trkpt lat="48.61225" lon="2.48341">
        <ele>36</ele>
        <time>2024-01-07T08:38:30Z</time>
      </trkpt>
      <trkpt lat="48.61218" lon="2.48341">
        <ele>36</ele>
        <time>2024-01-07T08:38:37Z</time>
      </trkpt>
      <trkpt lat="48.61203" lon="2.4834">
        <ele>36</ele>
        <time>2024-01-07T08:38:51Z</time>
      </trkpt>
      <trkpt lat="48.612" lon="2.48329">
        <ele>36</ele>
        <time>2024-01-07T08:39:00Z</time>
      </trkpt>
      <trkpt lat="48.61192" lon="2.48312">
        <ele>36</ele>
        <time>2024-01-07T08:39:09Z</time>
      </trkpt>
      <trkpt lat="48.61188" lon="2.48306">
        <ele>36</ele>
        <time>2024-01-07T08:39:13Z</time>
      </trkpt>
      <trkpt lat="48.61174" lon="2.48285">
        <ele>36</ele>
        <time>2024-01-07T08:39:34Z</time>
      </trkpt>
      <trkpt lat="48.61174" lon="2.48261">
        <ele>35</ele>
        <time>2024-01-07T08:39:50Z</time>
      </trkpt>
      <trkpt lat="48.61173" lon="2.48252">
        <ele>36</ele>
        <time>2024-01-07T08:39:59Z</time>
      </trkpt>
      <trkpt lat="48.61173" lon="2.48244">
        <ele>35</ele>
        <time>2024-01-07T08:40:11Z</time>
      </trkpt>
      <trkpt lat="48.61166" lon="2.48245">
        <ele>35</ele>
        <time>2024-01-07T08:41:35Z</time>
      </trkpt>
      <trkpt lat="48.61168" lon="2.48254">
        <ele>36</ele>
        <time>2024-01-07T08:41:53Z</time>
      </trkpt>
      <trkpt lat="48.61172" lon="2.48267">
        <ele>35</ele>
        <time>2024-01-07T08:41:58Z</time>
      </trkpt>
      <trkpt lat="48.61176" lon="2.48259">
        <ele>37</ele>
        <time>2024-01-07T08:42:19Z</time>
      </trkpt>
      <trkpt lat="48.61178" lon="2.4826">
        <ele>35</ele>
        <time>2024-01-07T08:42:57Z</time>
      </trkpt>
      <trkpt lat="48.61181" lon="2.48286">
        <ele>35</ele>
        <time>2024-01-07T08:43:09Z</time>
      </trkpt>
      <trkpt lat="48.61183" lon="2.48297">
        <ele>36</ele>
        <time>2024-01-07T08:43:15Z</time>
      </trkpt>
      <trkpt lat="48.61184" lon="2.48305">
        <ele>36</ele>
        <time>2024-01-07T08:43:19Z</time>
      </trkpt>
      <trkpt lat="48.61188" lon="2.48312">
        <ele>36</ele>
        <time>2024-01-07T08:43:28Z</time>
      </trkpt>
      <trkpt lat="48.61196" lon="2.48324">
        <ele>35</ele>
        <time>2024-01-07T08:43:39Z</time>
      </trkpt>
      <trkpt lat="48.61197" lon="2.48333">
        <ele>36</ele>
        <time>2024-01-07T08:43:47Z</time>
      </trkpt>
      <trkpt lat="48.61185" lon="2.48338">
        <ele>36</ele>
        <time>2024-01-07T08:43:58Z</time>
      </trkpt>
      <trkpt lat="48.61178" lon="2.48345">
        <ele>36</ele>
        <time>2024-01-07T08:44:09Z</time>
      </trkpt>
      <trkpt lat="48.61152" lon="2.48355">
        <ele>35</ele>
        <time>2024-01-07T08:44:32Z</time>
      </trkpt>
      <trkpt lat="48.61147" lon="2.4836">
        <ele>35</ele>
        <time>2024-01-07T08:44:37Z</time>
      </trkpt>
      <trkpt lat="48.61147" lon="2.4837">
        <ele>35</ele>
        <time>2024-01-07T08:44:46Z</time>
      </trkpt>
      <trkpt lat="48.61151" lon="2.48381">
        <ele>36</ele>
        <time>2024-01-07T08:44:54Z</time>
      </trkpt>
      <trkpt lat="48.61158" lon="2.48398">
        <ele>35</ele>
        <time>2024-01-07T08:45:04Z</time>
      </trkpt>
      <trkpt lat="48.61163" lon="2.48417">
        <ele>36</ele>
        <time>2024-01-07T08:45:15Z</time>
      </trkpt>
      <trkpt lat="48.61165" lon="2.48429">
        <ele>36</ele>
        <time>2024-01-07T08:45:21Z</time>
      </trkpt>
      <trkpt lat="48.61165" lon="2.4844">
        <ele>36</ele>
        <time>2024-01-07T08:45:25Z</time>
      </trkpt>
      <trkpt lat="48.61165" lon="2.48449">
        <ele>35</ele>
        <time>2024-01-07T08:45:27Z</time>
      </trkpt>
      <trkpt lat="48.61166" lon="2.48455">
        <ele>35</ele>
        <time>2024-01-07T08:45:31Z</time>
      </trkpt>
      <trkpt lat="48.61162" lon="2.4846">
        <ele>36</ele>
        <time>2024-01-07T08:45:37Z</time>
      </trkpt>
      <trkpt lat="48.61152" lon="2.48459">
        <ele>36</ele>
        <time>2024-01-07T08:45:47Z</time>
      </trkpt>
      <trkpt lat="48.61147" lon="2.48459">
        <ele>36</ele>
        <time>2024-01-07T08:45:52Z</time>
      </trkpt>
      <trkpt lat="48.61143" lon="2.48463">
        <ele>36</ele>
        <time>2024-01-07T08:45:56Z</time>
      </trkpt>
      <trkpt lat="48.61138" lon="2.48463">
        <ele>36</ele>
        <time>2024-01-07T08:46:01Z</time>
      </trkpt>
      <trkpt lat="48.61133" lon="2.48463">
        <ele>36</ele>
        <time>2024-01-07T08:46:06Z</time>
      </trkpt>
      <trkpt lat="48.61125" lon="2.48463">
        <ele>37</ele>
        <time>2024-01-07T08:46:14Z</time>
      </trkpt>
      <trkpt lat="48.61112" lon="2.48479">
        <ele>35</ele>
        <time>2024-01-07T08:46:29Z</time>
      </trkpt>
      <trkpt lat="48.61109" lon="2.48485">
        <ele>35</ele>
        <time>2024-01-07T08:46:32Z</time>
      </trkpt>
      <trkpt lat="48.61108" lon="2.48491">
        <ele>35</ele>
        <time>2024-01-07T08:46:35Z</time>
      </trkpt>
      <trkpt lat="48.61111" lon="2.48499">
        <ele>34</ele>
        <time>2024-01-07T08:46:42Z</time>
      </trkpt>
      <trkpt lat="48.61113" lon="2.48506">
        <ele>34</ele>
        <time>2024-01-07T08:46:46Z</time>
      </trkpt>
      <trkpt lat="48.61115" lon="2.48513">
        <ele>34</ele>
        <time>2024-01-07T08:46:50Z</time>
      </trkpt>
      <trkpt lat="48.61118" lon="2.48522">
        <ele>34</ele>
        <time>2024-01-07T08:46:55Z</time>
      </trkpt>
      <trkpt lat="48.61122" lon="2.48534">
        <ele>34</ele>
        <time>2024-01-07T08:47:01Z</time>
      </trkpt>
      <trkpt lat="48.61124" lon="2.48548">
        <ele>34</ele>
        <time>2024-01-07T08:47:09Z</time>
      </trkpt>
      <trkpt lat="48.61131" lon="2.4856">
        <ele>35</ele>
        <time>2024-01-07T08:47:18Z</time>
      </trkpt>
      <trkpt lat="48.61135" lon="2.48562">
        <ele>35</ele>
        <time>2024-01-07T08:47:24Z</time>
      </trkpt>
      <trkpt lat="48.6114" lon="2.48565">
        <ele>35</ele>
        <time>2024-01-07T08:47:30Z</time>
      </trkpt>
      <trkpt lat="48.61142" lon="2.48571">
        <ele>35</ele>
        <time>2024-01-07T08:47:34Z</time>
      </trkpt>
      <trkpt lat="48.61143" lon="2.4858">
        <ele>35</ele>
        <time>2024-01-07T08:47:39Z</time>
      </trkpt>
      <trkpt lat="48.61139" lon="2.48589">
        <ele>35</ele>
        <time>2024-01-07T08:47:54Z</time>
      </trkpt>
      <trkpt lat="48.61135" lon="2.48594">
        <ele>36</ele>
        <time>2024-01-07T08:48:00Z</time>
      </trkpt>
      <trkpt lat="48.61121" lon="2.48605">
        <ele>35</ele>
        <time>2024-01-07T08:48:14Z</time>
      </trkpt>
      <trkpt lat="48.61119" lon="2.48614">
        <ele>35</ele>
        <time>2024-01-07T08:48:33Z</time>
      </trkpt>
      <trkpt lat="48.61117" lon="2.4862">
        <ele>35</ele>
        <time>2024-01-07T08:48:40Z</time>
      </trkpt>
      <trkpt lat="48.61106" lon="2.48629">
        <ele>35</ele>
        <time>2024-01-07T08:49:00Z</time>
      </trkpt>
      <trkpt lat="48.61101" lon="2.48632">
        <ele>35</ele>
        <time>2024-01-07T08:49:05Z</time>
      </trkpt>
      <trkpt lat="48.61085" lon="2.48642">
        <ele>35</ele>
        <time>2024-01-07T08:49:22Z</time>
      </trkpt>
      <trkpt lat="48.6108" lon="2.48648">
        <ele>35</ele>
        <time>2024-01-07T08:49:26Z</time>
      </trkpt>
      <trkpt lat="48.61076" lon="2.48651">
        <ele>35</ele>
        <time>2024-01-07T08:49:30Z</time>
      </trkpt>
      <trkpt lat="48.61052" lon="2.48676">
        <ele>35</ele>
        <time>2024-01-07T08:49:54Z</time>
      </trkpt>
      <trkpt lat="48.61039" lon="2.48683">
        <ele>34</ele>
        <time>2024-01-07T08:50:07Z</time>
      </trkpt>
      <trkpt lat="48.61004" lon="2.48714">
        <ele>34</ele>
        <time>2024-01-07T08:50:39Z</time>
      </trkpt>
      <trkpt lat="48.60969" lon="2.48745">
        <ele>34</ele>
        <time>2024-01-07T08:51:10Z</time>
      </trkpt>
      <trkpt lat="48.60966" lon="2.48749">
        <ele>34</ele>
        <time>2024-01-07T08:51:14Z</time>
      </trkpt>
      <trkpt lat="48.60955" lon="2.48756">
        <ele>35</ele>
        <time>2024-01-07T08:51:26Z</time>
      </trkpt>
      <trkpt lat="48.6095" lon="2.4876">
        <ele>35</ele>
        <time>2024-01-07T08:51:30Z</time>
      </trkpt>
      <trkpt lat="48.60946" lon="2.48764">
        <ele>35</ele>
        <time>2024-01-07T08:51:34Z</time>
      </trkpt>
      <trkpt lat="48.60938" lon="2.48773">
        <ele>35</ele>
        <time>2024-01-07T08:51:42Z</time>
      </trkpt>
      <trkpt lat="48.60933" lon="2.48775">
        <ele>35</ele>
        <time>2024-01-07T08:51:47Z</time>
      </trkpt>
      <trkpt lat="48.60929" lon="2.4878">
        <ele>34</ele>
        <time>2024-01-07T08:51:52Z</time>
      </trkpt>
      <trkpt lat="48.60925" lon="2.48784">
        <ele>35</ele>
        <time>2024-01-07T08:51:56Z</time>
      </trkpt>
      <trkpt lat="48.6092" lon="2.48787">
        <ele>34</ele>
        <time>2024-01-07T08:52:00Z</time>
      </trkpt>
      <trkpt lat="48.60912" lon="2.48795">
        <ele>34</ele>
        <time>2024-01-07T08:52:08Z</time>
      </trkpt>
      <trkpt lat="48.60899" lon="2.48804">
        <ele>35</ele>
        <time>2024-01-07T08:52:19Z</time>
      </trkpt>
      <trkpt lat="48.60895" lon="2.48806">
        <ele>35</ele>
        <time>2024-01-07T08:52:23Z</time>
      </trkpt>
      <trkpt lat="48.60886" lon="2.48814">
        <ele>35</ele>
        <time>2024-01-07T08:52:32Z</time>
      </trkpt>
      <trkpt lat="48.60851" lon="2.48841">
        <ele>35</ele>
        <time>2024-01-07T08:53:02Z</time>
      </trkpt>
      <trkpt lat="48.60818" lon="2.4887">
        <ele>35</ele>
        <time>2024-01-07T08:53:34Z</time>
      </trkpt>
      <trkpt lat="48.60813" lon="2.48874">
        <ele>35</ele>
        <time>2024-01-07T08:53:39Z</time>
      </trkpt>
      <trkpt lat="48.60809" lon="2.48876">
        <ele>35</ele>
        <time>2024-01-07T08:53:42Z</time>
      </trkpt>
      <trkpt lat="48.60801" lon="2.48884">
        <ele>35</ele>
        <time>2024-01-07T08:53:48Z</time>
      </trkpt>
      <trkpt lat="48.60777" lon="2.48902">
        <ele>35</ele>
        <time>2024-01-07T08:54:08Z</time>
      </trkpt>
      <trkpt lat="48.60773" lon="2.48907">
        <ele>35</ele>
        <time>2024-01-07T08:54:11Z</time>
      </trkpt>
      <trkpt lat="48.60765" lon="2.48914">
        <ele>35</ele>
        <time>2024-01-07T08:54:19Z</time>
      </trkpt>
      <trkpt lat="48.6075" lon="2.48918">
        <ele>35</ele>
        <time>2024-01-07T08:54:35Z</time>
      </trkpt>
      <trkpt lat="48.60742" lon="2.48924">
        <ele>35</ele>
        <time>2024-01-07T08:54:43Z</time>
      </trkpt>
      <trkpt lat="48.60738" lon="2.48929">
        <ele>35</ele>
        <time>2024-01-07T08:54:47Z</time>
      </trkpt>
      <trkpt lat="48.60715" lon="2.48945">
        <ele>35</ele>
        <time>2024-01-07T08:55:06Z</time>
      </trkpt>
      <trkpt lat="48.60711" lon="2.48949">
        <ele>35</ele>
        <time>2024-01-07T08:55:10Z</time>
      </trkpt>
      <trkpt lat="48.60707" lon="2.48952">
        <ele>35</ele>
        <time>2024-01-07T08:55:14Z</time>
      </trkpt>
      <trkpt lat="48.60697" lon="2.48955">
        <ele>35</ele>
        <time>2024-01-07T08:55:23Z</time>
      </trkpt>
      <trkpt lat="48.60691" lon="2.48958">
        <ele>35</ele>
        <time>2024-01-07T08:55:27Z</time>
      </trkpt>
      <trkpt lat="48.60662" lon="2.48974">
        <ele>35</ele>
        <time>2024-01-07T08:55:52Z</time>
      </trkpt>
      <trkpt lat="48.60622" lon="2.48992">
        <ele>35</ele>
        <time>2024-01-07T08:56:24Z</time>
      </trkpt>
      <trkpt lat="48.60583" lon="2.49008">
        <ele>34</ele>
        <time>2024-01-07T08:56:56Z</time>
      </trkpt>
      <trkpt lat="48.60558" lon="2.49011">
        <ele>34</ele>
        <time>2024-01-07T08:57:17Z</time>
      </trkpt>
      <trkpt lat="48.60554" lon="2.4901">
        <ele>34</ele>
        <time>2024-01-07T08:57:20Z</time>
      </trkpt>
      <trkpt lat="48.60519" lon="2.49023">
        <ele>34</ele>
        <time>2024-01-07T08:57:49Z</time>
      </trkpt>
      <trkpt lat="48.6048" lon="2.49024">
        <ele>34</ele>
        <time>2024-01-07T08:58:21Z</time>
      </trkpt>
      <trkpt lat="48.60474" lon="2.49023">
        <ele>35</ele>
        <time>2024-01-07T08:58:25Z</time>
      </trkpt>
      <trkpt lat="48.60458" lon="2.49023">
        <ele>34</ele>
        <time>2024-01-07T08:58:36Z</time>
      </trkpt>
      <trkpt lat="48.6042" lon="2.49011">
        <ele>34</ele>
        <time>2024-01-07T08:59:09Z</time>
      </trkpt>
      <trkpt lat="48.60399" lon="2.49008">
        <ele>34</ele>
        <time>2024-01-07T08:59:25Z</time>
      </trkpt>
      <trkpt lat="48.60379" lon="2.48999">
        <ele>34</ele>
        <time>2024-01-07T08:59:45Z</time>
      </trkpt>
      <trkpt lat="48.60374" lon="2.48996">
        <ele>34</ele>
        <time>2024-01-07T08:59:49Z</time>
      </trkpt>
      <trkpt lat="48.60369" lon="2.48993">
        <ele>34</ele>
        <time>2024-01-07T08:59:53Z</time>
      </trkpt>
      <trkpt lat="48.60353" lon="2.48989">
        <ele>34</ele>
        <time>2024-01-07T09:00:12Z</time>
      </trkpt>
      <trkpt lat="48.60348" lon="2.48991">
        <ele>35</ele>
        <time>2024-01-07T09:00:26Z</time>
      </trkpt>
      <trkpt lat="48.60342" lon="2.48988">
        <ele>34</ele>
        <time>2024-01-07T09:00:32Z</time>
      </trkpt>
      <trkpt lat="48.60336" lon="2.48985">
        <ele>35</ele>
        <time>2024-01-07T09:00:39Z</time>
      </trkpt>
      <trkpt lat="48.6033" lon="2.48981">
        <ele>35</ele>
        <time>2024-01-07T09:00:46Z</time>
      </trkpt>
      <trkpt lat="48.60326" lon="2.48978">
        <ele>35</ele>
        <time>2024-01-07T09:00:50Z</time>
      </trkpt>
      <trkpt lat="48.60321" lon="2.48976">
        <ele>35</ele>
        <time>2024-01-07T09:00:54Z</time>
      </trkpt>
      <trkpt lat="48.60312" lon="2.48973">
        <ele>34</ele>
        <time>2024-01-07T09:01:01Z</time>
      </trkpt>
      <trkpt lat="48.60278" lon="2.48956">
        <ele>34</ele>
        <time>2024-01-07T09:01:28Z</time>
      </trkpt>
      <trkpt lat="48.60273" lon="2.48952">
        <ele>34</ele>
        <time>2024-01-07T09:01:33Z</time>
      </trkpt>
      <trkpt lat="48.60264" lon="2.48948">
        <ele>34</ele>
        <time>2024-01-07T09:01:41Z</time>
      </trkpt>
      <trkpt lat="48.6026" lon="2.48946">
        <ele>34</ele>
        <time>2024-01-07T09:01:46Z</time>
      </trkpt>
      <trkpt lat="48.60238" lon="2.48931">
        <ele>34</ele>
        <time>2024-01-07T09:02:06Z</time>
      </trkpt>
      <trkpt lat="48.60227" lon="2.48927">
        <ele>34</ele>
        <time>2024-01-07T09:02:15Z</time>
      </trkpt>
      <trkpt lat="48.60223" lon="2.48925">
        <ele>34</ele>
        <time>2024-01-07T09:02:18Z</time>
      </trkpt>
      <trkpt lat="48.60213" lon="2.48919">
        <ele>34</ele>
        <time>2024-01-07T09:02:26Z</time>
      </trkpt>
      <trkpt lat="48.60203" lon="2.48915">
        <ele>34</ele>
        <time>2024-01-07T09:02:34Z</time>
      </trkpt>
      <trkpt lat="48.60199" lon="2.48911">
        <ele>34</ele>
        <time>2024-01-07T09:02:38Z</time>
      </trkpt>
      <trkpt lat="48.60193" lon="2.4891">
        <ele>34</ele>
        <time>2024-01-07T09:02:45Z</time>
      </trkpt>
      <trkpt lat="48.60158" lon="2.48886">
        <ele>34</ele>
        <time>2024-01-07T09:03:16Z</time>
      </trkpt>
      <trkpt lat="48.60127" lon="2.48848">
        <ele>34</ele>
        <time>2024-01-07T09:03:47Z</time>
      </trkpt>
      <trkpt lat="48.60111" lon="2.48829">
        <ele>34</ele>
        <time>2024-01-07T09:04:04Z</time>
      </trkpt>
      <trkpt lat="48.60108" lon="2.48824">
        <ele>34</ele>
        <time>2024-01-07T09:04:08Z</time>
      </trkpt>
      <trkpt lat="48.60104" lon="2.48817">
        <ele>35</ele>
        <time>2024-01-07T09:04:12Z</time>
      </trkpt>
      <trkpt lat="48.60096" lon="2.48807">
        <ele>34</ele>
        <time>2024-01-07T09:04:20Z</time>
      </trkpt>
      <trkpt lat="48.60092" lon="2.48802">
        <ele>34</ele>
        <time>2024-01-07T09:04:24Z</time>
      </trkpt>
      <trkpt lat="48.60084" lon="2.48793">
        <ele>34</ele>
        <time>2024-01-07T09:04:32Z</time>
      </trkpt>
      <trkpt lat="48.60079" lon="2.48788">
        <ele>35</ele>
        <time>2024-01-07T09:04:37Z</time>
      </trkpt>
      <trkpt lat="48.60076" lon="2.48782">
        <ele>35</ele>
        <time>2024-01-07T09:04:41Z</time>
      </trkpt>
      <trkpt lat="48.60068" lon="2.48771">
        <ele>35</ele>
        <time>2024-01-07T09:04:48Z</time>
      </trkpt>
      <trkpt lat="48.60055" lon="2.48756">
        <ele>35</ele>
        <time>2024-01-07T09:05:00Z</time>
      </trkpt>
      <trkpt lat="48.60048" lon="2.48745">
        <ele>35</ele>
        <time>2024-01-07T09:05:08Z</time>
      </trkpt>
      <trkpt lat="48.60014" lon="2.48704">
        <ele>35</ele>
        <time>2024-01-07T09:05:42Z</time>
      </trkpt>
      <trkpt lat="48.6001" lon="2.48699">
        <ele>35</ele>
        <time>2024-01-07T09:05:46Z</time>
      </trkpt>
      <trkpt lat="48.5999" lon="2.48674">
        <ele>34</ele>
        <time>2024-01-07T09:06:05Z</time>
      </trkpt>
      <trkpt lat="48.59986" lon="2.4867">
        <ele>35</ele>
        <time>2024-01-07T09:06:09Z</time>
      </trkpt>
      <trkpt lat="48.59961" lon="2.48631">
        <ele>35</ele>
        <time>2024-01-07T09:06:39Z</time>
      </trkpt>
      <trkpt lat="48.59931" lon="2.48596">
        <ele>35</ele>
        <time>2024-01-07T09:07:10Z</time>
      </trkpt>
      <trkpt lat="48.59915" lon="2.4858">
        <ele>35</ele>
        <time>2024-01-07T09:07:25Z</time>
      </trkpt>
      <trkpt lat="48.59903" lon="2.48564">
        <ele>35</ele>
        <time>2024-01-07T09:07:38Z</time>
      </trkpt>
      <trkpt lat="48.59899" lon="2.4856">
        <ele>36</ele>
        <time>2024-01-07T09:07:42Z</time>
      </trkpt>
      <trkpt lat="48.59895" lon="2.48554">
        <ele>36</ele>
        <time>2024-01-07T09:07:47Z</time>
      </trkpt>
      <trkpt lat="48.59876" lon="2.4853">
        <ele>35</ele>
        <time>2024-01-07T09:08:06Z</time>
      </trkpt>
      <trkpt lat="48.59864" lon="2.48521">
        <ele>35</ele>
        <time>2024-01-07T09:08:21Z</time>
      </trkpt>
      <trkpt lat="48.59842" lon="2.48498">
        <ele>35</ele>
        <time>2024-01-07T09:08:46Z</time>
      </trkpt>
      <trkpt lat="48.59809" lon="2.48476">
        <ele>35</ele>
        <time>2024-01-07T09:09:19Z</time>
      </trkpt>
      <trkpt lat="48.59784" lon="2.48461">
        <ele>36</ele>
        <time>2024-01-07T09:09:40Z</time>
      </trkpt>
      <trkpt lat="48.59744" lon="2.48451">
        <ele>36</ele>
        <time>2024-01-07T09:10:14Z</time>
      </trkpt>
      <trkpt lat="48.59708" lon="2.48446">
        <ele>36</ele>
        <time>2024-01-07T09:10:47Z</time>
      </trkpt>
      <trkpt lat="48.59672" lon="2.48433">
        <ele>36</ele>
        <time>2024-01-07T09:11:20Z</time>
      </trkpt>
      <trkpt lat="48.59662" lon="2.48429">
        <ele>37</ele>
        <time>2024-01-07T09:11:29Z</time>
      </trkpt>
      <trkpt lat="48.59648" lon="2.48427">
        <ele>37</ele>
        <time>2024-01-07T09:11:41Z</time>
      </trkpt>
      <trkpt lat="48.59617" lon="2.48423">
        <ele>37</ele>
        <time>2024-01-07T09:12:09Z</time>
      </trkpt>
      <trkpt lat="48.59612" lon="2.48421">
        <ele>37</ele>
        <time>2024-01-07T09:12:13Z</time>
      </trkpt>
      <trkpt lat="48.59601" lon="2.48421">
        <ele>37</ele>
        <time>2024-01-07T09:12:21Z</time>
      </trkpt>
      <trkpt lat="48.59559" lon="2.48414">
        <ele>36</ele>
        <time>2024-01-07T09:12:56Z</time>
      </trkpt>
      <trkpt lat="48.59531" lon="2.4841">
        <ele>36</ele>
        <time>2024-01-07T09:13:19Z</time>
      </trkpt>
      <trkpt lat="48.59497" lon="2.48411">
        <ele>36</ele>
        <time>2024-01-07T09:13:48Z</time>
      </trkpt>
      <trkpt lat="48.59457" lon="2.48405">
        <ele>36</ele>
        <time>2024-01-07T09:14:21Z</time>
      </trkpt>
      <trkpt lat="48.59416" lon="2.484">
        <ele>36</ele>
        <time>2024-01-07T09:14:53Z</time>
      </trkpt>
      <trkpt lat="48.59384" lon="2.48399">
        <ele>35</ele>
        <time>2024-01-07T09:15:21Z</time>
      </trkpt>
      <trkpt lat="48.59379" lon="2.48397">
        <ele>35</ele>
        <time>2024-01-07T09:15:25Z</time>
      </trkpt>
      <trkpt lat="48.59374" lon="2.48394">
        <ele>35</ele>
        <time>2024-01-07T09:15:29Z</time>
      </trkpt>
      <trkpt lat="48.59358" lon="2.48387">
        <ele>35</ele>
        <time>2024-01-07T09:15:41Z</time>
      </trkpt>
      <trkpt lat="48.59343" lon="2.4839">
        <ele>35</ele>
        <time>2024-01-07T09:15:53Z</time>
      </trkpt>
      <trkpt lat="48.59328" lon="2.48395">
        <ele>35</ele>
        <time>2024-01-07T09:16:05Z</time>
      </trkpt>
      <trkpt lat="48.59291" lon="2.48397">
        <ele>36</ele>
        <time>2024-01-07T09:16:36Z</time>
      </trkpt>
      <trkpt lat="48.59252" lon="2.48407">
        <ele>36</ele>
        <time>2024-01-07T09:17:10Z</time>
      </trkpt>
      <trkpt lat="48.59209" lon="2.48413">
        <ele>36</ele>
        <time>2024-01-07T09:17:44Z</time>
      </trkpt>
      <trkpt lat="48.59189" lon="2.48416">
        <ele>36</ele>
        <time>2024-01-07T09:18:01Z</time>
      </trkpt>
      <trkpt lat="48.59184" lon="2.48416">
        <ele>36</ele>
        <time>2024-01-07T09:18:06Z</time>
      </trkpt>
      <trkpt lat="48.59179" lon="2.48416">
        <ele>36</ele>
        <time>2024-01-07T09:18:11Z</time>
      </trkpt>
      <trkpt lat="48.59175" lon="2.48412">
        <ele>36</ele>
        <time>2024-01-07T09:18:15Z</time>
      </trkpt>
      <trkpt lat="48.59172" lon="2.48411">
        <ele>35</ele>
        <time>2024-01-07T09:20:13Z</time>
      </trkpt>
      <trkpt lat="48.59169" lon="2.48415">
        <ele>35</ele>
        <time>2024-01-07T09:23:42Z</time>
      </trkpt>
      <trkpt lat="48.59173" lon="2.48421">
        <ele>35</ele>
        <time>2024-01-07T09:24:28Z</time>
      </trkpt>
      <trkpt lat="48.59166" lon="2.48429">
        <ele>35</ele>
        <time>2024-01-07T09:25:04Z</time>
      </trkpt>
      <trkpt lat="48.59159" lon="2.48432">
        <ele>35</ele>
        <time>2024-01-07T09:25:13Z</time>
      </trkpt>
      <trkpt lat="48.59161" lon="2.48423">
        <ele>35</ele>
        <time>2024-01-07T09:25:43Z</time>
      </trkpt>
      <trkpt lat="48.59154" lon="2.48421">
        <ele>35</ele>
        <time>2024-01-07T09:26:35Z</time>
      </trkpt>
      <trkpt lat="48.5912" lon="2.48428">
        <ele>35</ele>
        <time>2024-01-07T09:27:01Z</time>
      </trkpt>
      <trkpt lat="48.59074" lon="2.48429">
        <ele>35</ele>
        <time>2024-01-07T09:27:33Z</time>
      </trkpt>
      <trkpt lat="48.59055" lon="2.4843">
        <ele>35</ele>
        <time>2024-01-07T09:27:47Z</time>
      </trkpt>
      <trkpt lat="48.59045" lon="2.48429">
        <ele>35</ele>
        <time>2024-01-07T09:27:55Z</time>
      </trkpt>
      <trkpt lat="48.59035" lon="2.48431">
        <ele>35</ele>
        <time>2024-01-07T09:28:03Z</time>
      </trkpt>
      <trkpt lat="48.59021" lon="2.48426">
        <ele>35</ele>
        <time>2024-01-07T09:28:15Z</time>
      </trkpt>
      <trkpt lat="48.59017" lon="2.48423">
        <ele>35</ele>
        <time>2024-01-07T09:28:20Z</time>
      </trkpt>
      <trkpt lat="48.59012" lon="2.48417">
        <ele>35</ele>
        <time>2024-01-07T09:28:40Z</time>
      </trkpt>
      <trkpt lat="48.5901" lon="2.48411">
        <ele>35</ele>
        <time>2024-01-07T09:29:04Z</time>
      </trkpt>
      <trkpt lat="48.59009" lon="2.48404">
        <ele>35</ele>
        <time>2024-01-07T09:29:08Z</time>
      </trkpt>
      <trkpt lat="48.59014" lon="2.48384">
        <ele>36</ele>
        <time>2024-01-07T09:29:22Z</time>
      </trkpt>
      <trkpt lat="48.59021" lon="2.48372">
        <ele>36</ele>
        <time>2024-01-07T09:29:49Z</time>
      </trkpt>
      <trkpt lat="48.5902" lon="2.48367">
        <ele>36</ele>
        <time>2024-01-07T09:29:52Z</time>
      </trkpt>
      <trkpt lat="48.59016" lon="2.48366">
        <ele>36</ele>
        <time>2024-01-07T09:29:55Z</time>
      </trkpt>
      <trkpt lat="48.5901" lon="2.4836">
        <ele>36</ele>
        <time>2024-01-07T09:30:03Z</time>
      </trkpt>
      <trkpt lat="48.5901" lon="2.48351">
        <ele>36</ele>
        <time>2024-01-07T09:30:12Z</time>
      </trkpt>
      <trkpt lat="48.59007" lon="2.48344">
        <ele>36</ele>
        <time>2024-01-07T09:30:24Z</time>
      </trkpt>
      <trkpt lat="48.59004" lon="2.48337">
        <ele>36</ele>
        <time>2024-01-07T09:30:37Z</time>
      </trkpt>
      <trkpt lat="48.59003" lon="2.4833">
        <ele>36</ele>
        <time>2024-01-07T09:30:42Z</time>
      </trkpt>
      <trkpt lat="48.59002" lon="2.48322">
        <ele>36</ele>
        <time>2024-01-07T09:30:46Z</time>
      </trkpt>
      <trkpt lat="48.58998" lon="2.48308">
        <ele>36</ele>
        <time>2024-01-07T09:30:53Z</time>
      </trkpt>
      <trkpt lat="48.58994" lon="2.48291">
        <ele>36</ele>
        <time>2024-01-07T09:31:01Z</time>
      </trkpt>
      <trkpt lat="48.58991" lon="2.48284">
        <ele>36</ele>
        <time>2024-01-07T09:31:05Z</time>
      </trkpt>
      <trkpt lat="48.58993" lon="2.48269">
        <ele>36</ele>
        <time>2024-01-07T09:31:13Z</time>
      </trkpt>
      <trkpt lat="48.59" lon="2.48262">
        <ele>37</ele>
        <time>2024-01-07T09:31:23Z</time>
      </trkpt>
      <trkpt lat="48.59015" lon="2.48265">
        <ele>37</ele>
        <time>2024-01-07T09:31:35Z</time>
      </trkpt>
      <trkpt lat="48.59022" lon="2.48268">
        <ele>37</ele>
        <time>2024-01-07T09:31:46Z</time>
      </trkpt>
      <trkpt lat="48.59025" lon="2.48261">
        <ele>38</ele>
        <time>2024-01-07T09:31:58Z</time>
      </trkpt>
      <trkpt lat="48.59025" lon="2.48246">
        <ele>39</ele>
        <time>2024-01-07T09:32:16Z</time>
      </trkpt>
      <trkpt lat="48.59028" lon="2.4822">
        <ele>41</ele>
        <time>2024-01-07T09:32:34Z</time>
      </trkpt>
      <trkpt lat="48.59025" lon="2.48208">
        <ele>43</ele>
        <time>2024-01-07T09:32:41Z</time>
      </trkpt>
      <trkpt lat="48.5902" lon="2.48206">
        <ele>44</ele>
        <time>2024-01-07T09:32:47Z</time>
      </trkpt>
      <trkpt lat="48.59012" lon="2.48206">
        <ele>46</ele>
        <time>2024-01-07T09:32:58Z</time>
      </trkpt>
      <trkpt lat="48.59006" lon="2.48202">
        <ele>47</ele>
        <time>2024-01-07T09:33:10Z</time>
      </trkpt>
      <trkpt lat="48.5901" lon="2.48193">
        <ele>50</ele>
        <time>2024-01-07T09:33:28Z</time>
      </trkpt>
      <trkpt lat="48.59023" lon="2.48188">
        <ele>52</ele>
        <time>2024-01-07T09:33:46Z</time>
      </trkpt>
      <trkpt lat="48.59021" lon="2.48179">
        <ele>53</ele>
        <time>2024-01-07T09:33:58Z</time>
      </trkpt>
      <trkpt lat="48.59007" lon="2.48176">
        <ele>56</ele>
        <time>2024-01-07T09:34:22Z</time>
      </trkpt>
      <trkpt lat="48.59005" lon="2.48169">
        <ele>58</ele>
        <time>2024-01-07T09:34:39Z</time>
      </trkpt>
      <trkpt lat="48.59021" lon="2.48163">
        <ele>61</ele>
        <time>2024-01-07T09:35:04Z</time>
      </trkpt>
      <trkpt lat="48.59017" lon="2.48157">
        <ele>63</ele>
        <time>2024-01-07T09:35:22Z</time>
      </trkpt>
      <trkpt lat="48.59012" lon="2.48155">
        <ele>64</ele>
        <time>2024-01-07T09:35:28Z</time>
      </trkpt>
      <trkpt lat="48.59" lon="2.48153">
        <ele>65</ele>
        <time>2024-01-07T09:35:48Z</time>
      </trkpt>
      <trkpt lat="48.58995" lon="2.48147">
        <ele>66</ele>
        <time>2024-01-07T09:36:00Z</time>
      </trkpt>
      <trkpt lat="48.58995" lon="2.48137">
        <ele>68</ele>
        <time>2024-01-07T09:36:12Z</time>
      </trkpt>
      <trkpt lat="48.58992" lon="2.48121">
        <ele>70</ele>
        <time>2024-01-07T09:36:30Z</time>
      </trkpt>
      <trkpt lat="48.58984" lon="2.481">
        <ele>71</ele>
        <time>2024-01-07T09:36:45Z</time>
      </trkpt>
      <trkpt lat="48.5898" lon="2.48076">
        <ele>73</ele>
        <time>2024-01-07T09:36:56Z</time>
      </trkpt>
      <trkpt lat="48.5898" lon="2.48059">
        <ele>74</ele>
        <time>2024-01-07T09:37:04Z</time>
      </trkpt>
      <trkpt lat="48.58978" lon="2.48047">
        <ele>76</ele>
        <time>2024-01-07T09:37:13Z</time>
      </trkpt>
      <trkpt lat="48.58976" lon="2.4804">
        <ele>78</ele>
        <time>2024-01-07T09:37:19Z</time>
      </trkpt>
      <trkpt lat="48.58975" lon="2.48024">
        <ele>80</ele>
        <time>2024-01-07T09:37:30Z</time>
      </trkpt>
      <trkpt lat="48.58972" lon="2.47999">
        <ele>82</ele>
        <time>2024-01-07T09:37:48Z</time>
      </trkpt>
      <trkpt lat="48.58972" lon="2.47988">
        <ele>84</ele>
        <time>2024-01-07T09:37:59Z</time>
      </trkpt>
      <trkpt lat="48.58967" lon="2.47987">
        <ele>84</ele>
        <time>2024-01-07T09:39:15Z</time>
      </trkpt>
      <trkpt lat="48.58943" lon="2.47984">
        <ele>84</ele>
        <time>2024-01-07T09:39:39Z</time>
      </trkpt>
      <trkpt lat="48.58937" lon="2.47981">
        <ele>84</ele>
        <time>2024-01-07T09:39:47Z</time>
      </trkpt>
      <trkpt lat="48.58907" lon="2.4798">
        <ele>83</ele>
        <time>2024-01-07T09:40:10Z</time>
      </trkpt>
      <trkpt lat="48.58877" lon="2.47971">
        <ele>83</ele>
        <time>2024-01-07T09:40:34Z</time>
      </trkpt>
      <trkpt lat="48.58871" lon="2.47972">
        <ele>83</ele>
        <time>2024-01-07T09:40:38Z</time>
      </trkpt>
      <trkpt lat="48.58866" lon="2.47973">
        <ele>83</ele>
        <time>2024-01-07T09:40:42Z</time>
      </trkpt>
      <trkpt lat="48.58857" lon="2.47981">
        <ele>82</ele>
        <time>2024-01-07T09:40:51Z</time>
      </trkpt>
      <trkpt lat="48.58852" lon="2.47985">
        <ele>82</ele>
        <time>2024-01-07T09:40:55Z</time>
      </trkpt>
      <trkpt lat="48.58848" lon="2.47988">
        <ele>81</ele>
        <time>2024-01-07T09:40:58Z</time>
      </trkpt>
      <trkpt lat="48.58844" lon="2.47989">
        <ele>81</ele>
        <time>2024-01-07T09:41:02Z</time>
      </trkpt>
      <trkpt lat="48.58834" lon="2.47987">
        <ele>81</ele>
        <time>2024-01-07T09:41:11Z</time>
      </trkpt>
      <trkpt lat="48.58828" lon="2.47988">
        <ele>81</ele>
        <time>2024-01-07T09:41:16Z</time>
      </trkpt>
      <trkpt lat="48.58813" lon="2.47987">
        <ele>81</ele>
        <time>2024-01-07T09:41:28Z</time>
      </trkpt>
      <trkpt lat="48.58798" lon="2.47986">
        <ele>80</ele>
        <time>2024-01-07T09:41:40Z</time>
      </trkpt>
      <trkpt lat="48.58768" lon="2.4798">
        <ele>80</ele>
        <time>2024-01-07T09:42:05Z</time>
      </trkpt>
      <trkpt lat="48.58762" lon="2.47973">
        <ele>81</ele>
        <time>2024-01-07T09:42:14Z</time>
      </trkpt>
      <trkpt lat="48.58762" lon="2.47946">
        <ele>81</ele>
        <time>2024-01-07T09:42:29Z</time>
      </trkpt>
      <trkpt lat="48.58764" lon="2.47897">
        <ele>84</ele>
        <time>2024-01-07T09:42:55Z</time>
      </trkpt>
      <trkpt lat="48.58759" lon="2.47891">
        <ele>84</ele>
        <time>2024-01-07T09:43:03Z</time>
      </trkpt>
      <trkpt lat="48.58748" lon="2.47892">
        <ele>85</ele>
        <time>2024-01-07T09:43:13Z</time>
      </trkpt>
      <trkpt lat="48.58711" lon="2.47892">
        <ele>85</ele>
        <time>2024-01-07T09:43:43Z</time>
      </trkpt>
      <trkpt lat="48.58669" lon="2.47883">
        <ele>84</ele>
        <time>2024-01-07T09:44:17Z</time>
      </trkpt>
      <trkpt lat="48.58664" lon="2.4788">
        <ele>84</ele>
        <time>2024-01-07T09:44:21Z</time>
      </trkpt>
      <trkpt lat="48.58659" lon="2.4788">
        <ele>84</ele>
        <time>2024-01-07T09:44:25Z</time>
      </trkpt>
      <trkpt lat="48.58643" lon="2.47881">
        <ele>83</ele>
        <time>2024-01-07T09:44:37Z</time>
      </trkpt>
      <trkpt lat="48.58613" lon="2.47873">
        <ele>83</ele>
        <time>2024-01-07T09:45:02Z</time>
      </trkpt>
      <trkpt lat="48.58571" lon="2.47872">
        <ele>82</ele>
        <time>2024-01-07T09:45:32Z</time>
      </trkpt>
      <trkpt lat="48.58566" lon="2.47872">
        <ele>82</ele>
        <time>2024-01-07T09:45:37Z</time>
      </trkpt>
      <trkpt lat="48.58545" lon="2.47874">
        <ele>82</ele>
        <time>2024-01-07T09:45:52Z</time>
      </trkpt>
      <trkpt lat="48.58503" lon="2.47867">
        <ele>82</ele>
        <time>2024-01-07T09:46:26Z</time>
      </trkpt>
      <trkpt lat="48.58465" lon="2.4785">
        <ele>83</ele>
        <time>2024-01-07T09:46:59Z</time>
      </trkpt>
      <trkpt lat="48.58455" lon="2.47844">
        <ele>83</ele>
        <time>2024-01-07T09:47:07Z</time>
      </trkpt>
      <trkpt lat="48.58443" lon="2.47832">
        <ele>84</ele>
        <time>2024-01-07T09:47:18Z</time>
      </trkpt>
      <trkpt lat="48.58439" lon="2.47827">
        <ele>84</ele>
        <time>2024-01-07T09:47:23Z</time>
      </trkpt>
      <trkpt lat="48.58428" lon="2.47822">
        <ele>84</ele>
        <time>2024-01-07T09:47:31Z</time>
      </trkpt>
      <trkpt lat="48.58387" lon="2.47813">
        <ele>86</ele>
        <time>2024-01-07T09:48:04Z</time>
      </trkpt>
      <trkpt lat="48.58346" lon="2.47806">
        <ele>86</ele>
        <time>2024-01-07T09:48:35Z</time>
      </trkpt>
      <trkpt lat="48.58321" lon="2.47802">
        <ele>86</ele>
        <time>2024-01-07T09:48:56Z</time>
      </trkpt>
      <trkpt lat="48.58305" lon="2.47809">
        <ele>86</ele>
        <time>2024-01-07T09:49:05Z</time>
      </trkpt>
      <trkpt lat="48.58302" lon="2.47815">
        <ele>86</ele>
        <time>2024-01-07T09:49:10Z</time>
      </trkpt>
      <trkpt lat="48.58296" lon="2.47816">
        <ele>86</ele>
        <time>2024-01-07T09:49:13Z</time>
      </trkpt>
      <trkpt lat="48.58292" lon="2.47815">
        <ele>86</ele>
        <time>2024-01-07T09:49:16Z</time>
      </trkpt>
      <trkpt lat="48.58291" lon="2.47807">
        <ele>86</ele>
        <time>2024-01-07T09:49:21Z</time>
      </trkpt>
      <trkpt lat="48.5829" lon="2.47798">
        <ele>86</ele>
        <time>2024-01-07T09:49:24Z</time>
      </trkpt>
      <trkpt lat="48.58287" lon="2.47782">
        <ele>86</ele>
        <time>2024-01-07T09:49:30Z</time>
      </trkpt>
      <trkpt lat="48.58288" lon="2.47774">
        <ele>86</ele>
        <time>2024-01-07T09:49:33Z</time>
      </trkpt>
      <trkpt lat="48.58296" lon="2.47747">
        <ele>86</ele>
        <time>2024-01-07T09:49:46Z</time>
      </trkpt>
      <trkpt lat="48.58297" lon="2.47738">
        <ele>86</ele>
        <time>2024-01-07T09:49:50Z</time>
      </trkpt>
      <trkpt lat="48.58298" lon="2.47723">
        <ele>87</ele>
        <time>2024-01-07T09:49:57Z</time>
      </trkpt>
      <trkpt lat="48.58297" lon="2.47716">
        <ele>87</ele>
        <time>2024-01-07T09:50:00Z</time>
      </trkpt>
      <trkpt lat="48.58298" lon="2.47708">
        <ele>87</ele>
        <time>2024-01-07T09:50:04Z</time>
      </trkpt>
      <trkpt lat="48.58303" lon="2.47693">
        <ele>87</ele>
        <time>2024-01-07T09:50:12Z</time>
      </trkpt>
      <trkpt lat="48.58305" lon="2.47687">
        <ele>87</ele>
        <time>2024-01-07T09:50:15Z</time>
      </trkpt>
      <trkpt lat="48.58308" lon="2.4768">
        <ele>87</ele>
        <time>2024-01-07T09:50:19Z</time>
      </trkpt>
      <trkpt lat="48.58311" lon="2.47667">
        <ele>87</ele>
        <time>2024-01-07T09:50:28Z</time>
      </trkpt>
      <trkpt lat="48.58307" lon="2.4766">
        <ele>87</ele>
        <time>2024-01-07T09:51:18Z</time>
      </trkpt>
      <trkpt lat="48.58301" lon="2.47656">
        <ele>87</ele>
        <time>2024-01-07T09:51:35Z</time>
      </trkpt>
      <trkpt lat="48.58302" lon="2.47648">
        <ele>86</ele>
        <time>2024-01-07T09:51:40Z</time>
      </trkpt>
      <trkpt lat="48.58304" lon="2.47641">
        <ele>86</ele>
        <time>2024-01-07T09:51:44Z</time>
      </trkpt>
      <trkpt lat="48.58306" lon="2.47636">
        <ele>86</ele>
        <time>2024-01-07T09:51:49Z</time>
      </trkpt>
      <trkpt lat="48.58308" lon="2.47626">
        <ele>86</ele>
        <time>2024-01-07T09:51:58Z</time>
      </trkpt>
      <trkpt lat="48.58307" lon="2.47618">
        <ele>85</ele>
        <time>2024-01-07T09:52:02Z</time>
      </trkpt>
      <trkpt lat="48.58312" lon="2.47588">
        <ele>84</ele>
        <time>2024-01-07T09:52:19Z</time>
      </trkpt>
      <trkpt lat="48.58316" lon="2.47584">
        <ele>84</ele>
        <time>2024-01-07T09:52:24Z</time>
      </trkpt>
      <trkpt lat="48.5833" lon="2.47574">
        <ele>83</ele>
        <time>2024-01-07T09:52:38Z</time>
      </trkpt>
      <trkpt lat="48.58335" lon="2.47569">
        <ele>83</ele>
        <time>2024-01-07T09:52:45Z</time>
      </trkpt>
      <trkpt lat="48.5834" lon="2.47564">
        <ele>82</ele>
        <time>2024-01-07T09:52:49Z</time>
      </trkpt>
      <trkpt lat="48.58344" lon="2.4756">
        <ele>82</ele>
        <time>2024-01-07T09:52:52Z</time>
      </trkpt>
      <trkpt lat="48.5836" lon="2.47528">
        <ele>80</ele>
        <time>2024-01-07T09:53:09Z</time>
      </trkpt>
      <trkpt lat="48.58368" lon="2.47502">
        <ele>79</ele>
        <time>2024-01-07T09:53:22Z</time>
      </trkpt>
      <trkpt lat="48.5837" lon="2.47496">
        <ele>78</ele>
        <time>2024-01-07T09:53:26Z</time>
      </trkpt>
      <trkpt lat="48.58373" lon="2.47488">
        <ele>77</ele>
        <time>2024-01-07T09:53:31Z</time>
      </trkpt>
      <trkpt lat="48.58378" lon="2.47475">
        <ele>76</ele>
        <time>2024-01-07T09:53:40Z</time>
      </trkpt>
      <trkpt lat="48.58379" lon="2.47465">
        <ele>75</ele>
        <time>2024-01-07T09:53:49Z</time>
      </trkpt>
      <trkpt lat="48.5838" lon="2.47457">
        <ele>74</ele>
        <time>2024-01-07T09:53:53Z</time>
      </trkpt>
      <trkpt lat="48.58394" lon="2.47412">
        <ele>68</ele>
        <time>2024-01-07T09:54:23Z</time>
      </trkpt>
      <trkpt lat="48.58396" lon="2.47404">
        <ele>69</ele>
        <time>2024-01-07T09:54:30Z</time>
      </trkpt>
      <trkpt lat="48.58403" lon="2.47385">
        <ele>66</ele>
        <time>2024-01-07T09:54:43Z</time>
      </trkpt>
      <trkpt lat="48.58406" lon="2.4738">
        <ele>65</ele>
        <time>2024-01-07T09:54:47Z</time>
      </trkpt>
      <trkpt lat="48.58414" lon="2.47373">
        <ele>64</ele>
        <time>2024-01-07T09:54:56Z</time>
      </trkpt>
      <trkpt lat="48.58418" lon="2.47366">
        <ele>63</ele>
        <time>2024-01-07T09:55:04Z</time>
      </trkpt>
      <trkpt lat="48.58446" lon="2.47344">
        <ele>59</ele>
        <time>2024-01-07T09:55:30Z</time>
      </trkpt>
      <trkpt lat="48.58457" lon="2.47343">
        <ele>58</ele>
        <time>2024-01-07T09:55:37Z</time>
      </trkpt>
      <trkpt lat="48.58462" lon="2.47344">
        <ele>57</ele>
        <time>2024-01-07T09:55:40Z</time>
      </trkpt>
      <trkpt lat="48.58474" lon="2.47347">
        <ele>58</ele>
        <time>2024-01-07T09:55:48Z</time>
      </trkpt>
      <trkpt lat="48.58478" lon="2.47348">
        <ele>58</ele>
        <time>2024-01-07T09:55:52Z</time>
      </trkpt>
      <trkpt lat="48.58483" lon="2.47349">
        <ele>58</ele>
        <time>2024-01-07T09:55:55Z</time>
      </trkpt>
      <trkpt lat="48.58499" lon="2.47354">
        <ele>56</ele>
        <time>2024-01-07T09:56:07Z</time>
      </trkpt>
      <trkpt lat="48.58509" lon="2.47356">
        <ele>56</ele>
        <time>2024-01-07T09:56:15Z</time>
      </trkpt>
      <trkpt lat="48.58534" lon="2.4736">
        <ele>54</ele>
        <time>2024-01-07T09:56:33Z</time>
      </trkpt>
      <trkpt lat="48.58539" lon="2.47358">
        <ele>54</ele>
        <time>2024-01-07T09:56:37Z</time>
      </trkpt>
      <trkpt lat="48.58541" lon="2.47353">
        <ele>54</ele>
        <time>2024-01-07T09:56:42Z</time>
      </trkpt>
      <trkpt lat="48.58543" lon="2.47338">
        <ele>54</ele>
        <time>2024-01-07T09:56:52Z</time>
      </trkpt>
      <trkpt lat="48.58543" lon="2.47331">
        <ele>54</ele>
        <time>2024-01-07T09:56:56Z</time>
      </trkpt>
      <trkpt lat="48.58545" lon="2.47325">
        <ele>53</ele>
        <time>2024-01-07T09:57:01Z</time>
      </trkpt>
      <trkpt lat="48.5855" lon="2.47324">
        <ele>53</ele>
        <time>2024-01-07T09:57:15Z</time>
      </trkpt>
      <trkpt lat="48.58551" lon="2.47312">
        <ele>52</ele>
        <time>2024-01-07T09:57:49Z</time>
      </trkpt>
      <trkpt lat="48.58554" lon="2.47306">
        <ele>52</ele>
        <time>2024-01-07T09:57:54Z</time>
      </trkpt>
      <trkpt lat="48.58555" lon="2.473">
        <ele>52</ele>
        <time>2024-01-07T09:57:59Z</time>
      </trkpt>
      <trkpt lat="48.58568" lon="2.47291">
        <ele>52</ele>
        <time>2024-01-07T09:58:14Z</time>
      </trkpt>
      <trkpt lat="48.58577" lon="2.47288">
        <ele>51</ele>
        <time>2024-01-07T09:58:22Z</time>
      </trkpt>
      <trkpt lat="48.58582" lon="2.47285">
        <ele>51</ele>
        <time>2024-01-07T09:58:26Z</time>
      </trkpt>
      <trkpt lat="48.5859" lon="2.47281">
        <ele>50</ele>
        <time>2024-01-07T09:58:35Z</time>
      </trkpt>
      <trkpt lat="48.58594" lon="2.47278">
        <ele>50</ele>
        <time>2024-01-07T09:58:40Z</time>
      </trkpt>
      <trkpt lat="48.58597" lon="2.4727">
        <ele>48</ele>
        <time>2024-01-07T09:58:48Z</time>
      </trkpt>
      <trkpt lat="48.586" lon="2.47263">
        <ele>48</ele>
        <time>2024-01-07T09:58:54Z</time>
      </trkpt>
      <trkpt lat="48.58597" lon="2.47246">
        <ele>47</ele>
        <time>2024-01-07T09:59:05Z</time>
      </trkpt>
      <trkpt lat="48.58594" lon="2.47239">
        <ele>47</ele>
        <time>2024-01-07T09:59:09Z</time>
      </trkpt>
      <trkpt lat="48.58594" lon="2.4723">
        <ele>46</ele>
        <time>2024-01-07T09:59:13Z</time>
      </trkpt>
      <trkpt lat="48.58595" lon="2.47221">
        <ele>45</ele>
        <time>2024-01-07T09:59:17Z</time>
      </trkpt>
      <trkpt lat="48.58598" lon="2.47214">
        <ele>45</ele>
        <time>2024-01-07T09:59:20Z</time>
      </trkpt>
      <trkpt lat="48.58601" lon="2.47207">
        <ele>45</ele>
        <time>2024-01-07T09:59:23Z</time>
      </trkpt>
      <trkpt lat="48.58601" lon="2.47192">
        <ele>44</ele>
        <time>2024-01-07T09:59:31Z</time>
      </trkpt>
      <trkpt lat="48.586" lon="2.47177">
        <ele>44</ele>
        <time>2024-01-07T09:59:40Z</time>
      </trkpt>
      <trkpt lat="48.58602" lon="2.47169">
        <ele>43</ele>
        <time>2024-01-07T09:59:45Z</time>
      </trkpt>
      <trkpt lat="48.58599" lon="2.47135">
        <ele>42</ele>
        <time>2024-01-07T10:00:02Z</time>
      </trkpt>
      <trkpt lat="48.58597" lon="2.47129">
        <ele>42</ele>
        <time>2024-01-07T10:00:06Z</time>
      </trkpt>
      <trkpt lat="48.58594" lon="2.47124">
        <ele>42</ele>
        <time>2024-01-07T10:00:10Z</time>
      </trkpt>
      <trkpt lat="48.58591" lon="2.47117">
        <ele>42</ele>
        <time>2024-01-07T10:00:15Z</time>
      </trkpt>
      <trkpt lat="48.58587" lon="2.47112">
        <ele>42</ele>
        <time>2024-01-07T10:00:19Z</time>
      </trkpt>
      <trkpt lat="48.58584" lon="2.47107">
        <ele>41</ele>
        <time>2024-01-07T10:00:23Z</time>
      </trkpt>
      <trkpt lat="48.5858" lon="2.47103">
        <ele>42</ele>
        <time>2024-01-07T10:00:27Z</time>
      </trkpt>
      <trkpt lat="48.58575" lon="2.471">
        <ele>42</ele>
        <time>2024-01-07T10:00:31Z</time>
      </trkpt>
      <trkpt lat="48.5857" lon="2.47094">
        <ele>41</ele>
        <time>2024-01-07T10:00:40Z</time>
      </trkpt>
      <trkpt lat="48.5857" lon="2.47075">
        <ele>41</ele>
        <time>2024-01-07T10:00:47Z</time>
      </trkpt>
      <trkpt lat="48.58569" lon="2.47068">
        <ele>41</ele>
        <time>2024-01-07T10:00:51Z</time>
      </trkpt>
      <trkpt lat="48.58567" lon="2.4706">
        <ele>41</ele>
        <time>2024-01-07T10:00:55Z</time>
      </trkpt>
      <trkpt lat="48.58565" lon="2.47052">
        <ele>41</ele>
        <time>2024-01-07T10:01:03Z</time>
      </trkpt>
      <trkpt lat="48.58563" lon="2.47046">
        <ele>41</ele>
        <time>2024-01-07T10:01:15Z</time>
      </trkpt>
      <trkpt lat="48.58569" lon="2.47039">
        <ele>41</ele>
        <time>2024-01-07T10:02:01Z</time>
      </trkpt>
      <trkpt lat="48.58574" lon="2.47035">
        <ele>41</ele>
        <time>2024-01-07T10:02:07Z</time>
      </trkpt>
      <trkpt lat="48.58588" lon="2.47017">
        <ele>41</ele>
        <time>2024-01-07T10:02:27Z</time>
      </trkpt>
      <trkpt lat="48.58595" lon="2.46997">
        <ele>42</ele>
        <time>2024-01-07T10:02:43Z</time>
      </trkpt>
      <trkpt lat="48.58591" lon="2.46956">
        <ele>43</ele>
        <time>2024-01-07T10:03:04Z</time>
      </trkpt>
      <trkpt lat="48.5859" lon="2.46949">
        <ele>43</ele>
        <time>2024-01-07T10:03:09Z</time>
      </trkpt>
      <trkpt lat="48.58587" lon="2.46917">
        <ele>42</ele>
        <time>2024-01-07T10:03:32Z</time>
      </trkpt>
      <trkpt lat="48.58586" lon="2.4691">
        <ele>43</ele>
        <time>2024-01-07T10:03:37Z</time>
      </trkpt>
      <trkpt lat="48.58587" lon="2.46899">
        <ele>43</ele>
        <time>2024-01-07T10:03:45Z</time>
      </trkpt>
      <trkpt lat="48.5859" lon="2.46892">
        <ele>43</ele>
        <time>2024-01-07T10:03:50Z</time>
      </trkpt>
      <trkpt lat="48.58591" lon="2.46883">
        <ele>43</ele>
        <time>2024-01-07T10:03:57Z</time>
      </trkpt>
      <trkpt lat="48.58588" lon="2.46858">
        <ele>43</ele>
        <time>2024-01-07T10:04:10Z</time>
      </trkpt>
      <trkpt lat="48.58584" lon="2.46849">
        <ele>43</ele>
        <time>2024-01-07T10:04:17Z</time>
      </trkpt>
      <trkpt lat="48.5858" lon="2.46846">
        <ele>43</ele>
        <time>2024-01-07T10:04:21Z</time>
      </trkpt>
      <trkpt lat="48.5858" lon="2.46835">
        <ele>43</ele>
        <time>2024-01-07T10:04:30Z</time>
      </trkpt>
      <trkpt lat="48.58582" lon="2.4683">
        <ele>44</ele>
        <time>2024-01-07T10:04:34Z</time>
      </trkpt>
      <trkpt lat="48.58586" lon="2.46824">
        <ele>43</ele>
        <time>2024-01-07T10:04:39Z</time>
      </trkpt>
      <trkpt lat="48.58597" lon="2.46809">
        <ele>43</ele>
        <time>2024-01-07T10:04:53Z</time>
      </trkpt>
      <trkpt lat="48.58598" lon="2.46801">
        <ele>43</ele>
        <time>2024-01-07T10:04:58Z</time>
      </trkpt>
      <trkpt lat="48.58599" lon="2.46794">
        <ele>43</ele>
        <time>2024-01-07T10:05:03Z</time>
      </trkpt>
      <trkpt lat="48.58599" lon="2.4678">
        <ele>43</ele>
        <time>2024-01-07T10:05:10Z</time>
      </trkpt>
      <trkpt lat="48.58598" lon="2.46773">
        <ele>43</ele>
        <time>2024-01-07T10:05:14Z</time>
      </trkpt>
      <trkpt lat="48.58593" lon="2.46772">
        <ele>44</ele>
        <time>2024-01-07T10:05:19Z</time>
      </trkpt>
      <trkpt lat="48.58561" lon="2.46782">
        <ele>45</ele>
        <time>2024-01-07T10:05:46Z</time>
      </trkpt>
      <trkpt lat="48.58555" lon="2.46779">
        <ele>45</ele>
        <time>2024-01-07T10:05:53Z</time>
      </trkpt>
      <trkpt lat="48.58551" lon="2.46774">
        <ele>45</ele>
        <time>2024-01-07T10:05:57Z</time>
      </trkpt>
      <trkpt lat="48.58542" lon="2.46755">
        <ele>46</ele>
        <time>2024-01-07T10:06:10Z</time>
      </trkpt>
      <trkpt lat="48.5854" lon="2.46745">
        <ele>47</ele>
        <time>2024-01-07T10:06:17Z</time>
      </trkpt>
      <trkpt lat="48.58535" lon="2.46712">
        <ele>48</ele>
        <time>2024-01-07T10:06:34Z</time>
      </trkpt>
      <trkpt lat="48.58533" lon="2.46697">
        <ele>50</ele>
        <time>2024-01-07T10:06:45Z</time>
      </trkpt>
      <trkpt lat="48.58533" lon="2.4669">
        <ele>51</ele>
        <time>2024-01-07T10:06:51Z</time>
      </trkpt>
      <trkpt lat="48.58529" lon="2.46675">
        <ele>53</ele>
        <time>2024-01-07T10:07:03Z</time>
      </trkpt>
      <trkpt lat="48.58529" lon="2.46667">
        <ele>53</ele>
        <time>2024-01-07T10:07:08Z</time>
      </trkpt>
      <trkpt lat="48.58528" lon="2.4666">
        <ele>54</ele>
        <time>2024-01-07T10:07:13Z</time>
      </trkpt>
      <trkpt lat="48.58529" lon="2.46649">
        <ele>55</ele>
        <time>2024-01-07T10:07:21Z</time>
      </trkpt>
      <trkpt lat="48.58531" lon="2.46642">
        <ele>56</ele>
        <time>2024-01-07T10:07:25Z</time>
      </trkpt>
      <trkpt lat="48.58531" lon="2.46627">
        <ele>57</ele>
        <time>2024-01-07T10:07:35Z</time>
      </trkpt>
      <trkpt lat="48.58531" lon="2.46619">
        <ele>57</ele>
        <time>2024-01-07T10:07:40Z</time>
      </trkpt>
      <trkpt lat="48.58523" lon="2.46608">
        <ele>58</ele>
        <time>2024-01-07T10:07:50Z</time>
      </trkpt>
      <trkpt lat="48.58518" lon="2.46604">
        <ele>58</ele>
        <time>2024-01-07T10:07:55Z</time>
      </trkpt>
      <trkpt lat="48.58514" lon="2.46603">
        <ele>58</ele>
        <time>2024-01-07T10:07:59Z</time>
      </trkpt>
      <trkpt lat="48.58509" lon="2.46603">
        <ele>59</ele>
        <time>2024-01-07T10:08:04Z</time>
      </trkpt>
      <trkpt lat="48.58499" lon="2.46606">
        <ele>59</ele>
        <time>2024-01-07T10:08:12Z</time>
      </trkpt>
      <trkpt lat="48.58484" lon="2.46609">
        <ele>59</ele>
        <time>2024-01-07T10:08:25Z</time>
      </trkpt>
      <trkpt lat="48.58479" lon="2.46609">
        <ele>59</ele>
        <time>2024-01-07T10:08:29Z</time>
      </trkpt>
      <trkpt lat="48.58475" lon="2.46611">
        <ele>59</ele>
        <time>2024-01-07T10:08:33Z</time>
      </trkpt>
      <trkpt lat="48.58439" lon="2.46616">
        <ele>59</ele>
        <time>2024-01-07T10:09:02Z</time>
      </trkpt>
      <trkpt lat="48.58398" lon="2.46628">
        <ele>58</ele>
        <time>2024-01-07T10:09:35Z</time>
      </trkpt>
      <trkpt lat="48.58368" lon="2.46634">
        <ele>57</ele>
        <time>2024-01-07T10:10:01Z</time>
      </trkpt>
      <trkpt lat="48.58357" lon="2.46632">
        <ele>57</ele>
        <time>2024-01-07T10:10:11Z</time>
      </trkpt>
      <trkpt lat="48.58352" lon="2.46633">
        <ele>57</ele>
        <time>2024-01-07T10:10:14Z</time>
      </trkpt>
      <trkpt lat="48.58343" lon="2.46636">
        <ele>57</ele>
        <time>2024-01-07T10:10:22Z</time>
      </trkpt>
      <trkpt lat="48.58337" lon="2.46637">
        <ele>57</ele>
        <time>2024-01-07T10:10:27Z</time>
      </trkpt>
      <trkpt lat="48.58335" lon="2.46645">
        <ele>57</ele>
        <time>2024-01-07T10:10:41Z</time>
      </trkpt>
      <trkpt lat="48.58333" lon="2.46652">
        <ele>57</ele>
        <time>2024-01-07T10:10:47Z</time>
      </trkpt>
      <trkpt lat="48.58331" lon="2.46659">
        <ele>57</ele>
        <time>2024-01-07T10:10:51Z</time>
      </trkpt>
      <trkpt lat="48.58326" lon="2.46678">
        <ele>54</ele>
        <time>2024-01-07T10:11:06Z</time>
      </trkpt>
      <trkpt lat="48.58321" lon="2.46692">
        <ele>52</ele>
        <time>2024-01-07T10:11:16Z</time>
      </trkpt>
      <trkpt lat="48.58289" lon="2.46718">
        <ele>49</ele>
        <time>2024-01-07T10:11:49Z</time>
      </trkpt>
      <trkpt lat="48.58284" lon="2.46721">
        <ele>49</ele>
        <time>2024-01-07T10:11:53Z</time>
      </trkpt>
      <trkpt lat="48.58274" lon="2.4673">
        <ele>48</ele>
        <time>2024-01-07T10:12:03Z</time>
      </trkpt>
      <trkpt lat="48.5827" lon="2.46734">
        <ele>48</ele>
        <time>2024-01-07T10:12:08Z</time>
      </trkpt>
      <trkpt lat="48.58241" lon="2.46755">
        <ele>46</ele>
        <time>2024-01-07T10:12:34Z</time>
      </trkpt>
      <trkpt lat="48.58231" lon="2.46756">
        <ele>46</ele>
        <time>2024-01-07T10:12:41Z</time>
      </trkpt>
      <trkpt lat="48.58219" lon="2.46752">
        <ele>46</ele>
        <time>2024-01-07T10:12:49Z</time>
      </trkpt>
      <trkpt lat="48.58209" lon="2.46751">
        <ele>46</ele>
        <time>2024-01-07T10:12:56Z</time>
      </trkpt>
      <trkpt lat="48.5817" lon="2.46743">
        <ele>45</ele>
        <time>2024-01-07T10:13:29Z</time>
      </trkpt>
      <trkpt lat="48.58128" lon="2.4673">
        <ele>44</ele>
        <time>2024-01-07T10:14:02Z</time>
      </trkpt>
      <trkpt lat="48.58094" lon="2.46715">
        <ele>44</ele>
        <time>2024-01-07T10:14:31Z</time>
      </trkpt>
      <trkpt lat="48.58089" lon="2.46713">
        <ele>45</ele>
        <time>2024-01-07T10:14:36Z</time>
      </trkpt>
      <trkpt lat="48.58083" lon="2.46712">
        <ele>45</ele>
        <time>2024-01-07T10:14:40Z</time>
      </trkpt>
      <trkpt lat="48.58068" lon="2.46704">
        <ele>44</ele>
        <time>2024-01-07T10:14:52Z</time>
      </trkpt>
      <trkpt lat="48.58057" lon="2.46703">
        <ele>44</ele>
        <time>2024-01-07T10:15:00Z</time>
      </trkpt>
      <trkpt lat="48.58024" lon="2.46675">
        <ele>45</ele>
        <time>2024-01-07T10:15:32Z</time>
      </trkpt>
      <trkpt lat="48.58019" lon="2.4667">
        <ele>45</ele>
        <time>2024-01-07T10:15:36Z</time>
      </trkpt>
      <trkpt lat="48.5799" lon="2.46647">
        <ele>45</ele>
        <time>2024-01-07T10:16:02Z</time>
      </trkpt>
      <trkpt lat="48.57986" lon="2.46646">
        <ele>45</ele>
        <time>2024-01-07T10:16:12Z</time>
      </trkpt>
      <trkpt lat="48.57973" lon="2.46628">
        <ele>45</ele>
        <time>2024-01-07T10:16:28Z</time>
      </trkpt>
      <trkpt lat="48.57954" lon="2.46609">
        <ele>45</ele>
        <time>2024-01-07T10:16:47Z</time>
      </trkpt>
      <trkpt lat="48.57922" lon="2.46597">
        <ele>46</ele>
        <time>2024-01-07T10:17:10Z</time>
      </trkpt>
      <trkpt lat="48.57916" lon="2.46597">
        <ele>46</ele>
        <time>2024-01-07T10:17:14Z</time>
      </trkpt>
      <trkpt lat="48.57911" lon="2.46596">
        <ele>45</ele>
        <time>2024-01-07T10:17:18Z</time>
      </trkpt>
      <trkpt lat="48.57896" lon="2.46597">
        <ele>45</ele>
        <time>2024-01-07T10:17:29Z</time>
      </trkpt>
      <trkpt lat="48.57858" lon="2.46578">
        <ele>46</ele>
        <time>2024-01-07T10:18:01Z</time>
      </trkpt>
      <trkpt lat="48.57853" lon="2.46575">
        <ele>46</ele>
        <time>2024-01-07T10:18:06Z</time>
      </trkpt>
      <trkpt lat="48.57845" lon="2.46566">
        <ele>46</ele>
        <time>2024-01-07T10:18:13Z</time>
      </trkpt>
      <trkpt lat="48.57839" lon="2.46564">
        <ele>46</ele>
        <time>2024-01-07T10:18:17Z</time>
      </trkpt>
      <trkpt lat="48.57804" lon="2.46537">
        <ele>45</ele>
        <time>2024-01-07T10:18:48Z</time>
      </trkpt>
      <trkpt lat="48.57769" lon="2.46505">
        <ele>46</ele>
        <time>2024-01-07T10:19:22Z</time>
      </trkpt>
      <trkpt lat="48.57733" lon="2.46477">
        <ele>46</ele>
        <time>2024-01-07T10:19:55Z</time>
      </trkpt>
      <trkpt lat="48.57718" lon="2.46466">
        <ele>46</ele>
        <time>2024-01-07T10:20:09Z</time>
      </trkpt>
      <trkpt lat="48.57709" lon="2.46462">
        <ele>46</ele>
        <time>2024-01-07T10:20:19Z</time>
      </trkpt>
      <trkpt lat="48.57704" lon="2.46459">
        <ele>46</ele>
        <time>2024-01-07T10:20:28Z</time>
      </trkpt>
      <trkpt lat="48.57693" lon="2.46386">
        <ele>46</ele>
        <time>2024-01-07T10:21:02Z</time>
      </trkpt>
      <trkpt lat="48.57689" lon="2.46365">
        <ele>47</ele>
        <time>2024-01-07T10:21:17Z</time>
      </trkpt>
      <trkpt lat="48.57687" lon="2.46358">
        <ele>47</ele>
        <time>2024-01-07T10:21:21Z</time>
      </trkpt>
      <trkpt lat="48.57677" lon="2.46296">
        <ele>47</ele>
        <time>2024-01-07T10:21:55Z</time>
      </trkpt>
      <trkpt lat="48.57675" lon="2.46282">
        <ele>47</ele>
        <time>2024-01-07T10:22:04Z</time>
      </trkpt>
      <trkpt lat="48.57673" lon="2.46275">
        <ele>47</ele>
        <time>2024-01-07T10:22:08Z</time>
      </trkpt>
      <trkpt lat="48.57671" lon="2.4625">
        <ele>47</ele>
        <time>2024-01-07T10:22:20Z</time>
      </trkpt>
      <trkpt lat="48.57669" lon="2.46234">
        <ele>47</ele>
        <time>2024-01-07T10:22:28Z</time>
      </trkpt>
      <trkpt lat="48.57669" lon="2.46219">
        <ele>47</ele>
        <time>2024-01-07T10:22:36Z</time>
      </trkpt>
      <trkpt lat="48.57668" lon="2.46211">
        <ele>47</ele>
        <time>2024-01-07T10:22:41Z</time>
      </trkpt>
      <trkpt lat="48.57667" lon="2.4615">
        <ele>46</ele>
        <time>2024-01-07T10:23:12Z</time>
      </trkpt>
      <trkpt lat="48.57669" lon="2.46143">
        <ele>46</ele>
        <time>2024-01-07T10:23:17Z</time>
      </trkpt>
      <trkpt lat="48.57676" lon="2.46106">
        <ele>46</ele>
        <time>2024-01-07T10:23:38Z</time>
      </trkpt>
      <trkpt lat="48.57678" lon="2.46099">
        <ele>46</ele>
        <time>2024-01-07T10:23:42Z</time>
      </trkpt>
      <trkpt lat="48.57688" lon="2.46062">
        <ele>46</ele>
        <time>2024-01-07T10:24:02Z</time>
      </trkpt>
      <trkpt lat="48.5769" lon="2.46056">
        <ele>46</ele>
        <time>2024-01-07T10:24:06Z</time>
      </trkpt>
      <trkpt lat="48.57694" lon="2.4605">
        <ele>46</ele>
        <time>2024-01-07T10:24:09Z</time>
      </trkpt>
      <trkpt lat="48.57697" lon="2.46042">
        <ele>45</ele>
        <time>2024-01-07T10:24:13Z</time>
      </trkpt>
      <trkpt lat="48.577" lon="2.46036">
        <ele>46</ele>
        <time>2024-01-07T10:24:17Z</time>
      </trkpt>
      <trkpt lat="48.57718" lon="2.46008">
        <ele>47</ele>
        <time>2024-01-07T10:24:39Z</time>
      </trkpt>
      <trkpt lat="48.57737" lon="2.45976">
        <ele>46</ele>
        <time>2024-01-07T10:25:03Z</time>
      </trkpt>
      <trkpt lat="48.57748" lon="2.45958">
        <ele>47</ele>
        <time>2024-01-07T10:25:18Z</time>
      </trkpt>
      <trkpt lat="48.57751" lon="2.45949">
        <ele>47</ele>
        <time>2024-01-07T10:26:50Z</time>
      </trkpt>
      <trkpt lat="48.57772" lon="2.45912">
        <ele>48</ele>
        <time>2024-01-07T10:27:28Z</time>
      </trkpt>
      <trkpt lat="48.57793" lon="2.45874">
        <ele>48</ele>
        <time>2024-01-07T10:27:59Z</time>
      </trkpt>
      <trkpt lat="48.57797" lon="2.45868">
        <ele>48</ele>
        <time>2024-01-07T10:28:04Z</time>
      </trkpt>
      <trkpt lat="48.57801" lon="2.45861">
        <ele>48</ele>
        <time>2024-01-07T10:28:09Z</time>
      </trkpt>
      <trkpt lat="48.57815" lon="2.45828">
        <ele>48</ele>
        <time>2024-01-07T10:28:34Z</time>
      </trkpt>
      <trkpt lat="48.57819" lon="2.45821">
        <ele>48</ele>
        <time>2024-01-07T10:28:38Z</time>
      </trkpt>
      <trkpt lat="48.57827" lon="2.45803">
        <ele>49</ele>
        <time>2024-01-07T10:28:52Z</time>
      </trkpt>
      <trkpt lat="48.5783" lon="2.45793">
        <ele>49</ele>
        <time>2024-01-07T10:29:00Z</time>
      </trkpt>
      <trkpt lat="48.57831" lon="2.45785">
        <ele>49</ele>
        <time>2024-01-07T10:29:05Z</time>
      </trkpt>
      <trkpt lat="48.57834" lon="2.45778">
        <ele>48</ele>
        <time>2024-01-07T10:29:11Z</time>
      </trkpt>
      <trkpt lat="48.57838" lon="2.45772">
        <ele>49</ele>
        <time>2024-01-07T10:29:19Z</time>
      </trkpt>
      <trkpt lat="48.57842" lon="2.45756">
        <ele>48</ele>
        <time>2024-01-07T10:29:28Z</time>
      </trkpt>
      <trkpt lat="48.57844" lon="2.45749">
        <ele>48</ele>
        <time>2024-01-07T10:29:32Z</time>
      </trkpt>
      <trkpt lat="48.57845" lon="2.45741">
        <ele>47</ele>
        <time>2024-01-07T10:29:37Z</time>
      </trkpt>
      <trkpt lat="48.57847" lon="2.45733">
        <ele>48</ele>
        <time>2024-01-07T10:29:41Z</time>
      </trkpt>
      <trkpt lat="48.5785" lon="2.45725">
        <ele>46</ele>
        <time>2024-01-07T10:29:46Z</time>
      </trkpt>
      <trkpt lat="48.57854" lon="2.45707">
        <ele>49</ele>
        <time>2024-01-07T10:29:55Z</time>
      </trkpt>
      <trkpt lat="48.57858" lon="2.457">
        <ele>49</ele>
        <time>2024-01-07T10:29:59Z</time>
      </trkpt>
      <trkpt lat="48.57862" lon="2.45695">
        <ele>48</ele>
        <time>2024-01-07T10:30:02Z</time>
      </trkpt>
      <trkpt lat="48.57883" lon="2.45642">
        <ele>47</ele>
        <time>2024-01-07T10:30:34Z</time>
      </trkpt>
      <trkpt lat="48.57895" lon="2.45614">
        <ele>47</ele>
        <time>2024-01-07T10:30:51Z</time>
      </trkpt>
      <trkpt lat="48.57901" lon="2.456">
        <ele>47</ele>
        <time>2024-01-07T10:31:00Z</time>
      </trkpt>
      <trkpt lat="48.57909" lon="2.45579">
        <ele>47</ele>
        <time>2024-01-07T10:31:13Z</time>
      </trkpt>
      <trkpt lat="48.57913" lon="2.45573">
        <ele>46</ele>
        <time>2024-01-07T10:31:18Z</time>
      </trkpt>
      <trkpt lat="48.57915" lon="2.45566">
        <ele>47</ele>
        <time>2024-01-07T10:31:22Z</time>
      </trkpt>
      <trkpt lat="48.57921" lon="2.45553">
        <ele>47</ele>
        <time>2024-01-07T10:31:31Z</time>
      </trkpt>
      <trkpt lat="48.57924" lon="2.45546">
        <ele>47</ele>
        <time>2024-01-07T10:31:37Z</time>
      </trkpt>
      <trkpt lat="48.57928" lon="2.45542">
        <ele>48</ele>
        <time>2024-01-07T10:31:42Z</time>
      </trkpt>
      <trkpt lat="48.57931" lon="2.45534">
        <ele>48</ele>
        <time>2024-01-07T10:31:48Z</time>
      </trkpt>
      <trkpt lat="48.57933" lon="2.45527">
        <ele>48</ele>
        <time>2024-01-07T10:31:52Z</time>
      </trkpt>
      <trkpt lat="48.57943" lon="2.4549">
        <ele>47</ele>
        <time>2024-01-07T10:32:17Z</time>
      </trkpt>
      <trkpt lat="48.57948" lon="2.45476">
        <ele>48</ele>
        <time>2024-01-07T10:32:25Z</time>
      </trkpt>
      <trkpt lat="48.57952" lon="2.45471">
        <ele>48</ele>
        <time>2024-01-07T10:32:30Z</time>
      </trkpt>
      <trkpt lat="48.57965" lon="2.45455">
        <ele>47</ele>
        <time>2024-01-07T10:32:45Z</time>
      </trkpt>
      <trkpt lat="48.5798" lon="2.45423">
        <ele>47</ele>
        <time>2024-01-07T10:33:03Z</time>
      </trkpt>
      <trkpt lat="48.57984" lon="2.4541">
        <ele>47</ele>
        <time>2024-01-07T10:33:11Z</time>
      </trkpt>
      <trkpt lat="48.57988" lon="2.45403">
        <ele>48</ele>
        <time>2024-01-07T10:33:15Z</time>
      </trkpt>
      <trkpt lat="48.58003" lon="2.45352">
        <ele>49</ele>
        <time>2024-01-07T10:33:46Z</time>
      </trkpt>
      <trkpt lat="48.58014" lon="2.45288">
        <ele>49</ele>
        <time>2024-01-07T10:34:20Z</time>
      </trkpt>
      <trkpt lat="48.58017" lon="2.45256">
        <ele>49</ele>
        <time>2024-01-07T10:34:37Z</time>
      </trkpt>
      <trkpt lat="48.58026" lon="2.45197">
        <ele>48</ele>
        <time>2024-01-07T10:35:11Z</time>
      </trkpt>
      <trkpt lat="48.58032" lon="2.45174">
        <ele>49</ele>
        <time>2024-01-07T10:35:25Z</time>
      </trkpt>
      <trkpt lat="48.58046" lon="2.45142">
        <ele>49</ele>
        <time>2024-01-07T10:35:46Z</time>
      </trkpt>
      <trkpt lat="48.58052" lon="2.45114">
        <ele>50</ele>
        <time>2024-01-07T10:36:03Z</time>
      </trkpt>
      <trkpt lat="48.58058" lon="2.45054">
        <ele>51</ele>
        <time>2024-01-07T10:36:37Z</time>
      </trkpt>
      <trkpt lat="48.58057" lon="2.44992">
        <ele>51</ele>
        <time>2024-01-07T10:37:10Z</time>
      </trkpt>
      <trkpt lat="48.58057" lon="2.44977">
        <ele>51</ele>
        <time>2024-01-07T10:37:18Z</time>
      </trkpt>
      <trkpt lat="48.58055" lon="2.44969">
        <ele>51</ele>
        <time>2024-01-07T10:37:23Z</time>
      </trkpt>
      <trkpt lat="48.58056" lon="2.44961">
        <ele>51</ele>
        <time>2024-01-07T10:37:27Z</time>
      </trkpt>
      <trkpt lat="48.58056" lon="2.44921">
        <ele>51</ele>
        <time>2024-01-07T10:37:49Z</time>
      </trkpt>
      <trkpt lat="48.58054" lon="2.44914">
        <ele>51</ele>
        <time>2024-01-07T10:37:52Z</time>
      </trkpt>
      <trkpt lat="48.5805" lon="2.44892">
        <ele>51</ele>
        <time>2024-01-07T10:38:05Z</time>
      </trkpt>
      <trkpt lat="48.58044" lon="2.44871">
        <ele>51</ele>
        <time>2024-01-07T10:38:17Z</time>
      </trkpt>
      <trkpt lat="48.58042" lon="2.44848">
        <ele>51</ele>
        <time>2024-01-07T10:38:29Z</time>
      </trkpt>
      <trkpt lat="48.58034" lon="2.44826">
        <ele>51</ele>
        <time>2024-01-07T10:38:41Z</time>
      </trkpt>
      <trkpt lat="48.58028" lon="2.44796">
        <ele>50</ele>
        <time>2024-01-07T10:38:58Z</time>
      </trkpt>
      <trkpt lat="48.58026" lon="2.44788">
        <ele>51</ele>
        <time>2024-01-07T10:39:02Z</time>
      </trkpt>
      <trkpt lat="48.58024" lon="2.44779">
        <ele>50</ele>
        <time>2024-01-07T10:39:09Z</time>
      </trkpt>
      <trkpt lat="48.58021" lon="2.44772">
        <ele>50</ele>
        <time>2024-01-07T10:39:13Z</time>
      </trkpt>
      <trkpt lat="48.58018" lon="2.44766">
        <ele>49</ele>
        <time>2024-01-07T10:39:18Z</time>
      </trkpt>
      <trkpt lat="48.58017" lon="2.44758">
        <ele>49</ele>
        <time>2024-01-07T10:39:24Z</time>
      </trkpt>
      <trkpt lat="48.58013" lon="2.44753">
        <ele>49</ele>
        <time>2024-01-07T10:39:40Z</time>
      </trkpt>
      <trkpt lat="48.58013" lon="2.44744">
        <ele>49</ele>
        <time>2024-01-07T10:40:20Z</time>
      </trkpt>
      <trkpt lat="48.58012" lon="2.44727">
        <ele>49</ele>
        <time>2024-01-07T10:40:32Z</time>
      </trkpt>
      <trkpt lat="48.5801" lon="2.44719">
        <ele>49</ele>
        <time>2024-01-07T10:40:37Z</time>
      </trkpt>
      <trkpt lat="48.58008" lon="2.44696">
        <ele>49</ele>
        <time>2024-01-07T10:40:50Z</time>
      </trkpt>
      <trkpt lat="48.58006" lon="2.44688">
        <ele>49</ele>
        <time>2024-01-07T10:40:55Z</time>
      </trkpt>
      <trkpt lat="48.58004" lon="2.44672">
        <ele>50</ele>
        <time>2024-01-07T10:41:06Z</time>
      </trkpt>
      <trkpt lat="48.58003" lon="2.44664">
        <ele>50</ele>
        <time>2024-01-07T10:41:10Z</time>
      </trkpt>
      <trkpt lat="48.58002" lon="2.44657">
        <ele>49</ele>
        <time>2024-01-07T10:41:14Z</time>
      </trkpt>
      <trkpt lat="48.58" lon="2.44634">
        <ele>49</ele>
        <time>2024-01-07T10:41:26Z</time>
      </trkpt>
      <trkpt lat="48.57995" lon="2.44612">
        <ele>49</ele>
        <time>2024-01-07T10:41:39Z</time>
      </trkpt>
      <trkpt lat="48.57996" lon="2.44603">
        <ele>49</ele>
        <time>2024-01-07T10:41:43Z</time>
      </trkpt>
      <trkpt lat="48.5799" lon="2.4455">
        <ele>49</ele>
        <time>2024-01-07T10:42:15Z</time>
      </trkpt>
      <trkpt lat="48.57988" lon="2.44534">
        <ele>49</ele>
        <time>2024-01-07T10:42:25Z</time>
      </trkpt>
      <trkpt lat="48.57979" lon="2.44481">
        <ele>49</ele>
        <time>2024-01-07T10:42:58Z</time>
      </trkpt>
      <trkpt lat="48.57974" lon="2.44454">
        <ele>48</ele>
        <time>2024-01-07T10:43:17Z</time>
      </trkpt>
      <trkpt lat="48.57979" lon="2.44443">
        <ele>48</ele>
        <time>2024-01-07T10:43:46Z</time>
      </trkpt>
      <trkpt lat="48.57984" lon="2.44438">
        <ele>48</ele>
        <time>2024-01-07T10:43:53Z</time>
      </trkpt>
      <trkpt lat="48.58017" lon="2.44416">
        <ele>50</ele>
        <time>2024-01-07T10:44:25Z</time>
      </trkpt>
      <trkpt lat="48.58041" lon="2.44406">
        <ele>52</ele>
        <time>2024-01-07T10:44:48Z</time>
      </trkpt>
      <trkpt lat="48.58049" lon="2.44397">
        <ele>53</ele>
        <time>2024-01-07T10:44:57Z</time>
      </trkpt>
      <trkpt lat="48.58055" lon="2.44396">
        <ele>53</ele>
        <time>2024-01-07T10:45:03Z</time>
      </trkpt>
      <trkpt lat="48.58081" lon="2.44381">
        <ele>56</ele>
        <time>2024-01-07T10:45:31Z</time>
      </trkpt>
      <trkpt lat="48.58091" lon="2.44379">
        <ele>56</ele>
        <time>2024-01-07T10:45:39Z</time>
      </trkpt>
      <trkpt lat="48.58097" lon="2.44377">
        <ele>57</ele>
        <time>2024-01-07T10:45:44Z</time>
      </trkpt>
      <trkpt lat="48.58106" lon="2.44372">
        <ele>58</ele>
        <time>2024-01-07T10:45:54Z</time>
      </trkpt>
      <trkpt lat="48.58111" lon="2.44364">
        <ele>58</ele>
        <time>2024-01-07T10:46:04Z</time>
      </trkpt>
      <trkpt lat="48.58113" lon="2.44358">
        <ele>58</ele>
        <time>2024-01-07T10:46:09Z</time>
      </trkpt>
      <trkpt lat="48.58109" lon="2.44348">
        <ele>59</ele>
        <time>2024-01-07T10:46:34Z</time>
      </trkpt>
      <trkpt lat="48.58109" lon="2.4434">
        <ele>59</ele>
        <time>2024-01-07T10:46:38Z</time>
      </trkpt>
      <trkpt lat="48.58094" lon="2.44284">
        <ele>57</ele>
        <time>2024-01-07T10:47:13Z</time>
      </trkpt>
      <trkpt lat="48.58092" lon="2.44276">
        <ele>57</ele>
        <time>2024-01-07T10:47:17Z</time>
      </trkpt>
      <trkpt lat="48.58091" lon="2.44269">
        <ele>57</ele>
        <time>2024-01-07T10:47:21Z</time>
      </trkpt>
      <trkpt lat="48.58089" lon="2.44262">
        <ele>57</ele>
        <time>2024-01-07T10:47:25Z</time>
      </trkpt>
      <trkpt lat="48.58087" lon="2.44256">
        <ele>57</ele>
        <time>2024-01-07T10:47:29Z</time>
      </trkpt>
      <trkpt lat="48.58084" lon="2.4424">
        <ele>56</ele>
        <time>2024-01-07T10:47:38Z</time>
      </trkpt>
      <trkpt lat="48.58069" lon="2.44186">
        <ele>56</ele>
        <time>2024-01-07T10:48:10Z</time>
      </trkpt>
      <trkpt lat="48.58055" lon="2.4413">
        <ele>56</ele>
        <time>2024-01-07T10:48:43Z</time>
      </trkpt>
      <trkpt lat="48.58043" lon="2.44076">
        <ele>55</ele>
        <time>2024-01-07T10:49:17Z</time>
      </trkpt>
      <trkpt lat="48.58029" lon="2.44017">
        <ele>54</ele>
        <time>2024-01-07T10:49:49Z</time>
      </trkpt>
      <trkpt lat="48.58028" lon="2.44009">
        <ele>54</ele>
        <time>2024-01-07T10:49:53Z</time>
      </trkpt>
      <trkpt lat="48.58028" lon="2.44002">
        <ele>54</ele>
        <time>2024-01-07T10:49:57Z</time>
      </trkpt>
      <trkpt lat="48.58026" lon="2.43995">
        <ele>54</ele>
        <time>2024-01-07T10:50:01Z</time>
      </trkpt>
      <trkpt lat="48.58025" lon="2.43988">
        <ele>54</ele>
        <time>2024-01-07T10:50:05Z</time>
      </trkpt>
      <trkpt lat="48.58019" lon="2.43967">
        <ele>55</ele>
        <time>2024-01-07T10:50:29Z</time>
      </trkpt>
      <trkpt lat="48.58017" lon="2.4396">
        <ele>55</ele>
        <time>2024-01-07T10:51:59Z</time>
      </trkpt>
      <trkpt lat="48.58015" lon="2.43951">
        <ele>55</ele>
        <time>2024-01-07T10:52:20Z</time>
      </trkpt>
      <trkpt lat="48.58011" lon="2.43937">
        <ele>55</ele>
        <time>2024-01-07T10:52:34Z</time>
      </trkpt>
      <trkpt lat="48.58008" lon="2.43914">
        <ele>55</ele>
        <time>2024-01-07T10:52:48Z</time>
      </trkpt>
      <trkpt lat="48.57998" lon="2.43886">
        <ele>56</ele>
        <time>2024-01-07T10:53:06Z</time>
      </trkpt>
      <trkpt lat="48.57996" lon="2.43879">
        <ele>56</ele>
        <time>2024-01-07T10:53:11Z</time>
      </trkpt>
      <trkpt lat="48.57994" lon="2.43873">
        <ele>56</ele>
        <time>2024-01-07T10:53:15Z</time>
      </trkpt>
      <trkpt lat="48.57989" lon="2.43852">
        <ele>56</ele>
        <time>2024-01-07T10:53:28Z</time>
      </trkpt>
      <trkpt lat="48.57983" lon="2.43824">
        <ele>56</ele>
        <time>2024-01-07T10:53:45Z</time>
      </trkpt>
      <trkpt lat="48.57981" lon="2.43818">
        <ele>56</ele>
        <time>2024-01-07T10:53:49Z</time>
      </trkpt>
      <trkpt lat="48.57976" lon="2.43797">
        <ele>57</ele>
        <time>2024-01-07T10:54:03Z</time>
      </trkpt>
      <trkpt lat="48.57967" lon="2.43753">
        <ele>57</ele>
        <time>2024-01-07T10:54:28Z</time>
      </trkpt>
      <trkpt lat="48.57953" lon="2.43702">
        <ele>57</ele>
        <time>2024-01-07T10:54:59Z</time>
      </trkpt>
      <trkpt lat="48.57942" lon="2.43647">
        <ele>57</ele>
        <time>2024-01-07T10:55:33Z</time>
      </trkpt>
      <trkpt lat="48.5794" lon="2.43632">
        <ele>56</ele>
        <time>2024-01-07T10:55:42Z</time>
      </trkpt>
      <trkpt lat="48.5794" lon="2.43602">
        <ele>57</ele>
        <time>2024-01-07T10:55:59Z</time>
      </trkpt>
      <trkpt lat="48.57939" lon="2.43572">
        <ele>59</ele>
        <time>2024-01-07T10:56:17Z</time>
      </trkpt>
      <trkpt lat="48.57938" lon="2.43565">
        <ele>59</ele>
        <time>2024-01-07T10:56:21Z</time>
      </trkpt>
      <trkpt lat="48.57937" lon="2.43558">
        <ele>59</ele>
        <time>2024-01-07T10:56:25Z</time>
      </trkpt>
      <trkpt lat="48.57932" lon="2.43506">
        <ele>57</ele>
        <time>2024-01-07T10:56:55Z</time>
      </trkpt>
      <trkpt lat="48.57935" lon="2.43439">
        <ele>56</ele>
        <time>2024-01-07T10:57:35Z</time>
      </trkpt>
      <trkpt lat="48.57934" lon="2.43426">
        <ele>56</ele>
        <time>2024-01-07T10:57:46Z</time>
      </trkpt>
      <trkpt lat="48.57934" lon="2.43419">
        <ele>56</ele>
        <time>2024-01-07T10:57:51Z</time>
      </trkpt>
      <trkpt lat="48.57932" lon="2.43413">
        <ele>56</ele>
        <time>2024-01-07T10:57:55Z</time>
      </trkpt>
      <trkpt lat="48.57927" lon="2.43411">
        <ele>56</ele>
        <time>2024-01-07T10:57:59Z</time>
      </trkpt>
      <trkpt lat="48.57905" lon="2.43416">
        <ele>54</ele>
        <time>2024-01-07T10:58:19Z</time>
      </trkpt>
      <trkpt lat="48.579" lon="2.43419">
        <ele>53</ele>
        <time>2024-01-07T10:58:23Z</time>
      </trkpt>
      <trkpt lat="48.57874" lon="2.43424">
        <ele>52</ele>
        <time>2024-01-07T10:58:46Z</time>
      </trkpt>
      <trkpt lat="48.5787" lon="2.43428">
        <ele>51</ele>
        <time>2024-01-07T10:58:51Z</time>
      </trkpt>
      <trkpt lat="48.57858" lon="2.43433">
        <ele>51</ele>
        <time>2024-01-07T10:59:05Z</time>
      </trkpt>
      <trkpt lat="48.57853" lon="2.43433">
        <ele>51</ele>
        <time>2024-01-07T10:59:09Z</time>
      </trkpt>
      <trkpt lat="48.57848" lon="2.43431">
        <ele>51</ele>
        <time>2024-01-07T10:59:23Z</time>
      </trkpt>
      <trkpt lat="48.57837" lon="2.43414">
        <ele>50</ele>
        <time>2024-01-07T10:59:35Z</time>
      </trkpt>
      <trkpt lat="48.57829" lon="2.43407">
        <ele>48</ele>
        <time>2024-01-07T10:59:47Z</time>
      </trkpt>
      <trkpt lat="48.57828" lon="2.43399">
        <ele>48</ele>
        <time>2024-01-07T10:59:52Z</time>
      </trkpt>
      <trkpt lat="48.57825" lon="2.43393">
        <ele>48</ele>
        <time>2024-01-07T10:59:57Z</time>
      </trkpt>
      <trkpt lat="48.57814" lon="2.43403">
        <ele>48</ele>
        <time>2024-01-07T11:00:16Z</time>
      </trkpt>
      <trkpt lat="48.57792" lon="2.43415">
        <ele>47</ele>
        <time>2024-01-07T11:00:36Z</time>
      </trkpt>
      <trkpt lat="48.57787" lon="2.43414">
        <ele>47</ele>
        <time>2024-01-07T11:00:40Z</time>
      </trkpt>
      <trkpt lat="48.57782" lon="2.43412">
        <ele>48</ele>
        <time>2024-01-07T11:00:44Z</time>
      </trkpt>
      <trkpt lat="48.57745" lon="2.43414">
        <ele>47</ele>
        <time>2024-01-07T11:01:16Z</time>
      </trkpt>
      <trkpt lat="48.57739" lon="2.43416">
        <ele>48</ele>
        <time>2024-01-07T11:01:26Z</time>
      </trkpt>
      <trkpt lat="48.57735" lon="2.43417">
        <ele>48</ele>
        <time>2024-01-07T11:01:31Z</time>
      </trkpt>
      <trkpt lat="48.5772" lon="2.43419">
        <ele>48</ele>
        <time>2024-01-07T11:01:46Z</time>
      </trkpt>
      <trkpt lat="48.5771" lon="2.43414">
        <ele>48</ele>
        <time>2024-01-07T11:01:54Z</time>
      </trkpt>
      <trkpt lat="48.57706" lon="2.43414">
        <ele>47</ele>
        <time>2024-01-07T11:01:59Z</time>
      </trkpt>
      <trkpt lat="48.577" lon="2.43413">
        <ele>47</ele>
        <time>2024-01-07T11:02:04Z</time>
      </trkpt>
      <trkpt lat="48.57696" lon="2.43414">
        <ele>47</ele>
        <time>2024-01-07T11:02:08Z</time>
      </trkpt>
      <trkpt lat="48.57685" lon="2.43411">
        <ele>47</ele>
        <time>2024-01-07T11:02:17Z</time>
      </trkpt>
      <trkpt lat="48.57681" lon="2.4341">
        <ele>48</ele>
        <time>2024-01-07T11:02:21Z</time>
      </trkpt>
      <trkpt lat="48.57661" lon="2.43407">
        <ele>49</ele>
        <time>2024-01-07T11:02:38Z</time>
      </trkpt>
      <trkpt lat="48.57646" lon="2.43406">
        <ele>49</ele>
        <time>2024-01-07T11:02:52Z</time>
      </trkpt>
      <trkpt lat="48.5763" lon="2.43403">
        <ele>47</ele>
        <time>2024-01-07T11:03:08Z</time>
      </trkpt>
      <trkpt lat="48.57616" lon="2.43408">
        <ele>48</ele>
        <time>2024-01-07T11:03:53Z</time>
      </trkpt>
      <trkpt lat="48.57613" lon="2.43402">
        <ele>48</ele>
        <time>2024-01-07T11:04:13Z</time>
      </trkpt>
      <trkpt lat="48.57607" lon="2.43403">
        <ele>47</ele>
        <time>2024-01-07T11:04:18Z</time>
      </trkpt>
      <trkpt lat="48.57603" lon="2.43405">
        <ele>48</ele>
        <time>2024-01-07T11:04:22Z</time>
      </trkpt>
      <trkpt lat="48.57598" lon="2.43405">
        <ele>48</ele>
        <time>2024-01-07T11:04:26Z</time>
      </trkpt>
      <trkpt lat="48.57559" lon="2.43406">
        <ele>48</ele>
        <time>2024-01-07T11:04:58Z</time>
      </trkpt>
      <trkpt lat="48.57554" lon="2.43407">
        <ele>47</ele>
        <time>2024-01-07T11:05:02Z</time>
      </trkpt>
      <trkpt lat="48.57538" lon="2.43408">
        <ele>47</ele>
        <time>2024-01-07T11:05:16Z</time>
      </trkpt>
      <trkpt lat="48.57521" lon="2.43407">
        <ele>48</ele>
        <time>2024-01-07T11:05:29Z</time>
      </trkpt>
      <trkpt lat="48.57516" lon="2.43404">
        <ele>47</ele>
        <time>2024-01-07T11:05:32Z</time>
      </trkpt>
      <trkpt lat="48.57511" lon="2.43405">
        <ele>47</ele>
        <time>2024-01-07T11:05:35Z</time>
      </trkpt>
      <trkpt lat="48.57507" lon="2.43404">
        <ele>47</ele>
        <time>2024-01-07T11:05:39Z</time>
      </trkpt>
      <trkpt lat="48.57502" lon="2.43405">
        <ele>47</ele>
        <time>2024-01-07T11:05:43Z</time>
      </trkpt>
      <trkpt lat="48.57495" lon="2.43412">
        <ele>48</ele>
        <time>2024-01-07T11:05:58Z</time>
      </trkpt>
      <trkpt lat="48.5749" lon="2.43415">
        <ele>50</ele>
        <time>2024-01-07T11:06:06Z</time>
      </trkpt>
      <trkpt lat="48.57484" lon="2.43418">
        <ele>50</ele>
        <time>2024-01-07T11:06:11Z</time>
      </trkpt>
      <trkpt lat="48.57474" lon="2.43418">
        <ele>50</ele>
        <time>2024-01-07T11:06:19Z</time>
      </trkpt>
      <trkpt lat="48.5747" lon="2.43417">
        <ele>50</ele>
        <time>2024-01-07T11:06:23Z</time>
      </trkpt>
      <trkpt lat="48.57427" lon="2.43425">
        <ele>50</ele>
        <time>2024-01-07T11:06:54Z</time>
      </trkpt>
      <trkpt lat="48.57422" lon="2.43425">
        <ele>49</ele>
        <time>2024-01-07T11:06:59Z</time>
      </trkpt>
      <trkpt lat="48.57417" lon="2.43433">
        <ele>49</ele>
        <time>2024-01-07T11:07:06Z</time>
      </trkpt>
      <trkpt lat="48.57393" lon="2.43432">
        <ele>50</ele>
        <time>2024-01-07T11:07:28Z</time>
      </trkpt>
      <trkpt lat="48.57382" lon="2.43432">
        <ele>50</ele>
        <time>2024-01-07T11:07:36Z</time>
      </trkpt>
      <trkpt lat="48.57347" lon="2.4343">
        <ele>50</ele>
        <time>2024-01-07T11:08:08Z</time>
      </trkpt>
      <trkpt lat="48.57306" lon="2.43426">
        <ele>50</ele>
        <time>2024-01-07T11:08:40Z</time>
      </trkpt>
      <trkpt lat="48.57267" lon="2.43427">
        <ele>51</ele>
        <time>2024-01-07T11:09:13Z</time>
      </trkpt>
      <trkpt lat="48.57238" lon="2.43425">
        <ele>51</ele>
        <time>2024-01-07T11:09:43Z</time>
      </trkpt>
      <trkpt lat="48.57224" lon="2.43441">
        <ele>52</ele>
        <time>2024-01-07T11:09:59Z</time>
      </trkpt>
      <trkpt lat="48.57219" lon="2.43443">
        <ele>51</ele>
        <time>2024-01-07T11:10:03Z</time>
      </trkpt>
      <trkpt lat="48.57213" lon="2.43441">
        <ele>51</ele>
        <time>2024-01-07T11:10:11Z</time>
      </trkpt>
      <trkpt lat="48.57192" lon="2.43413">
        <ele>52</ele>
        <time>2024-01-07T11:10:38Z</time>
      </trkpt>
      <trkpt lat="48.57188" lon="2.4341">
        <ele>52</ele>
        <time>2024-01-07T11:10:41Z</time>
      </trkpt>
      <trkpt lat="48.5716" lon="2.43406">
        <ele>51</ele>
        <time>2024-01-07T11:11:15Z</time>
      </trkpt>
      <trkpt lat="48.57154" lon="2.43406">
        <ele>50</ele>
        <time>2024-01-07T11:11:23Z</time>
      </trkpt>
      <trkpt lat="48.57126" lon="2.43402">
        <ele>51</ele>
        <time>2024-01-07T11:11:43Z</time>
      </trkpt>
      <trkpt lat="48.57104" lon="2.43403">
        <ele>53</ele>
        <time>2024-01-07T11:12:07Z</time>
      </trkpt>
      <trkpt lat="48.571" lon="2.43405">
        <ele>54</ele>
        <time>2024-01-07T11:12:12Z</time>
      </trkpt>
      <trkpt lat="48.57095" lon="2.43406">
        <ele>54</ele>
        <time>2024-01-07T11:12:22Z</time>
      </trkpt>
      <trkpt lat="48.57091" lon="2.43398">
        <ele>55</ele>
        <time>2024-01-07T11:12:52Z</time>
      </trkpt>
      <trkpt lat="48.57087" lon="2.43388">
        <ele>55</ele>
        <time>2024-01-07T11:13:03Z</time>
      </trkpt>
      <trkpt lat="48.57085" lon="2.43374">
        <ele>55</ele>
        <time>2024-01-07T11:13:12Z</time>
      </trkpt>
      <trkpt lat="48.57078" lon="2.43358">
        <ele>55</ele>
        <time>2024-01-07T11:13:27Z</time>
      </trkpt>
      <trkpt lat="48.57073" lon="2.43354">
        <ele>54</ele>
        <time>2024-01-07T11:13:32Z</time>
      </trkpt>
      <trkpt lat="48.57066" lon="2.43354">
        <ele>54</ele>
        <time>2024-01-07T11:13:38Z</time>
      </trkpt>
      <trkpt lat="48.57057" lon="2.43356">
        <ele>54</ele>
        <time>2024-01-07T11:13:46Z</time>
      </trkpt>
      <trkpt lat="48.57047" lon="2.43366">
        <ele>55</ele>
        <time>2024-01-07T11:14:01Z</time>
      </trkpt>
      <trkpt lat="48.57033" lon="2.43351">
        <ele>56</ele>
        <time>2024-01-07T11:14:21Z</time>
      </trkpt>
      <trkpt lat="48.57031" lon="2.43341">
        <ele>56</ele>
        <time>2024-01-07T11:14:27Z</time>
      </trkpt>
      <trkpt lat="48.57025" lon="2.43326">
        <ele>55</ele>
        <time>2024-01-07T11:14:39Z</time>
      </trkpt>
      <trkpt lat="48.57022" lon="2.43321">
        <ele>55</ele>
        <time>2024-01-07T11:14:43Z</time>
      </trkpt>
      <trkpt lat="48.57018" lon="2.43315">
        <ele>55</ele>
        <time>2024-01-07T11:14:48Z</time>
      </trkpt>
      <trkpt lat="48.57012" lon="2.43311">
        <ele>55</ele>
        <time>2024-01-07T11:14:56Z</time>
      </trkpt>
      <trkpt lat="48.57009" lon="2.43305">
        <ele>56</ele>
        <time>2024-01-07T11:15:00Z</time>
      </trkpt>
      <trkpt lat="48.57006" lon="2.43299">
        <ele>56</ele>
        <time>2024-01-07T11:15:05Z</time>
      </trkpt>
      <trkpt lat="48.56996" lon="2.43273">
        <ele>56</ele>
        <time>2024-01-07T11:15:23Z</time>
      </trkpt>
      <trkpt lat="48.56992" lon="2.43268">
        <ele>56</ele>
        <time>2024-01-07T11:15:28Z</time>
      </trkpt>
      <trkpt lat="48.56986" lon="2.43265">
        <ele>56</ele>
        <time>2024-01-07T11:15:38Z</time>
      </trkpt>
      <trkpt lat="48.56979" lon="2.43263">
        <ele>56</ele>
        <time>2024-01-07T11:15:50Z</time>
      </trkpt>
      <trkpt lat="48.56972" lon="2.43256">
        <ele>56</ele>
        <time>2024-01-07T11:16:02Z</time>
      </trkpt>
      <trkpt lat="48.56966" lon="2.43243">
        <ele>55</ele>
        <time>2024-01-07T11:16:13Z</time>
      </trkpt>
      <trkpt lat="48.56944" lon="2.43193">
        <ele>56</ele>
        <time>2024-01-07T11:16:46Z</time>
      </trkpt>
      <trkpt lat="48.56926" lon="2.43149">
        <ele>56</ele>
        <time>2024-01-07T11:17:17Z</time>
      </trkpt>
      <trkpt lat="48.56905" lon="2.43104">
        <ele>56</ele>
        <time>2024-01-07T11:17:47Z</time>
      </trkpt>
      <trkpt lat="48.56882" lon="2.43052">
        <ele>55</ele>
        <time>2024-01-07T11:18:21Z</time>
      </trkpt>
      <trkpt lat="48.56879" lon="2.43045">
        <ele>55</ele>
        <time>2024-01-07T11:18:26Z</time>
      </trkpt>
      <trkpt lat="48.56875" lon="2.4304">
        <ele>55</ele>
        <time>2024-01-07T11:18:31Z</time>
      </trkpt>
      <trkpt lat="48.56856" lon="2.42989">
        <ele>55</ele>
        <time>2024-01-07T11:19:05Z</time>
      </trkpt>
      <trkpt lat="48.56839" lon="2.42954">
        <ele>55</ele>
        <time>2024-01-07T11:19:30Z</time>
      </trkpt>
      <trkpt lat="48.56834" lon="2.4294">
        <ele>54</ele>
        <time>2024-01-07T11:19:39Z</time>
      </trkpt>
      <trkpt lat="48.56826" lon="2.4292">
        <ele>55</ele>
        <time>2024-01-07T11:19:52Z</time>
      </trkpt>
      <trkpt lat="48.56821" lon="2.42909">
        <ele>55</ele>
        <time>2024-01-07T11:20:00Z</time>
      </trkpt>
      <trkpt lat="48.56816" lon="2.42901">
        <ele>55</ele>
        <time>2024-01-07T11:20:07Z</time>
      </trkpt>
      <trkpt lat="48.56814" lon="2.42894">
        <ele>55</ele>
        <time>2024-01-07T11:20:11Z</time>
      </trkpt>
      <trkpt lat="48.56811" lon="2.42888">
        <ele>55</ele>
        <time>2024-01-07T11:20:15Z</time>
      </trkpt>
      <trkpt lat="48.56803" lon="2.42857">
        <ele>54</ele>
        <time>2024-01-07T11:20:35Z</time>
      </trkpt>
      <trkpt lat="48.56799" lon="2.42851">
        <ele>54</ele>
        <time>2024-01-07T11:20:40Z</time>
      </trkpt>
      <trkpt lat="48.56793" lon="2.42846">
        <ele>54</ele>
        <time>2024-01-07T11:20:46Z</time>
      </trkpt>
      <trkpt lat="48.56788" lon="2.42825">
        <ele>54</ele>
        <time>2024-01-07T11:21:03Z</time>
      </trkpt>
      <trkpt lat="48.56777" lon="2.42799">
        <ele>54</ele>
        <time>2024-01-07T11:21:20Z</time>
      </trkpt>
      <trkpt lat="48.56762" lon="2.42776">
        <ele>54</ele>
        <time>2024-01-07T11:21:36Z</time>
      </trkpt>
      <trkpt lat="48.56756" lon="2.42756">
        <ele>54</ele>
        <time>2024-01-07T11:21:48Z</time>
      </trkpt>
      <trkpt lat="48.56729" lon="2.42705">
        <ele>55</ele>
        <time>2024-01-07T11:22:20Z</time>
      </trkpt>
      <trkpt lat="48.56722" lon="2.42692">
        <ele>54</ele>
        <time>2024-01-07T11:22:28Z</time>
      </trkpt>
      <trkpt lat="48.56713" lon="2.42675">
        <ele>54</ele>
        <time>2024-01-07T11:22:38Z</time>
      </trkpt>
      <trkpt lat="48.56706" lon="2.42654">
        <ele>54</ele>
        <time>2024-01-07T11:22:49Z</time>
      </trkpt>
      <trkpt lat="48.56702" lon="2.42648">
        <ele>55</ele>
        <time>2024-01-07T11:22:53Z</time>
      </trkpt>
      <trkpt lat="48.5669" lon="2.42642">
        <ele>55</ele>
        <time>2024-01-07T11:23:07Z</time>
      </trkpt>
      <trkpt lat="48.56689" lon="2.42618">
        <ele>56</ele>
        <time>2024-01-07T11:23:36Z</time>
      </trkpt>
      <trkpt lat="48.56694" lon="2.42589">
        <ele>55</ele>
        <time>2024-01-07T11:23:55Z</time>
      </trkpt>
      <trkpt lat="48.56693" lon="2.42583">
        <ele>55</ele>
        <time>2024-01-07T11:24:00Z</time>
      </trkpt>
      <trkpt lat="48.56691" lon="2.42574">
        <ele>55</ele>
        <time>2024-01-07T11:24:06Z</time>
      </trkpt>
      <trkpt lat="48.56684" lon="2.4256">
        <ele>55</ele>
        <time>2024-01-07T11:24:15Z</time>
      </trkpt>
      <trkpt lat="48.56673" lon="2.42541">
        <ele>55</ele>
        <time>2024-01-07T11:24:33Z</time>
      </trkpt>
      <trkpt lat="48.56668" lon="2.42528">
        <ele>56</ele>
        <time>2024-01-07T11:24:44Z</time>
      </trkpt>
      <trkpt lat="48.56666" lon="2.4252">
        <ele>56</ele>
        <time>2024-01-07T11:24:48Z</time>
      </trkpt>
      <trkpt lat="48.5666" lon="2.42512">
        <ele>55</ele>
        <time>2024-01-07T11:25:07Z</time>
      </trkpt>
      <trkpt lat="48.56656" lon="2.42505">
        <ele>56</ele>
        <time>2024-01-07T11:25:12Z</time>
      </trkpt>
      <trkpt lat="48.56637" lon="2.42455">
        <ele>55</ele>
        <time>2024-01-07T11:25:45Z</time>
      </trkpt>
      <trkpt lat="48.56629" lon="2.42442">
        <ele>55</ele>
        <time>2024-01-07T11:25:54Z</time>
      </trkpt>
      <trkpt lat="48.56626" lon="2.42437">
        <ele>56</ele>
        <time>2024-01-07T11:25:58Z</time>
      </trkpt>
      <trkpt lat="48.56613" lon="2.42403">
        <ele>57</ele>
        <time>2024-01-07T11:26:17Z</time>
      </trkpt>
      <trkpt lat="48.56609" lon="2.42399">
        <ele>57</ele>
        <time>2024-01-07T11:26:21Z</time>
      </trkpt>
      <trkpt lat="48.56596" lon="2.42376">
        <ele>57</ele>
        <time>2024-01-07T11:26:37Z</time>
      </trkpt>
      <trkpt lat="48.56595" lon="2.42368">
        <ele>57</ele>
        <time>2024-01-07T11:26:41Z</time>
      </trkpt>
      <trkpt lat="48.56591" lon="2.42362">
        <ele>57</ele>
        <time>2024-01-07T11:26:45Z</time>
      </trkpt>
      <trkpt lat="48.56586" lon="2.42346">
        <ele>57</ele>
        <time>2024-01-07T11:26:53Z</time>
      </trkpt>
      <trkpt lat="48.56577" lon="2.42326">
        <ele>58</ele>
        <time>2024-01-07T11:27:05Z</time>
      </trkpt>
      <trkpt lat="48.56567" lon="2.42298">
        <ele>58</ele>
        <time>2024-01-07T11:27:21Z</time>
      </trkpt>
      <trkpt lat="48.56563" lon="2.42292">
        <ele>59</ele>
        <time>2024-01-07T11:27:26Z</time>
      </trkpt>
      <trkpt lat="48.56549" lon="2.42256">
        <ele>59</ele>
        <time>2024-01-07T11:27:50Z</time>
      </trkpt>
      <trkpt lat="48.56545" lon="2.42251">
        <ele>60</ele>
        <time>2024-01-07T11:27:55Z</time>
      </trkpt>
      <trkpt lat="48.56541" lon="2.42237">
        <ele>60</ele>
        <time>2024-01-07T11:28:04Z</time>
      </trkpt>
      <trkpt lat="48.56538" lon="2.42231">
        <ele>60</ele>
        <time>2024-01-07T11:28:08Z</time>
      </trkpt>
      <trkpt lat="48.56535" lon="2.42223">
        <ele>60</ele>
        <time>2024-01-07T11:28:13Z</time>
      </trkpt>
      <trkpt lat="48.56531" lon="2.42219">
        <ele>60</ele>
        <time>2024-01-07T11:28:18Z</time>
      </trkpt>
      <trkpt lat="48.56527" lon="2.42214">
        <ele>61</ele>
        <time>2024-01-07T11:28:23Z</time>
      </trkpt>
      <trkpt lat="48.56526" lon="2.42207">
        <ele>61</ele>
        <time>2024-01-07T11:28:28Z</time>
      </trkpt>
      <trkpt lat="48.56528" lon="2.422">
        <ele>61</ele>
        <time>2024-01-07T11:29:59Z</time>
      </trkpt>
      <trkpt lat="48.56525" lon="2.42192">
        <ele>61</ele>
        <time>2024-01-07T11:34:59Z</time>
      </trkpt>
      <trkpt lat="48.56519" lon="2.42186">
        <ele>61</ele>
        <time>2024-01-07T11:35:11Z</time>
      </trkpt>
      <trkpt lat="48.56504" lon="2.42153">
        <ele>62</ele>
        <time>2024-01-07T11:35:42Z</time>
      </trkpt>
      <trkpt lat="48.565" lon="2.42145">
        <ele>62</ele>
        <time>2024-01-07T11:35:54Z</time>
      </trkpt>
      <trkpt lat="48.56494" lon="2.42142">
        <ele>63</ele>
        <time>2024-01-07T11:36:15Z</time>
      </trkpt>
      <trkpt lat="48.56495" lon="2.4215">
        <ele>63</ele>
        <time>2024-01-07T11:36:26Z</time>
      </trkpt>
      <trkpt lat="48.56487" lon="2.4215">
        <ele>63</ele>
        <time>2024-01-07T11:36:52Z</time>
      </trkpt>
      <trkpt lat="48.56476" lon="2.4215">
        <ele>64</ele>
        <time>2024-01-07T11:37:02Z</time>
      </trkpt>
      <trkpt lat="48.56463" lon="2.42144">
        <ele>65</ele>
        <time>2024-01-07T11:37:15Z</time>
      </trkpt>
      <trkpt lat="48.56454" lon="2.42145">
        <ele>66</ele>
        <time>2024-01-07T11:37:24Z</time>
      </trkpt>
      <trkpt lat="48.56449" lon="2.42148">
        <ele>66</ele>
        <time>2024-01-07T11:37:29Z</time>
      </trkpt>
      <trkpt lat="48.56448" lon="2.42156">
        <ele>66</ele>
        <time>2024-01-07T11:37:34Z</time>
      </trkpt>
      <trkpt lat="48.56446" lon="2.42171">
        <ele>66</ele>
        <time>2024-01-07T11:37:44Z</time>
      </trkpt>
      <trkpt lat="48.56442" lon="2.42175">
        <ele>66</ele>
        <time>2024-01-07T11:37:49Z</time>
      </trkpt>
      <trkpt lat="48.56419" lon="2.42168">
        <ele>66</ele>
        <time>2024-01-07T12:33:53Z</time>
      </trkpt>
      <trkpt lat="48.5642" lon="2.42167">
        <ele>66</ele>
        <time>2024-01-07T12:33:54Z</time>
      </trkpt>
      <trkpt lat="48.56424" lon="2.4217">
        <ele>66</ele>
        <time>2024-01-07T12:34:10Z</time>
      </trkpt>
      <trkpt lat="48.56427" lon="2.42176">
        <ele>66</ele>
        <time>2024-01-07T12:34:57Z</time>
      </trkpt>
      <trkpt lat="48.56429" lon="2.4217">
        <ele>66</ele>
        <time>2024-01-07T12:36:56Z</time>
      </trkpt>
      <trkpt lat="48.56424" lon="2.42168">
        <ele>66</ele>
        <time>2024-01-07T12:38:16Z</time>
      </trkpt>
      <trkpt lat="48.56422" lon="2.42172">
        <ele>66</ele>
        <time>2024-01-07T12:39:12Z</time>
      </trkpt>
      <trkpt lat="48.5642" lon="2.42164">
        <ele>66</ele>
        <time>2024-01-07T12:39:52Z</time>
      </trkpt>
      <trkpt lat="48.56417" lon="2.42147">
        <ele>66</ele>
        <time>2024-01-07T12:40:09Z</time>
      </trkpt>
      <trkpt lat="48.5642" lon="2.4214">
        <ele>67</ele>
        <time>2024-01-07T12:40:15Z</time>
      </trkpt>
      <trkpt lat="48.56425" lon="2.42136">
        <ele>66</ele>
        <time>2024-01-07T12:40:20Z</time>
      </trkpt>
      <trkpt lat="48.56429" lon="2.4213">
        <ele>66</ele>
        <time>2024-01-07T12:40:24Z</time>
      </trkpt>
      <trkpt lat="48.56451" lon="2.42116">
        <ele>66</ele>
        <time>2024-01-07T12:40:39Z</time>
      </trkpt>
      <trkpt lat="48.56447" lon="2.42109">
        <ele>66</ele>
        <time>2024-01-07T12:40:47Z</time>
      </trkpt>
      <trkpt lat="48.56444" lon="2.42102">
        <ele>66</ele>
        <time>2024-01-07T12:40:55Z</time>
      </trkpt>
      <trkpt lat="48.56444" lon="2.42093">
        <ele>66</ele>
        <time>2024-01-07T12:41:13Z</time>
      </trkpt>
      <trkpt lat="48.56449" lon="2.42092">
        <ele>66</ele>
        <time>2024-01-07T12:41:24Z</time>
      </trkpt>
      <trkpt lat="48.56447" lon="2.4208">
        <ele>66</ele>
        <time>2024-01-07T12:41:43Z</time>
      </trkpt>
      <trkpt lat="48.56446" lon="2.42071">
        <ele>65</ele>
        <time>2024-01-07T12:41:48Z</time>
      </trkpt>
      <trkpt lat="48.56446" lon="2.42065">
        <ele>65</ele>
        <time>2024-01-07T12:41:53Z</time>
      </trkpt>
      <trkpt lat="48.56447" lon="2.42046">
        <ele>64</ele>
        <time>2024-01-07T12:42:06Z</time>
      </trkpt>
      <trkpt lat="48.56447" lon="2.42036">
        <ele>64</ele>
        <time>2024-01-07T12:42:12Z</time>
      </trkpt>
      <trkpt lat="48.56447" lon="2.42029">
        <ele>65</ele>
        <time>2024-01-07T12:42:16Z</time>
      </trkpt>
      <trkpt lat="48.5645" lon="2.42022">
        <ele>65</ele>
        <time>2024-01-07T12:42:20Z</time>
      </trkpt>
      <trkpt lat="48.56451" lon="2.42012">
        <ele>64</ele>
        <time>2024-01-07T12:42:26Z</time>
      </trkpt>
      <trkpt lat="48.56445" lon="2.42005">
        <ele>64</ele>
        <time>2024-01-07T12:42:34Z</time>
      </trkpt>
      <trkpt lat="48.56441" lon="2.41999">
        <ele>65</ele>
        <time>2024-01-07T12:43:53Z</time>
      </trkpt>
      <trkpt lat="48.56444" lon="2.4199">
        <ele>65</ele>
        <time>2024-01-07T12:44:05Z</time>
      </trkpt>
      <trkpt lat="48.56436" lon="2.41981">
        <ele>65</ele>
        <time>2024-01-07T12:44:16Z</time>
      </trkpt>
      <trkpt lat="48.56433" lon="2.41984">
        <ele>65</ele>
        <time>2024-01-07T12:44:42Z</time>
      </trkpt>
      <trkpt lat="48.56429" lon="2.41992">
        <ele>65</ele>
        <time>2024-01-07T12:45:42Z</time>
      </trkpt>
      <trkpt lat="48.56427" lon="2.41983">
        <ele>65</ele>
        <time>2024-01-07T12:45:48Z</time>
      </trkpt>
      <trkpt lat="48.56423" lon="2.41978">
        <ele>65</ele>
        <time>2024-01-07T12:45:52Z</time>
      </trkpt>
      <trkpt lat="48.56413" lon="2.41949">
        <ele>65</ele>
        <time>2024-01-07T12:46:09Z</time>
      </trkpt>
      <trkpt lat="48.56402" lon="2.41931">
        <ele>65</ele>
        <time>2024-01-07T12:46:22Z</time>
      </trkpt>
      <trkpt lat="48.5639" lon="2.41915">
        <ele>65</ele>
        <time>2024-01-07T12:46:37Z</time>
      </trkpt>
      <trkpt lat="48.56387" lon="2.4191">
        <ele>65</ele>
        <time>2024-01-07T12:46:41Z</time>
      </trkpt>
      <trkpt lat="48.56385" lon="2.41898">
        <ele>65</ele>
        <time>2024-01-07T12:46:52Z</time>
      </trkpt>
      <trkpt lat="48.56389" lon="2.41895">
        <ele>65</ele>
        <time>2024-01-07T12:47:04Z</time>
      </trkpt>
      <trkpt lat="48.56395" lon="2.41892">
        <ele>64</ele>
        <time>2024-01-07T12:48:26Z</time>
      </trkpt>
      <trkpt lat="48.56394" lon="2.41904">
        <ele>64</ele>
        <time>2024-01-07T12:50:36Z</time>
      </trkpt>
      <trkpt lat="48.56391" lon="2.41911">
        <ele>64</ele>
        <time>2024-01-07T12:50:40Z</time>
      </trkpt>
      <trkpt lat="48.56388" lon="2.41917">
        <ele>65</ele>
        <time>2024-01-07T12:50:44Z</time>
      </trkpt>
      <trkpt lat="48.56383" lon="2.41937">
        <ele>65</ele>
        <time>2024-01-07T12:50:57Z</time>
      </trkpt>
      <trkpt lat="48.56381" lon="2.41944">
        <ele>65</ele>
        <time>2024-01-07T12:51:01Z</time>
      </trkpt>
      <trkpt lat="48.56373" lon="2.41966">
        <ele>66</ele>
        <time>2024-01-07T12:51:17Z</time>
      </trkpt>
      <trkpt lat="48.56373" lon="2.41974">
        <ele>66</ele>
        <time>2024-01-07T12:51:22Z</time>
      </trkpt>
      <trkpt lat="48.56381" lon="2.42">
        <ele>66</ele>
        <time>2024-01-07T12:51:42Z</time>
      </trkpt>
      <trkpt lat="48.5639" lon="2.42012">
        <ele>66</ele>
        <time>2024-01-07T12:51:53Z</time>
      </trkpt>
      <trkpt lat="48.56391" lon="2.42019">
        <ele>66</ele>
        <time>2024-01-07T12:51:57Z</time>
      </trkpt>
      <trkpt lat="48.56386" lon="2.42031">
        <ele>66</ele>
        <time>2024-01-07T12:52:06Z</time>
      </trkpt>
      <trkpt lat="48.56381" lon="2.42036">
        <ele>66</ele>
        <time>2024-01-07T12:52:11Z</time>
      </trkpt>
      <trkpt lat="48.56377" lon="2.42041">
        <ele>66</ele>
        <time>2024-01-07T12:52:15Z</time>
      </trkpt>
      <trkpt lat="48.56372" lon="2.42046">
        <ele>67</ele>
        <time>2024-01-07T12:52:20Z</time>
      </trkpt>
      <trkpt lat="48.56367" lon="2.42049">
        <ele>67</ele>
        <time>2024-01-07T12:52:24Z</time>
      </trkpt>
      <trkpt lat="48.5636" lon="2.42059">
        <ele>67</ele>
        <time>2024-01-07T12:52:34Z</time>
      </trkpt>
      <trkpt lat="48.56354" lon="2.42063">
        <ele>68</ele>
        <time>2024-01-07T12:54:17Z</time>
      </trkpt>
      <trkpt lat="48.56346" lon="2.42069">
        <ele>69</ele>
        <time>2024-01-07T12:54:28Z</time>
      </trkpt>
      <trkpt lat="48.5634" lon="2.42072">
        <ele>70</ele>
        <time>2024-01-07T12:54:34Z</time>
      </trkpt>
      <trkpt lat="48.56333" lon="2.42082">
        <ele>70</ele>
        <time>2024-01-07T12:54:42Z</time>
      </trkpt>
      <trkpt lat="48.56328" lon="2.42085">
        <ele>70</ele>
        <time>2024-01-07T12:54:46Z</time>
      </trkpt>
      <trkpt lat="48.56328" lon="2.42084">
        <ele>70</ele>
        <time>2024-01-07T12:55:02Z</time>
      </trkpt>
      <trkpt lat="48.56328" lon="2.42079">
        <ele>70</ele>
        <time>2024-01-07T12:57:10Z</time>
      </trkpt>
      <trkpt lat="48.56329" lon="2.42082">
        <ele>71</ele>
        <time>2024-01-07T12:58:21Z</time>
      </trkpt>
      <trkpt lat="48.56345" lon="2.42101">
        <ele>70</ele>
        <time>2024-01-07T12:58:48Z</time>
      </trkpt>
      <trkpt lat="48.5635" lon="2.42103">
        <ele>70</ele>
        <time>2024-01-07T12:58:53Z</time>
      </trkpt>
      <trkpt lat="48.56353" lon="2.42109">
        <ele>70</ele>
        <time>2024-01-07T12:59:01Z</time>
      </trkpt>
      <trkpt lat="48.56354" lon="2.42117">
        <ele>70</ele>
        <time>2024-01-07T12:59:07Z</time>
      </trkpt>
      <trkpt lat="48.56362" lon="2.42111">
        <ele>69</ele>
        <time>2024-01-07T12:59:18Z</time>
      </trkpt>
      <trkpt lat="48.56367" lon="2.42106">
        <ele>68</ele>
        <time>2024-01-07T12:59:22Z</time>
      </trkpt>
      <trkpt lat="48.5637" lon="2.42102">
        <ele>69</ele>
        <time>2024-01-07T12:59:26Z</time>
      </trkpt>
      <trkpt lat="48.5638" lon="2.42095">
        <ele>68</ele>
        <time>2024-01-07T12:59:35Z</time>
      </trkpt>
      <trkpt lat="48.564" lon="2.42076">
        <ele>67</ele>
        <time>2024-01-07T12:59:57Z</time>
      </trkpt>
      <trkpt lat="48.56407" lon="2.42066">
        <ele>67</ele>
        <time>2024-01-07T13:00:06Z</time>
      </trkpt>
      <trkpt lat="48.56431" lon="2.42049">
        <ele>65</ele>
        <time>2024-01-07T13:00:33Z</time>
      </trkpt>
      <trkpt lat="48.56438" lon="2.42037">
        <ele>65</ele>
        <time>2024-01-07T13:00:42Z</time>
      </trkpt>
      <trkpt lat="48.56443" lon="2.42031">
        <ele>64</ele>
        <time>2024-01-07T13:00:50Z</time>
      </trkpt>
      <trkpt lat="48.56451" lon="2.42025">
        <ele>63</ele>
        <time>2024-01-07T13:00:59Z</time>
      </trkpt>
      <trkpt lat="48.56455" lon="2.42021">
        <ele>63</ele>
        <time>2024-01-07T13:01:04Z</time>
      </trkpt>
      <trkpt lat="48.5646" lon="2.4202">
        <ele>64</ele>
        <time>2024-01-07T13:01:13Z</time>
      </trkpt>
      <trkpt lat="48.56471" lon="2.4204">
        <ele>63</ele>
        <time>2024-01-07T13:01:44Z</time>
      </trkpt>
      <trkpt lat="48.56475" lon="2.42048">
        <ele>62</ele>
        <time>2024-01-07T13:01:50Z</time>
      </trkpt>
      <trkpt lat="48.56481" lon="2.4207">
        <ele>62</ele>
        <time>2024-01-07T13:02:05Z</time>
      </trkpt>
      <trkpt lat="48.5648" lon="2.42082">
        <ele>62</ele>
        <time>2024-01-07T13:02:14Z</time>
      </trkpt>
      <trkpt lat="48.56486" lon="2.42094">
        <ele>62</ele>
        <time>2024-01-07T13:02:24Z</time>
      </trkpt>
      <trkpt lat="48.5649" lon="2.421">
        <ele>62</ele>
        <time>2024-01-07T13:02:29Z</time>
      </trkpt>
      <trkpt lat="48.56485" lon="2.42108">
        <ele>62</ele>
        <time>2024-01-07T13:02:55Z</time>
      </trkpt>
      <trkpt lat="48.56483" lon="2.42118">
        <ele>63</ele>
        <time>2024-01-07T13:03:03Z</time>
      </trkpt>
      <trkpt lat="48.56487" lon="2.42121">
        <ele>62</ele>
        <time>2024-01-07T13:03:14Z</time>
      </trkpt>
      <trkpt lat="48.56493" lon="2.42124">
        <ele>62</ele>
        <time>2024-01-07T13:03:20Z</time>
      </trkpt>
      <trkpt lat="48.565" lon="2.42134">
        <ele>62</ele>
        <time>2024-01-07T13:03:32Z</time>
      </trkpt>
      <trkpt lat="48.56523" lon="2.42177">
        <ele>61</ele>
        <time>2024-01-07T13:04:08Z</time>
      </trkpt>
      <trkpt lat="48.56532" lon="2.42197">
        <ele>60</ele>
        <time>2024-01-07T13:04:21Z</time>
      </trkpt>
      <trkpt lat="48.5655" lon="2.42229">
        <ele>60</ele>
        <time>2024-01-07T13:04:45Z</time>
      </trkpt>
      <trkpt lat="48.56555" lon="2.42246">
        <ele>60</ele>
        <time>2024-01-07T13:04:57Z</time>
      </trkpt>
      <trkpt lat="48.56559" lon="2.42252">
        <ele>59</ele>
        <time>2024-01-07T13:05:01Z</time>
      </trkpt>
      <trkpt lat="48.56576" lon="2.42299">
        <ele>58</ele>
        <time>2024-01-07T13:05:31Z</time>
      </trkpt>
      <trkpt lat="48.56581" lon="2.42306">
        <ele>58</ele>
        <time>2024-01-07T13:05:36Z</time>
      </trkpt>
      <trkpt lat="48.56588" lon="2.42323">
        <ele>58</ele>
        <time>2024-01-07T13:05:48Z</time>
      </trkpt>
      <trkpt lat="48.56592" lon="2.42329">
        <ele>57</ele>
        <time>2024-01-07T13:05:53Z</time>
      </trkpt>
      <trkpt lat="48.56597" lon="2.42344">
        <ele>57</ele>
        <time>2024-01-07T13:06:02Z</time>
      </trkpt>
      <trkpt lat="48.56599" lon="2.42352">
        <ele>57</ele>
        <time>2024-01-07T13:06:07Z</time>
      </trkpt>
      <trkpt lat="48.5661" lon="2.42371">
        <ele>56</ele>
        <time>2024-01-07T13:06:19Z</time>
      </trkpt>
      <trkpt lat="48.56613" lon="2.42378">
        <ele>57</ele>
        <time>2024-01-07T13:06:24Z</time>
      </trkpt>
      <trkpt lat="48.56619" lon="2.42394">
        <ele>56</ele>
        <time>2024-01-07T13:06:34Z</time>
      </trkpt>
      <trkpt lat="48.56631" lon="2.42412">
        <ele>56</ele>
        <time>2024-01-07T13:06:46Z</time>
      </trkpt>
      <trkpt lat="48.56645" lon="2.4245">
        <ele>55</ele>
        <time>2024-01-07T13:07:10Z</time>
      </trkpt>
      <trkpt lat="48.56665" lon="2.42499">
        <ele>55</ele>
        <time>2024-01-07T13:07:38Z</time>
      </trkpt>
      <trkpt lat="48.56665" lon="2.42507">
        <ele>55</ele>
        <time>2024-01-07T13:07:42Z</time>
      </trkpt>
      <trkpt lat="48.56667" lon="2.42514">
        <ele>55</ele>
        <time>2024-01-07T13:07:46Z</time>
      </trkpt>
      <trkpt lat="48.56671" lon="2.42524">
        <ele>54</ele>
        <time>2024-01-07T13:07:54Z</time>
      </trkpt>
      <trkpt lat="48.56675" lon="2.42529">
        <ele>55</ele>
        <time>2024-01-07T13:07:59Z</time>
      </trkpt>
      <trkpt lat="48.56678" lon="2.42535">
        <ele>55</ele>
        <time>2024-01-07T13:08:04Z</time>
      </trkpt>
      <trkpt lat="48.56682" lon="2.42549">
        <ele>54</ele>
        <time>2024-01-07T13:08:14Z</time>
      </trkpt>
      <trkpt lat="48.56685" lon="2.42555">
        <ele>54</ele>
        <time>2024-01-07T13:08:18Z</time>
      </trkpt>
      <trkpt lat="48.56689" lon="2.42562">
        <ele>54</ele>
        <time>2024-01-07T13:08:23Z</time>
      </trkpt>
      <trkpt lat="48.56692" lon="2.42567">
        <ele>54</ele>
        <time>2024-01-07T13:08:27Z</time>
      </trkpt>
      <trkpt lat="48.56694" lon="2.42569">
        <ele>54</ele>
        <time>2024-01-07T13:08:55Z</time>
      </trkpt>
      <trkpt lat="48.56696" lon="2.42543">
        <ele>54</ele>
        <time>2024-01-07T13:09:28Z</time>
      </trkpt>
      <trkpt lat="48.56695" lon="2.42521">
        <ele>53</ele>
        <time>2024-01-07T13:09:47Z</time>
      </trkpt>
      <trkpt lat="48.56685" lon="2.42473">
        <ele>53</ele>
        <time>2024-01-07T13:10:18Z</time>
      </trkpt>
      <trkpt lat="48.56681" lon="2.42452">
        <ele>53</ele>
        <time>2024-01-07T13:10:29Z</time>
      </trkpt>
      <trkpt lat="48.56678" lon="2.42437">
        <ele>53</ele>
        <time>2024-01-07T13:10:37Z</time>
      </trkpt>
      <trkpt lat="48.56677" lon="2.4243">
        <ele>53</ele>
        <time>2024-01-07T13:10:41Z</time>
      </trkpt>
      <trkpt lat="48.56675" lon="2.42423">
        <ele>53</ele>
        <time>2024-01-07T13:10:45Z</time>
      </trkpt>
      <trkpt lat="48.56665" lon="2.4237">
        <ele>53</ele>
        <time>2024-01-07T13:11:16Z</time>
      </trkpt>
      <trkpt lat="48.56663" lon="2.4236">
        <ele>53</ele>
        <time>2024-01-07T13:11:23Z</time>
      </trkpt>
      <trkpt lat="48.56662" lon="2.42352">
        <ele>53</ele>
        <time>2024-01-07T13:11:28Z</time>
      </trkpt>
      <trkpt lat="48.56659" lon="2.42344">
        <ele>53</ele>
        <time>2024-01-07T13:11:33Z</time>
      </trkpt>
      <trkpt lat="48.5665" lon="2.42301">
        <ele>52</ele>
        <time>2024-01-07T13:11:58Z</time>
      </trkpt>
      <trkpt lat="48.56643" lon="2.42263">
        <ele>52</ele>
        <time>2024-01-07T13:12:23Z</time>
      </trkpt>
      <trkpt lat="48.5664" lon="2.42255">
        <ele>53</ele>
        <time>2024-01-07T13:12:30Z</time>
      </trkpt>
      <trkpt lat="48.5663" lon="2.42196">
        <ele>53</ele>
        <time>2024-01-07T13:13:03Z</time>
      </trkpt>
      <trkpt lat="48.56624" lon="2.42158">
        <ele>53</ele>
        <time>2024-01-07T13:13:25Z</time>
      </trkpt>
      <trkpt lat="48.5662" lon="2.42143">
        <ele>53</ele>
        <time>2024-01-07T13:13:34Z</time>
      </trkpt>
      <trkpt lat="48.56614" lon="2.4211">
        <ele>53</ele>
        <time>2024-01-07T13:13:55Z</time>
      </trkpt>
      <trkpt lat="48.56614" lon="2.42102">
        <ele>53</ele>
        <time>2024-01-07T13:13:59Z</time>
      </trkpt>
      <trkpt lat="48.56614" lon="2.42095">
        <ele>53</ele>
        <time>2024-01-07T13:14:02Z</time>
      </trkpt>
      <trkpt lat="48.56623" lon="2.42066">
        <ele>53</ele>
        <time>2024-01-07T13:14:18Z</time>
      </trkpt>
      <trkpt lat="48.56626" lon="2.42059">
        <ele>53</ele>
        <time>2024-01-07T13:14:22Z</time>
      </trkpt>
      <trkpt lat="48.56629" lon="2.42053">
        <ele>53</ele>
        <time>2024-01-07T13:14:26Z</time>
      </trkpt>
      <trkpt lat="48.56633" lon="2.42047">
        <ele>53</ele>
        <time>2024-01-07T13:14:30Z</time>
      </trkpt>
      <trkpt lat="48.56638" lon="2.42043">
        <ele>52</ele>
        <time>2024-01-07T13:14:34Z</time>
      </trkpt>
      <trkpt lat="48.56646" lon="2.42037">
        <ele>52</ele>
        <time>2024-01-07T13:14:43Z</time>
      </trkpt>
      <trkpt lat="48.56655" lon="2.4203">
        <ele>52</ele>
        <time>2024-01-07T13:14:51Z</time>
      </trkpt>
      <trkpt lat="48.56662" lon="2.42021">
        <ele>51</ele>
        <time>2024-01-07T13:14:59Z</time>
      </trkpt>
      <trkpt lat="48.56699" lon="2.41989">
        <ele>49</ele>
        <time>2024-01-07T13:15:33Z</time>
      </trkpt>
      <trkpt lat="48.56703" lon="2.41984">
        <ele>49</ele>
        <time>2024-01-07T13:15:37Z</time>
      </trkpt>
      <trkpt lat="48.56715" lon="2.41968">
        <ele>49</ele>
        <time>2024-01-07T13:15:49Z</time>
      </trkpt>
      <trkpt lat="48.56719" lon="2.41965">
        <ele>49</ele>
        <time>2024-01-07T13:15:53Z</time>
      </trkpt>
      <trkpt lat="48.56752" lon="2.4193">
        <ele>48</ele>
        <time>2024-01-07T13:16:25Z</time>
      </trkpt>
      <trkpt lat="48.56761" lon="2.41906">
        <ele>47</ele>
        <time>2024-01-07T13:16:42Z</time>
      </trkpt>
      <trkpt lat="48.56759" lon="2.4189">
        <ele>47</ele>
        <time>2024-01-07T13:16:52Z</time>
      </trkpt>
      <trkpt lat="48.56735" lon="2.41843">
        <ele>47</ele>
        <time>2024-01-07T13:17:26Z</time>
      </trkpt>
      <trkpt lat="48.56733" lon="2.41838">
        <ele>47</ele>
        <time>2024-01-07T13:17:30Z</time>
      </trkpt>
      <trkpt lat="48.56708" lon="2.41785">
        <ele>47</ele>
        <time>2024-01-07T13:18:03Z</time>
      </trkpt>
      <trkpt lat="48.56702" lon="2.41772">
        <ele>47</ele>
        <time>2024-01-07T13:18:12Z</time>
      </trkpt>
      <trkpt lat="48.567" lon="2.41765">
        <ele>47</ele>
        <time>2024-01-07T13:18:16Z</time>
      </trkpt>
      <trkpt lat="48.56692" lon="2.41748">
        <ele>47</ele>
        <time>2024-01-07T13:18:28Z</time>
      </trkpt>
      <trkpt lat="48.56685" lon="2.41726">
        <ele>47</ele>
        <time>2024-01-07T13:18:42Z</time>
      </trkpt>
      <trkpt lat="48.56676" lon="2.41708">
        <ele>47</ele>
        <time>2024-01-07T13:18:57Z</time>
      </trkpt>
      <trkpt lat="48.56674" lon="2.417">
        <ele>47</ele>
        <time>2024-01-07T13:19:01Z</time>
      </trkpt>
      <trkpt lat="48.56669" lon="2.41686">
        <ele>48</ele>
        <time>2024-01-07T13:19:09Z</time>
      </trkpt>
      <trkpt lat="48.56667" lon="2.41678">
        <ele>48</ele>
        <time>2024-01-07T13:19:14Z</time>
      </trkpt>
      <trkpt lat="48.56667" lon="2.4167">
        <ele>48</ele>
        <time>2024-01-07T13:19:18Z</time>
      </trkpt>
      <trkpt lat="48.56667" lon="2.41663">
        <ele>48</ele>
        <time>2024-01-07T13:19:22Z</time>
      </trkpt>
      <trkpt lat="48.56674" lon="2.41643">
        <ele>48</ele>
        <time>2024-01-07T13:19:33Z</time>
      </trkpt>
      <trkpt lat="48.56697" lon="2.416">
        <ele>49</ele>
        <time>2024-01-07T13:20:01Z</time>
      </trkpt>
      <trkpt lat="48.56703" lon="2.41605">
        <ele>49</ele>
        <time>2024-01-07T13:20:17Z</time>
      </trkpt>
      <trkpt lat="48.56707" lon="2.41598">
        <ele>49</ele>
        <time>2024-01-07T13:20:35Z</time>
      </trkpt>
      <trkpt lat="48.56709" lon="2.41592">
        <ele>48</ele>
        <time>2024-01-07T13:20:39Z</time>
      </trkpt>
      <trkpt lat="48.56714" lon="2.41585">
        <ele>49</ele>
        <time>2024-01-07T13:20:43Z</time>
      </trkpt>
      <trkpt lat="48.56717" lon="2.41579">
        <ele>48</ele>
        <time>2024-01-07T13:20:47Z</time>
      </trkpt>
      <trkpt lat="48.56721" lon="2.41574">
        <ele>48</ele>
        <time>2024-01-07T13:20:51Z</time>
      </trkpt>
      <trkpt lat="48.56724" lon="2.41567">
        <ele>48</ele>
        <time>2024-01-07T13:20:56Z</time>
      </trkpt>
      <trkpt lat="48.56731" lon="2.41555">
        <ele>47</ele>
        <time>2024-01-07T13:21:03Z</time>
      </trkpt>
      <trkpt lat="48.56747" lon="2.41535">
        <ele>47</ele>
        <time>2024-01-07T13:21:18Z</time>
      </trkpt>
      <trkpt lat="48.56749" lon="2.41528">
        <ele>47</ele>
        <time>2024-01-07T13:21:22Z</time>
      </trkpt>
      <trkpt lat="48.56753" lon="2.41525">
        <ele>48</ele>
        <time>2024-01-07T13:21:26Z</time>
      </trkpt>
      <trkpt lat="48.56765" lon="2.41511">
        <ele>47</ele>
        <time>2024-01-07T13:21:39Z</time>
      </trkpt>
      <trkpt lat="48.56769" lon="2.41503">
        <ele>48</ele>
        <time>2024-01-07T13:21:48Z</time>
      </trkpt>
      <trkpt lat="48.56777" lon="2.41494">
        <ele>47</ele>
        <time>2024-01-07T13:22:26Z</time>
      </trkpt>
      <trkpt lat="48.56782" lon="2.41489">
        <ele>47</ele>
        <time>2024-01-07T13:22:30Z</time>
      </trkpt>
      <trkpt lat="48.56789" lon="2.41477">
        <ele>47</ele>
        <time>2024-01-07T13:22:37Z</time>
      </trkpt>
      <trkpt lat="48.56796" lon="2.41468">
        <ele>46</ele>
        <time>2024-01-07T13:22:45Z</time>
      </trkpt>
      <trkpt lat="48.56816" lon="2.41442">
        <ele>46</ele>
        <time>2024-01-07T13:23:08Z</time>
      </trkpt>
      <trkpt lat="48.56821" lon="2.41437">
        <ele>46</ele>
        <time>2024-01-07T13:23:12Z</time>
      </trkpt>
      <trkpt lat="48.56825" lon="2.41432">
        <ele>46</ele>
        <time>2024-01-07T13:23:16Z</time>
      </trkpt>
      <trkpt lat="48.5685" lon="2.41395">
        <ele>46</ele>
        <time>2024-01-07T13:23:41Z</time>
      </trkpt>
      <trkpt lat="48.56853" lon="2.41389">
        <ele>46</ele>
        <time>2024-01-07T13:23:45Z</time>
      </trkpt>
      <trkpt lat="48.56883" lon="2.41347">
        <ele>47</ele>
        <time>2024-01-07T13:24:19Z</time>
      </trkpt>
      <trkpt lat="48.56903" lon="2.4132">
        <ele>47</ele>
        <time>2024-01-07T13:24:40Z</time>
      </trkpt>
      <trkpt lat="48.5691" lon="2.41311">
        <ele>47</ele>
        <time>2024-01-07T13:24:48Z</time>
      </trkpt>
      <trkpt lat="48.5692" lon="2.41294">
        <ele>48</ele>
        <time>2024-01-07T13:25:00Z</time>
      </trkpt>
      <trkpt lat="48.56928" lon="2.41282">
        <ele>48</ele>
        <time>2024-01-07T13:25:10Z</time>
      </trkpt>
      <trkpt lat="48.56932" lon="2.41277">
        <ele>48</ele>
        <time>2024-01-07T13:25:15Z</time>
      </trkpt>
      <trkpt lat="48.56936" lon="2.41272">
        <ele>48</ele>
        <time>2024-01-07T13:25:19Z</time>
      </trkpt>
      <trkpt lat="48.56945" lon="2.41263">
        <ele>48</ele>
        <time>2024-01-07T13:25:27Z</time>
      </trkpt>
      <trkpt lat="48.56948" lon="2.41257">
        <ele>49</ele>
        <time>2024-01-07T13:25:31Z</time>
      </trkpt>
      <trkpt lat="48.56952" lon="2.41253">
        <ele>50</ele>
        <time>2024-01-07T13:25:35Z</time>
      </trkpt>
      <trkpt lat="48.56963" lon="2.41241">
        <ele>51</ele>
        <time>2024-01-07T13:25:49Z</time>
      </trkpt>
      <trkpt lat="48.56967" lon="2.41236">
        <ele>51</ele>
        <time>2024-01-07T13:25:53Z</time>
      </trkpt>
      <trkpt lat="48.56972" lon="2.41232">
        <ele>52</ele>
        <time>2024-01-07T13:25:56Z</time>
      </trkpt>
      <trkpt lat="48.5698" lon="2.41222">
        <ele>52</ele>
        <time>2024-01-07T13:26:05Z</time>
      </trkpt>
      <trkpt lat="48.56985" lon="2.41218">
        <ele>53</ele>
        <time>2024-01-07T13:26:10Z</time>
      </trkpt>
      <trkpt lat="48.56989" lon="2.41212">
        <ele>53</ele>
        <time>2024-01-07T13:26:14Z</time>
      </trkpt>
      <trkpt lat="48.57014" lon="2.41181">
        <ele>57</ele>
        <time>2024-01-07T13:26:43Z</time>
      </trkpt>
      <trkpt lat="48.57026" lon="2.41164">
        <ele>59</ele>
        <time>2024-01-07T13:26:58Z</time>
      </trkpt>
      <trkpt lat="48.5703" lon="2.4116">
        <ele>60</ele>
        <time>2024-01-07T13:27:03Z</time>
      </trkpt>
      <trkpt lat="48.57037" lon="2.41149">
        <ele>61</ele>
        <time>2024-01-07T13:27:13Z</time>
      </trkpt>
      <trkpt lat="48.57063" lon="2.41119">
        <ele>65</ele>
        <time>2024-01-07T13:27:46Z</time>
      </trkpt>
      <trkpt lat="48.5709" lon="2.41088">
        <ele>69</ele>
        <time>2024-01-07T13:28:18Z</time>
      </trkpt>
      <trkpt lat="48.5712" lon="2.41057">
        <ele>73</ele>
        <time>2024-01-07T13:28:51Z</time>
      </trkpt>
      <trkpt lat="48.57125" lon="2.41052">
        <ele>74</ele>
        <time>2024-01-07T13:28:59Z</time>
      </trkpt>
      <trkpt lat="48.57135" lon="2.41042">
        <ele>74</ele>
        <time>2024-01-07T13:29:11Z</time>
      </trkpt>
      <trkpt lat="48.57158" lon="2.41021">
        <ele>77</ele>
        <time>2024-01-07T13:29:38Z</time>
      </trkpt>
      <trkpt lat="48.57168" lon="2.41016">
        <ele>78</ele>
        <time>2024-01-07T13:29:47Z</time>
      </trkpt>
      <trkpt lat="48.57172" lon="2.41012">
        <ele>79</ele>
        <time>2024-01-07T13:29:52Z</time>
      </trkpt>
      <trkpt lat="48.57175" lon="2.41001">
        <ele>79</ele>
        <time>2024-01-07T13:29:59Z</time>
      </trkpt>
      <trkpt lat="48.57178" lon="2.40982">
        <ele>79</ele>
        <time>2024-01-07T13:30:09Z</time>
      </trkpt>
      <trkpt lat="48.57184" lon="2.40933">
        <ele>81</ele>
        <time>2024-01-07T13:30:36Z</time>
      </trkpt>
      <trkpt lat="48.57182" lon="2.40926">
        <ele>81</ele>
        <time>2024-01-07T13:30:40Z</time>
      </trkpt>
      <trkpt lat="48.57184" lon="2.40917">
        <ele>82</ele>
        <time>2024-01-07T13:30:45Z</time>
      </trkpt>
      <trkpt lat="48.57186" lon="2.40909">
        <ele>81</ele>
        <time>2024-01-07T13:30:49Z</time>
      </trkpt>
      <trkpt lat="48.57189" lon="2.40893">
        <ele>80</ele>
        <time>2024-01-07T13:30:58Z</time>
      </trkpt>
      <trkpt lat="48.5719" lon="2.40885">
        <ele>82</ele>
        <time>2024-01-07T13:31:03Z</time>
      </trkpt>
      <trkpt lat="48.57192" lon="2.40878">
        <ele>81</ele>
        <time>2024-01-07T13:31:08Z</time>
      </trkpt>
      <trkpt lat="48.57195" lon="2.4087">
        <ele>81</ele>
        <time>2024-01-07T13:31:13Z</time>
      </trkpt>
      <trkpt lat="48.57198" lon="2.40861">
        <ele>81</ele>
        <time>2024-01-07T13:31:17Z</time>
      </trkpt>
      <trkpt lat="48.57201" lon="2.40855">
        <ele>81</ele>
        <time>2024-01-07T13:31:20Z</time>
      </trkpt>
      <trkpt lat="48.57206" lon="2.40849">
        <ele>81</ele>
        <time>2024-01-07T13:31:25Z</time>
      </trkpt>
      <trkpt lat="48.57208" lon="2.40842">
        <ele>81</ele>
        <time>2024-01-07T13:31:29Z</time>
      </trkpt>
      <trkpt lat="48.57212" lon="2.40835">
        <ele>81</ele>
        <time>2024-01-07T13:31:33Z</time>
      </trkpt>
      <trkpt lat="48.57211" lon="2.40828">
        <ele>81</ele>
        <time>2024-01-07T13:31:37Z</time>
      </trkpt>
      <trkpt lat="48.57207" lon="2.40821">
        <ele>81</ele>
        <time>2024-01-07T13:31:42Z</time>
      </trkpt>
      <trkpt lat="48.57204" lon="2.40816">
        <ele>81</ele>
        <time>2024-01-07T13:31:47Z</time>
      </trkpt>
      <trkpt lat="48.57198" lon="2.40817">
        <ele>82</ele>
        <time>2024-01-07T13:31:56Z</time>
      </trkpt>
      <trkpt lat="48.57199" lon="2.40806">
        <ele>81</ele>
        <time>2024-01-07T13:32:02Z</time>
      </trkpt>
      <trkpt lat="48.57198" lon="2.40799">
        <ele>81</ele>
        <time>2024-01-07T13:32:06Z</time>
      </trkpt>
      <trkpt lat="48.57199" lon="2.40791">
        <ele>81</ele>
        <time>2024-01-07T13:32:10Z</time>
      </trkpt>
      <trkpt lat="48.572" lon="2.40784">
        <ele>81</ele>
        <time>2024-01-07T13:32:14Z</time>
      </trkpt>
      <trkpt lat="48.57197" lon="2.40776">
        <ele>81</ele>
        <time>2024-01-07T13:32:19Z</time>
      </trkpt>
      <trkpt lat="48.57192" lon="2.40771">
        <ele>81</ele>
        <time>2024-01-07T13:32:22Z</time>
      </trkpt>
      <trkpt lat="48.57188" lon="2.40768">
        <ele>81</ele>
        <time>2024-01-07T13:32:25Z</time>
      </trkpt>
      <trkpt lat="48.57178" lon="2.40768">
        <ele>80</ele>
        <time>2024-01-07T13:32:31Z</time>
      </trkpt>
      <trkpt lat="48.57162" lon="2.40771">
        <ele>80</ele>
        <time>2024-01-07T13:32:43Z</time>
      </trkpt>
      <trkpt lat="48.57143" lon="2.40782">
        <ele>79</ele>
        <time>2024-01-07T13:32:57Z</time>
      </trkpt>
      <trkpt lat="48.57139" lon="2.40782">
        <ele>79</ele>
        <time>2024-01-07T13:33:02Z</time>
      </trkpt>
      <trkpt lat="48.57134" lon="2.40779">
        <ele>79</ele>
        <time>2024-01-07T13:33:06Z</time>
      </trkpt>
      <trkpt lat="48.57129" lon="2.40768">
        <ele>78</ele>
        <time>2024-01-07T13:33:13Z</time>
      </trkpt>
      <trkpt lat="48.57125" lon="2.40762">
        <ele>78</ele>
        <time>2024-01-07T13:33:17Z</time>
      </trkpt>
      <trkpt lat="48.57117" lon="2.40749">
        <ele>77</ele>
        <time>2024-01-07T13:33:29Z</time>
      </trkpt>
      <trkpt lat="48.57098" lon="2.40717">
        <ele>77</ele>
        <time>2024-01-07T13:33:51Z</time>
      </trkpt>
      <trkpt lat="48.57096" lon="2.4071">
        <ele>77</ele>
        <time>2024-01-07T13:33:56Z</time>
      </trkpt>
      <trkpt lat="48.57086" lon="2.40681">
        <ele>76</ele>
        <time>2024-01-07T13:34:15Z</time>
      </trkpt>
      <trkpt lat="48.57082" lon="2.40676">
        <ele>76</ele>
        <time>2024-01-07T13:34:19Z</time>
      </trkpt>
      <trkpt lat="48.57078" lon="2.40668">
        <ele>76</ele>
        <time>2024-01-07T13:34:24Z</time>
      </trkpt>
      <trkpt lat="48.57075" lon="2.4066">
        <ele>76</ele>
        <time>2024-01-07T13:34:29Z</time>
      </trkpt>
      <trkpt lat="48.57074" lon="2.40651">
        <ele>76</ele>
        <time>2024-01-07T13:34:33Z</time>
      </trkpt>
      <trkpt lat="48.57056" lon="2.40614">
        <ele>75</ele>
        <time>2024-01-07T13:34:55Z</time>
      </trkpt>
      <trkpt lat="48.57051" lon="2.40607">
        <ele>75</ele>
        <time>2024-01-07T13:35:01Z</time>
      </trkpt>
      <trkpt lat="48.5705" lon="2.40599">
        <ele>75</ele>
        <time>2024-01-07T13:35:05Z</time>
      </trkpt>
      <trkpt lat="48.57047" lon="2.40592">
        <ele>75</ele>
        <time>2024-01-07T13:35:10Z</time>
      </trkpt>
      <trkpt lat="48.57044" lon="2.40584">
        <ele>75</ele>
        <time>2024-01-07T13:35:14Z</time>
      </trkpt>
      <trkpt lat="48.57041" lon="2.40575">
        <ele>75</ele>
        <time>2024-01-07T13:35:19Z</time>
      </trkpt>
      <trkpt lat="48.57038" lon="2.40568">
        <ele>75</ele>
        <time>2024-01-07T13:35:23Z</time>
      </trkpt>
      <trkpt lat="48.57027" lon="2.40549">
        <ele>74</ele>
        <time>2024-01-07T13:35:37Z</time>
      </trkpt>
      <trkpt lat="48.5702" lon="2.40536">
        <ele>75</ele>
        <time>2024-01-07T13:35:44Z</time>
      </trkpt>
      <trkpt lat="48.57019" lon="2.40529">
        <ele>75</ele>
        <time>2024-01-07T13:35:48Z</time>
      </trkpt>
      <trkpt lat="48.57016" lon="2.40523">
        <ele>75</ele>
        <time>2024-01-07T13:35:52Z</time>
      </trkpt>
      <trkpt lat="48.57002" lon="2.40499">
        <ele>75</ele>
        <time>2024-01-07T13:36:10Z</time>
      </trkpt>
      <trkpt lat="48.56999" lon="2.40493">
        <ele>75</ele>
        <time>2024-01-07T13:36:15Z</time>
      </trkpt>
      <trkpt lat="48.56994" lon="2.40487">
        <ele>75</ele>
        <time>2024-01-07T13:36:20Z</time>
      </trkpt>
      <trkpt lat="48.56983" lon="2.40464">
        <ele>76</ele>
        <time>2024-01-07T13:36:36Z</time>
      </trkpt>
      <trkpt lat="48.5695" lon="2.40421">
        <ele>77</ele>
        <time>2024-01-07T13:37:09Z</time>
      </trkpt>
      <trkpt lat="48.56938" lon="2.40405">
        <ele>76</ele>
        <time>2024-01-07T13:37:21Z</time>
      </trkpt>
      <trkpt lat="48.56933" lon="2.40402">
        <ele>76</ele>
        <time>2024-01-07T13:37:52Z</time>
      </trkpt>
      <trkpt lat="48.56931" lon="2.40395">
        <ele>76</ele>
        <time>2024-01-07T13:38:08Z</time>
      </trkpt>
      <trkpt lat="48.56927" lon="2.4039">
        <ele>76</ele>
        <time>2024-01-07T13:38:14Z</time>
      </trkpt>
      <trkpt lat="48.56922" lon="2.40387">
        <ele>75</ele>
        <time>2024-01-07T13:39:17Z</time>
      </trkpt>
      <trkpt lat="48.5692" lon="2.4039">
        <ele>75</ele>
        <time>2024-01-07T13:39:54Z</time>
      </trkpt>
      <trkpt lat="48.56917" lon="2.40383">
        <ele>75</ele>
        <time>2024-01-07T13:40:51Z</time>
      </trkpt>
      <trkpt lat="48.56913" lon="2.40382">
        <ele>76</ele>
        <time>2024-01-07T13:41:04Z</time>
      </trkpt>
      <trkpt lat="48.5691" lon="2.40391">
        <ele>75</ele>
        <time>2024-01-07T13:41:16Z</time>
      </trkpt>
      <trkpt lat="48.56906" lon="2.40396">
        <ele>75</ele>
        <time>2024-01-07T13:41:22Z</time>
      </trkpt>
      <trkpt lat="48.56874" lon="2.40433">
        <ele>73</ele>
        <time>2024-01-07T13:42:00Z</time>
      </trkpt>
      <trkpt lat="48.56868" lon="2.40437">
        <ele>73</ele>
        <time>2024-01-07T13:42:08Z</time>
      </trkpt>
      <trkpt lat="48.56861" lon="2.40438">
        <ele>72</ele>
        <time>2024-01-07T13:42:12Z</time>
      </trkpt>
      <trkpt lat="48.56832" lon="2.40459">
        <ele>69</ele>
        <time>2024-01-07T13:42:41Z</time>
      </trkpt>
      <trkpt lat="48.56827" lon="2.40466">
        <ele>69</ele>
        <time>2024-01-07T13:42:45Z</time>
      </trkpt>
      <trkpt lat="48.56821" lon="2.40469">
        <ele>68</ele>
        <time>2024-01-07T13:42:49Z</time>
      </trkpt>
      <trkpt lat="48.56799" lon="2.40492">
        <ele>65</ele>
        <time>2024-01-07T13:43:12Z</time>
      </trkpt>
      <trkpt lat="48.56787" lon="2.40499">
        <ele>64</ele>
        <time>2024-01-07T13:43:19Z</time>
      </trkpt>
      <trkpt lat="48.56778" lon="2.40509">
        <ele>63</ele>
        <time>2024-01-07T13:43:27Z</time>
      </trkpt>
      <trkpt lat="48.56748" lon="2.40532">
        <ele>59</ele>
        <time>2024-01-07T13:43:51Z</time>
      </trkpt>
      <trkpt lat="48.56744" lon="2.40538">
        <ele>59</ele>
        <time>2024-01-07T13:43:55Z</time>
      </trkpt>
      <trkpt lat="48.5674" lon="2.40542">
        <ele>59</ele>
        <time>2024-01-07T13:43:59Z</time>
      </trkpt>
      <trkpt lat="48.56708" lon="2.40573">
        <ele>55</ele>
        <time>2024-01-07T13:44:32Z</time>
      </trkpt>
      <trkpt lat="48.56674" lon="2.40597">
        <ele>52</ele>
        <time>2024-01-07T13:44:59Z</time>
      </trkpt>
      <trkpt lat="48.56669" lon="2.40599">
        <ele>51</ele>
        <time>2024-01-07T13:45:02Z</time>
      </trkpt>
      <trkpt lat="48.56664" lon="2.40598">
        <ele>51</ele>
        <time>2024-01-07T13:45:06Z</time>
      </trkpt>
      <trkpt lat="48.56658" lon="2.40596">
        <ele>51</ele>
        <time>2024-01-07T13:45:10Z</time>
      </trkpt>
      <trkpt lat="48.56655" lon="2.40589">
        <ele>51</ele>
        <time>2024-01-07T13:45:15Z</time>
      </trkpt>
      <trkpt lat="48.56652" lon="2.40584">
        <ele>50</ele>
        <time>2024-01-07T13:45:20Z</time>
      </trkpt>
      <trkpt lat="48.56641" lon="2.40565">
        <ele>50</ele>
        <time>2024-01-07T13:45:34Z</time>
      </trkpt>
      <trkpt lat="48.56636" lon="2.4056">
        <ele>50</ele>
        <time>2024-01-07T13:45:37Z</time>
      </trkpt>
      <trkpt lat="48.56622" lon="2.40533">
        <ele>50</ele>
        <time>2024-01-07T13:45:55Z</time>
      </trkpt>
      <trkpt lat="48.56618" lon="2.40528">
        <ele>50</ele>
        <time>2024-01-07T13:45:59Z</time>
      </trkpt>
      <trkpt lat="48.56615" lon="2.40522">
        <ele>50</ele>
        <time>2024-01-07T13:46:03Z</time>
      </trkpt>
      <trkpt lat="48.5661" lon="2.40517">
        <ele>50</ele>
        <time>2024-01-07T13:46:08Z</time>
      </trkpt>
      <trkpt lat="48.56585" lon="2.40477">
        <ele>49</ele>
        <time>2024-01-07T13:46:34Z</time>
      </trkpt>
      <trkpt lat="48.56569" lon="2.40425">
        <ele>49</ele>
        <time>2024-01-07T13:47:04Z</time>
      </trkpt>
      <trkpt lat="48.56567" lon="2.40419">
        <ele>49</ele>
        <time>2024-01-07T13:47:07Z</time>
      </trkpt>
      <trkpt lat="48.56555" lon="2.40385">
        <ele>49</ele>
        <time>2024-01-07T13:47:28Z</time>
      </trkpt>
      <trkpt lat="48.56553" lon="2.40377">
        <ele>48</ele>
        <time>2024-01-07T13:47:36Z</time>
      </trkpt>
      <trkpt lat="48.56548" lon="2.40365">
        <ele>49</ele>
        <time>2024-01-07T13:47:53Z</time>
      </trkpt>
      <trkpt lat="48.56546" lon="2.40357">
        <ele>48</ele>
        <time>2024-01-07T13:48:22Z</time>
      </trkpt>
      <trkpt lat="48.56542" lon="2.4035">
        <ele>48</ele>
        <time>2024-01-07T13:48:28Z</time>
      </trkpt>
      <trkpt lat="48.56538" lon="2.40343">
        <ele>48</ele>
        <time>2024-01-07T13:48:37Z</time>
      </trkpt>
      <trkpt lat="48.56535" lon="2.40341">
        <ele>48</ele>
        <time>2024-01-07T13:48:55Z</time>
      </trkpt>
      <trkpt lat="48.56534" lon="2.40331">
        <ele>49</ele>
        <time>2024-01-07T13:50:53Z</time>
      </trkpt>
      <trkpt lat="48.5653" lon="2.40316">
        <ele>49</ele>
        <time>2024-01-07T13:51:10Z</time>
      </trkpt>
      <trkpt lat="48.56528" lon="2.40309">
        <ele>49</ele>
        <time>2024-01-07T13:51:15Z</time>
      </trkpt>
      <trkpt lat="48.56523" lon="2.40298">
        <ele>49</ele>
        <time>2024-01-07T13:51:29Z</time>
      </trkpt>
      <trkpt lat="48.56519" lon="2.40282">
        <ele>49</ele>
        <time>2024-01-07T13:51:43Z</time>
      </trkpt>
      <trkpt lat="48.56507" lon="2.40255">
        <ele>48</ele>
        <time>2024-01-07T13:51:59Z</time>
      </trkpt>
      <trkpt lat="48.56505" lon="2.40248">
        <ele>49</ele>
        <time>2024-01-07T13:52:03Z</time>
      </trkpt>
      <trkpt lat="48.56506" lon="2.40236">
        <ele>49</ele>
        <time>2024-01-07T13:52:14Z</time>
      </trkpt>
      <trkpt lat="48.56503" lon="2.40231">
        <ele>49</ele>
        <time>2024-01-07T13:52:26Z</time>
      </trkpt>
      <trkpt lat="48.56504" lon="2.40223">
        <ele>48</ele>
        <time>2024-01-07T13:52:31Z</time>
      </trkpt>
      <trkpt lat="48.56504" lon="2.40217">
        <ele>48</ele>
        <time>2024-01-07T13:52:36Z</time>
      </trkpt>
      <trkpt lat="48.565" lon="2.4021">
        <ele>48</ele>
        <time>2024-01-07T13:52:44Z</time>
      </trkpt>
      <trkpt lat="48.56498" lon="2.40204">
        <ele>48</ele>
        <time>2024-01-07T13:52:56Z</time>
      </trkpt>
      <trkpt lat="48.56493" lon="2.40187">
        <ele>48</ele>
        <time>2024-01-07T13:53:11Z</time>
      </trkpt>
      <trkpt lat="48.56477" lon="2.40134">
        <ele>48</ele>
        <time>2024-01-07T13:53:42Z</time>
      </trkpt>
      <trkpt lat="48.56471" lon="2.40109">
        <ele>49</ele>
        <time>2024-01-07T13:54:04Z</time>
      </trkpt>
      <trkpt lat="48.56469" lon="2.40103">
        <ele>49</ele>
        <time>2024-01-07T13:54:09Z</time>
      </trkpt>
      <trkpt lat="48.56467" lon="2.40095">
        <ele>49</ele>
        <time>2024-01-07T13:54:14Z</time>
      </trkpt>
      <trkpt lat="48.56466" lon="2.40086">
        <ele>49</ele>
        <time>2024-01-07T13:54:20Z</time>
      </trkpt>
      <trkpt lat="48.56452" lon="2.40036">
        <ele>49</ele>
        <time>2024-01-07T13:54:54Z</time>
      </trkpt>
      <trkpt lat="48.56448" lon="2.40025">
        <ele>49</ele>
        <time>2024-01-07T13:55:01Z</time>
      </trkpt>
      <trkpt lat="48.56442" lon="2.40013">
        <ele>49</ele>
        <time>2024-01-07T13:55:11Z</time>
      </trkpt>
      <trkpt lat="48.56436" lon="2.40004">
        <ele>49</ele>
        <time>2024-01-07T13:55:23Z</time>
      </trkpt>
      <trkpt lat="48.56435" lon="2.39998">
        <ele>49</ele>
        <time>2024-01-07T13:55:28Z</time>
      </trkpt>
      <trkpt lat="48.56429" lon="2.39992">
        <ele>50</ele>
        <time>2024-01-07T13:55:36Z</time>
      </trkpt>
      <trkpt lat="48.5642" lon="2.39964">
        <ele>50</ele>
        <time>2024-01-07T13:55:53Z</time>
      </trkpt>
      <trkpt lat="48.56417" lon="2.39958">
        <ele>49</ele>
        <time>2024-01-07T13:55:57Z</time>
      </trkpt>
      <trkpt lat="48.56408" lon="2.39922">
        <ele>49</ele>
        <time>2024-01-07T13:56:17Z</time>
      </trkpt>
      <trkpt lat="48.56408" lon="2.39913">
        <ele>49</ele>
        <time>2024-01-07T13:56:22Z</time>
      </trkpt>
      <trkpt lat="48.56409" lon="2.39904">
        <ele>49</ele>
        <time>2024-01-07T13:56:26Z</time>
      </trkpt>
      <trkpt lat="48.56409" lon="2.39897">
        <ele>49</ele>
        <time>2024-01-07T13:56:30Z</time>
      </trkpt>
      <trkpt lat="48.56408" lon="2.3989">
        <ele>49</ele>
        <time>2024-01-07T13:56:33Z</time>
      </trkpt>
      <trkpt lat="48.56403" lon="2.3985">
        <ele>49</ele>
        <time>2024-01-07T13:56:56Z</time>
      </trkpt>
      <trkpt lat="48.5639" lon="2.39791">
        <ele>49</ele>
        <time>2024-01-07T13:57:28Z</time>
      </trkpt>
      <trkpt lat="48.56379" lon="2.39731">
        <ele>50</ele>
        <time>2024-01-07T13:58:02Z</time>
      </trkpt>
      <trkpt lat="48.5637" lon="2.39685">
        <ele>50</ele>
        <time>2024-01-07T13:58:26Z</time>
      </trkpt>
      <trkpt lat="48.56368" lon="2.39638">
        <ele>50</ele>
        <time>2024-01-07T13:58:53Z</time>
      </trkpt>
      <trkpt lat="48.56369" lon="2.3963">
        <ele>50</ele>
        <time>2024-01-07T13:58:57Z</time>
      </trkpt>
      <trkpt lat="48.5637" lon="2.39568">
        <ele>50</ele>
        <time>2024-01-07T13:59:31Z</time>
      </trkpt>
      <trkpt lat="48.56369" lon="2.39561">
        <ele>50</ele>
        <time>2024-01-07T13:59:35Z</time>
      </trkpt>
      <trkpt lat="48.56366" lon="2.3953">
        <ele>50</ele>
        <time>2024-01-07T13:59:51Z</time>
      </trkpt>
      <trkpt lat="48.56365" lon="2.39522">
        <ele>50</ele>
        <time>2024-01-07T13:59:55Z</time>
      </trkpt>
      <trkpt lat="48.56363" lon="2.39508">
        <ele>50</ele>
        <time>2024-01-07T14:00:03Z</time>
      </trkpt>
      <trkpt lat="48.56362" lon="2.39493">
        <ele>50</ele>
        <time>2024-01-07T14:00:12Z</time>
      </trkpt>
      <trkpt lat="48.56351" lon="2.39433">
        <ele>50</ele>
        <time>2024-01-07T14:00:45Z</time>
      </trkpt>
      <trkpt lat="48.56349" lon="2.39425">
        <ele>49</ele>
        <time>2024-01-07T14:00:50Z</time>
      </trkpt>
      <trkpt lat="48.56344" lon="2.39394">
        <ele>50</ele>
        <time>2024-01-07T14:01:07Z</time>
      </trkpt>
      <trkpt lat="48.56344" lon="2.39386">
        <ele>50</ele>
        <time>2024-01-07T14:01:11Z</time>
      </trkpt>
      <trkpt lat="48.56339" lon="2.39348">
        <ele>50</ele>
        <time>2024-01-07T14:01:31Z</time>
      </trkpt>
      <trkpt lat="48.5634" lon="2.39325">
        <ele>50</ele>
        <time>2024-01-07T14:01:43Z</time>
      </trkpt>
      <trkpt lat="48.56338" lon="2.39318">
        <ele>50</ele>
        <time>2024-01-07T14:01:47Z</time>
      </trkpt>
      <trkpt lat="48.56336" lon="2.39275">
        <ele>50</ele>
        <time>2024-01-07T14:02:10Z</time>
      </trkpt>
      <trkpt lat="48.56338" lon="2.39258">
        <ele>50</ele>
        <time>2024-01-07T14:02:29Z</time>
      </trkpt>
      <trkpt lat="48.56339" lon="2.39194">
        <ele>50</ele>
        <time>2024-01-07T14:03:01Z</time>
      </trkpt>
      <trkpt lat="48.56341" lon="2.39186">
        <ele>50</ele>
        <time>2024-01-07T14:03:05Z</time>
      </trkpt>
      <trkpt lat="48.56339" lon="2.39179">
        <ele>50</ele>
        <time>2024-01-07T14:03:09Z</time>
      </trkpt>
      <trkpt lat="48.56337" lon="2.39172">
        <ele>50</ele>
        <time>2024-01-07T14:03:13Z</time>
      </trkpt>
      <trkpt lat="48.56338" lon="2.39165">
        <ele>50</ele>
        <time>2024-01-07T14:03:18Z</time>
      </trkpt>
      <trkpt lat="48.56338" lon="2.39143">
        <ele>51</ele>
        <time>2024-01-07T14:03:30Z</time>
      </trkpt>
      <trkpt lat="48.56337" lon="2.39131">
        <ele>50</ele>
        <time>2024-01-07T14:05:16Z</time>
      </trkpt>
      <trkpt lat="48.56336" lon="2.39112">
        <ele>51</ele>
        <time>2024-01-07T14:05:27Z</time>
      </trkpt>
      <trkpt lat="48.56336" lon="2.39105">
        <ele>51</ele>
        <time>2024-01-07T14:05:31Z</time>
      </trkpt>
      <trkpt lat="48.56337" lon="2.39094">
        <ele>51</ele>
        <time>2024-01-07T14:05:39Z</time>
      </trkpt>
      <trkpt lat="48.56337" lon="2.39086">
        <ele>51</ele>
        <time>2024-01-07T14:05:43Z</time>
      </trkpt>
      <trkpt lat="48.56338" lon="2.39072">
        <ele>52</ele>
        <time>2024-01-07T14:05:51Z</time>
      </trkpt>
      <trkpt lat="48.56339" lon="2.39065">
        <ele>52</ele>
        <time>2024-01-07T14:05:55Z</time>
      </trkpt>
      <trkpt lat="48.56338" lon="2.3905">
        <ele>51</ele>
        <time>2024-01-07T14:06:03Z</time>
      </trkpt>
      <trkpt lat="48.56339" lon="2.39042">
        <ele>51</ele>
        <time>2024-01-07T14:06:08Z</time>
      </trkpt>
      <trkpt lat="48.56341" lon="2.39034">
        <ele>52</ele>
        <time>2024-01-07T14:06:13Z</time>
      </trkpt>
      <trkpt lat="48.56342" lon="2.39027">
        <ele>52</ele>
        <time>2024-01-07T14:06:17Z</time>
      </trkpt>
      <trkpt lat="48.56343" lon="2.39019">
        <ele>53</ele>
        <time>2024-01-07T14:06:21Z</time>
      </trkpt>
      <trkpt lat="48.56343" lon="2.39012">
        <ele>52</ele>
        <time>2024-01-07T14:06:25Z</time>
      </trkpt>
      <trkpt lat="48.56346" lon="2.38998">
        <ele>53</ele>
        <time>2024-01-07T14:06:34Z</time>
      </trkpt>
      <trkpt lat="48.56349" lon="2.38984">
        <ele>53</ele>
        <time>2024-01-07T14:06:42Z</time>
      </trkpt>
      <trkpt lat="48.56353" lon="2.38962">
        <ele>53</ele>
        <time>2024-01-07T14:06:54Z</time>
      </trkpt>
      <trkpt lat="48.56356" lon="2.38948">
        <ele>54</ele>
        <time>2024-01-07T14:07:02Z</time>
      </trkpt>
      <trkpt lat="48.5636" lon="2.38926">
        <ele>53</ele>
        <time>2024-01-07T14:07:14Z</time>
      </trkpt>
      <trkpt lat="48.56371" lon="2.38877">
        <ele>54</ele>
        <time>2024-01-07T14:07:42Z</time>
      </trkpt>
      <trkpt lat="48.56377" lon="2.3884">
        <ele>53</ele>
        <time>2024-01-07T14:08:02Z</time>
      </trkpt>
      <trkpt lat="48.56377" lon="2.38818">
        <ele>53</ele>
        <time>2024-01-07T14:08:14Z</time>
      </trkpt>
      <trkpt lat="48.56375" lon="2.38796">
        <ele>53</ele>
        <time>2024-01-07T14:08:27Z</time>
      </trkpt>
      <trkpt lat="48.5637" lon="2.38793">
        <ele>53</ele>
        <time>2024-01-07T14:08:53Z</time>
      </trkpt>
      <trkpt lat="48.56365" lon="2.38789">
        <ele>52</ele>
        <time>2024-01-07T14:10:11Z</time>
      </trkpt>
      <trkpt lat="48.56342" lon="2.38788">
        <ele>51</ele>
        <time>2024-01-07T14:10:43Z</time>
      </trkpt>
      <trkpt lat="48.56301" lon="2.38789">
        <ele>50</ele>
        <time>2024-01-07T14:11:15Z</time>
      </trkpt>
      <trkpt lat="48.56291" lon="2.3879">
        <ele>49</ele>
        <time>2024-01-07T14:11:22Z</time>
      </trkpt>
      <trkpt lat="48.56275" lon="2.38788">
        <ele>49</ele>
        <time>2024-01-07T14:11:41Z</time>
      </trkpt>
      <trkpt lat="48.56277" lon="2.38778">
        <ele>48</ele>
        <time>2024-01-07T14:12:35Z</time>
      </trkpt>
      <trkpt lat="48.56273" lon="2.38763">
        <ele>48</ele>
        <time>2024-01-07T14:12:48Z</time>
      </trkpt>
      <trkpt lat="48.56265" lon="2.3876">
        <ele>48</ele>
        <time>2024-01-07T14:13:00Z</time>
      </trkpt>
      <trkpt lat="48.56268" lon="2.3875">
        <ele>48</ele>
        <time>2024-01-07T14:13:39Z</time>
      </trkpt>
      <trkpt lat="48.5627" lon="2.38743">
        <ele>48</ele>
        <time>2024-01-07T14:13:44Z</time>
      </trkpt>
      <trkpt lat="48.56267" lon="2.38718">
        <ele>49</ele>
        <time>2024-01-07T14:13:59Z</time>
      </trkpt>
      <trkpt lat="48.56266" lon="2.387">
        <ele>49</ele>
        <time>2024-01-07T14:14:10Z</time>
      </trkpt>
      <trkpt lat="48.56263" lon="2.38691">
        <ele>49</ele>
        <time>2024-01-07T14:14:16Z</time>
      </trkpt>
      <trkpt lat="48.56237" lon="2.38643">
        <ele>49</ele>
        <time>2024-01-07T14:14:48Z</time>
      </trkpt>
      <trkpt lat="48.56231" lon="2.3863">
        <ele>48</ele>
        <time>2024-01-07T14:14:57Z</time>
      </trkpt>
      <trkpt lat="48.56205" lon="2.38581">
        <ele>49</ele>
        <time>2024-01-07T14:15:30Z</time>
      </trkpt>
      <trkpt lat="48.5619" lon="2.38552">
        <ele>49</ele>
        <time>2024-01-07T14:15:50Z</time>
      </trkpt>
      <trkpt lat="48.56187" lon="2.38546">
        <ele>48</ele>
        <time>2024-01-07T14:15:55Z</time>
      </trkpt>
      <trkpt lat="48.56162" lon="2.38498">
        <ele>49</ele>
        <time>2024-01-07T14:16:26Z</time>
      </trkpt>
      <trkpt lat="48.5615" lon="2.38473">
        <ele>49</ele>
        <time>2024-01-07T14:16:43Z</time>
      </trkpt>
      <trkpt lat="48.56126" lon="2.38428">
        <ele>51</ele>
        <time>2024-01-07T14:17:18Z</time>
      </trkpt>
      <trkpt lat="48.56109" lon="2.38393">
        <ele>51</ele>
        <time>2024-01-07T14:17:44Z</time>
      </trkpt>
      <trkpt lat="48.56102" lon="2.38381">
        <ele>52</ele>
        <time>2024-01-07T14:17:53Z</time>
      </trkpt>
      <trkpt lat="48.56096" lon="2.3837">
        <ele>51</ele>
        <time>2024-01-07T14:18:01Z</time>
      </trkpt>
      <trkpt lat="48.56093" lon="2.38364">
        <ele>51</ele>
        <time>2024-01-07T14:18:06Z</time>
      </trkpt>
      <trkpt lat="48.5609" lon="2.38359">
        <ele>51</ele>
        <time>2024-01-07T14:18:10Z</time>
      </trkpt>
      <trkpt lat="48.56074" lon="2.3834">
        <ele>51</ele>
        <time>2024-01-07T14:18:27Z</time>
      </trkpt>
      <trkpt lat="48.56041" lon="2.3831">
        <ele>50</ele>
        <time>2024-01-07T14:18:57Z</time>
      </trkpt>
      <trkpt lat="48.56025" lon="2.38293">
        <ele>51</ele>
        <time>2024-01-07T14:19:13Z</time>
      </trkpt>
      <trkpt lat="48.56021" lon="2.38289">
        <ele>51</ele>
        <time>2024-01-07T14:19:16Z</time>
      </trkpt>
      <trkpt lat="48.56012" lon="2.3828">
        <ele>51</ele>
        <time>2024-01-07T14:19:24Z</time>
      </trkpt>
      <trkpt lat="48.55997" lon="2.38265">
        <ele>50</ele>
        <time>2024-01-07T14:19:41Z</time>
      </trkpt>
      <trkpt lat="48.55993" lon="2.38263">
        <ele>50</ele>
        <time>2024-01-07T14:19:44Z</time>
      </trkpt>
      <trkpt lat="48.5596" lon="2.38228">
        <ele>49</ele>
        <time>2024-01-07T14:20:18Z</time>
      </trkpt>
      <trkpt lat="48.55929" lon="2.382">
        <ele>50</ele>
        <time>2024-01-07T14:20:45Z</time>
      </trkpt>
      <trkpt lat="48.55924" lon="2.38185">
        <ele>50</ele>
        <time>2024-01-07T14:20:53Z</time>
      </trkpt>
      <trkpt lat="48.55922" lon="2.38171">
        <ele>50</ele>
        <time>2024-01-07T14:21:01Z</time>
      </trkpt>
      <trkpt lat="48.55908" lon="2.38134">
        <ele>51</ele>
        <time>2024-01-07T14:21:23Z</time>
      </trkpt>
      <trkpt lat="48.55881" lon="2.38084">
        <ele>51</ele>
        <time>2024-01-07T14:21:57Z</time>
      </trkpt>
      <trkpt lat="48.55872" lon="2.38068">
        <ele>51</ele>
        <time>2024-01-07T14:22:08Z</time>
      </trkpt>
      <trkpt lat="48.55866" lon="2.38069">
        <ele>51</ele>
        <time>2024-01-07T14:22:23Z</time>
      </trkpt>
      <trkpt lat="48.55861" lon="2.38051">
        <ele>50</ele>
        <time>2024-01-07T14:22:39Z</time>
      </trkpt>
      <trkpt lat="48.55858" lon="2.38046">
        <ele>50</ele>
        <time>2024-01-07T14:22:44Z</time>
      </trkpt>
      <trkpt lat="48.55851" lon="2.38033">
        <ele>49</ele>
        <time>2024-01-07T14:22:56Z</time>
      </trkpt>
      <trkpt lat="48.55827" lon="2.37983">
        <ele>50</ele>
        <time>2024-01-07T14:23:29Z</time>
      </trkpt>
      <trkpt lat="48.55825" lon="2.37976">
        <ele>51</ele>
        <time>2024-01-07T14:23:33Z</time>
      </trkpt>
      <trkpt lat="48.55823" lon="2.37975">
        <ele>51</ele>
        <time>2024-01-07T14:24:05Z</time>
      </trkpt>
      <trkpt lat="48.5582" lon="2.37967">
        <ele>51</ele>
        <time>2024-01-07T14:24:17Z</time>
      </trkpt>
      <trkpt lat="48.55814" lon="2.3796">
        <ele>51</ele>
        <time>2024-01-07T14:25:16Z</time>
      </trkpt>
      <trkpt lat="48.55811" lon="2.37954">
        <ele>51</ele>
        <time>2024-01-07T14:25:20Z</time>
      </trkpt>
      <trkpt lat="48.55807" lon="2.3794">
        <ele>50</ele>
        <time>2024-01-07T14:25:28Z</time>
      </trkpt>
      <trkpt lat="48.55802" lon="2.37928">
        <ele>51</ele>
        <time>2024-01-07T14:25:36Z</time>
      </trkpt>
      <trkpt lat="48.55799" lon="2.37922">
        <ele>51</ele>
        <time>2024-01-07T14:25:40Z</time>
      </trkpt>
      <trkpt lat="48.5579" lon="2.37912">
        <ele>50</ele>
        <time>2024-01-07T14:25:49Z</time>
      </trkpt>
      <trkpt lat="48.55767" lon="2.3787">
        <ele>51</ele>
        <time>2024-01-07T14:26:21Z</time>
      </trkpt>
      <trkpt lat="48.5576" lon="2.37858">
        <ele>51</ele>
        <time>2024-01-07T14:26:29Z</time>
      </trkpt>
      <trkpt lat="48.5575" lon="2.37843">
        <ele>50</ele>
        <time>2024-01-07T14:26:41Z</time>
      </trkpt>
      <trkpt lat="48.55725" lon="2.37789">
        <ele>51</ele>
        <time>2024-01-07T14:27:14Z</time>
      </trkpt>
      <trkpt lat="48.55721" lon="2.37776">
        <ele>51</ele>
        <time>2024-01-07T14:27:21Z</time>
      </trkpt>
      <trkpt lat="48.5572" lon="2.37769">
        <ele>51</ele>
        <time>2024-01-07T14:27:25Z</time>
      </trkpt>
      <trkpt lat="48.55719" lon="2.37761">
        <ele>52</ele>
        <time>2024-01-07T14:27:29Z</time>
      </trkpt>
      <trkpt lat="48.55713" lon="2.37748">
        <ele>52</ele>
        <time>2024-01-07T14:27:49Z</time>
      </trkpt>
      <trkpt lat="48.55707" lon="2.37739">
        <ele>52</ele>
        <time>2024-01-07T14:28:01Z</time>
      </trkpt>
      <trkpt lat="48.55697" lon="2.37714">
        <ele>53</ele>
        <time>2024-01-07T14:28:21Z</time>
      </trkpt>
      <trkpt lat="48.55672" lon="2.3768">
        <ele>52</ele>
        <time>2024-01-07T14:28:52Z</time>
      </trkpt>
      <trkpt lat="48.55664" lon="2.37671">
        <ele>52</ele>
        <time>2024-01-07T14:29:00Z</time>
      </trkpt>
      <trkpt lat="48.55638" lon="2.37624">
        <ele>52</ele>
        <time>2024-01-07T14:29:32Z</time>
      </trkpt>
      <trkpt lat="48.55635" lon="2.37619">
        <ele>52</ele>
        <time>2024-01-07T14:29:36Z</time>
      </trkpt>
      <trkpt lat="48.55633" lon="2.37612">
        <ele>52</ele>
        <time>2024-01-07T14:29:40Z</time>
      </trkpt>
      <trkpt lat="48.55611" lon="2.37556">
        <ele>51</ele>
        <time>2024-01-07T14:30:13Z</time>
      </trkpt>
      <trkpt lat="48.55588" lon="2.37509">
        <ele>52</ele>
        <time>2024-01-07T14:30:44Z</time>
      </trkpt>
      <trkpt lat="48.55584" lon="2.37501">
        <ele>51</ele>
        <time>2024-01-07T14:30:48Z</time>
      </trkpt>
      <trkpt lat="48.55571" lon="2.37477">
        <ele>52</ele>
        <time>2024-01-07T14:31:04Z</time>
      </trkpt>
      <trkpt lat="48.55569" lon="2.37471">
        <ele>52</ele>
        <time>2024-01-07T14:31:09Z</time>
      </trkpt>
      <trkpt lat="48.55563" lon="2.37457">
        <ele>52</ele>
        <time>2024-01-07T14:31:19Z</time>
      </trkpt>
      <trkpt lat="48.55544" lon="2.37433">
        <ele>52</ele>
        <time>2024-01-07T14:31:39Z</time>
      </trkpt>
      <trkpt lat="48.5554" lon="2.37427">
        <ele>53</ele>
        <time>2024-01-07T14:31:44Z</time>
      </trkpt>
      <trkpt lat="48.55522" lon="2.37397">
        <ele>53</ele>
        <time>2024-01-07T14:32:15Z</time>
      </trkpt>
      <trkpt lat="48.55516" lon="2.37383">
        <ele>52</ele>
        <time>2024-01-07T14:32:41Z</time>
      </trkpt>
      <trkpt lat="48.55512" lon="2.37378">
        <ele>53</ele>
        <time>2024-01-07T14:32:46Z</time>
      </trkpt>
      <trkpt lat="48.55509" lon="2.37368">
        <ele>52</ele>
        <time>2024-01-07T14:32:50Z</time>
      </trkpt>
      <trkpt lat="48.55488" lon="2.37346">
        <ele>52</ele>
        <time>2024-01-07T14:33:08Z</time>
      </trkpt>
      <trkpt lat="48.55485" lon="2.37341">
        <ele>52</ele>
        <time>2024-01-07T14:33:12Z</time>
      </trkpt>
      <trkpt lat="48.55482" lon="2.37337">
        <ele>52</ele>
        <time>2024-01-07T14:33:15Z</time>
      </trkpt>
      <trkpt lat="48.55458" lon="2.37286">
        <ele>53</ele>
        <time>2024-01-07T14:33:48Z</time>
      </trkpt>
      <trkpt lat="48.55455" lon="2.37279">
        <ele>53</ele>
        <time>2024-01-07T14:33:52Z</time>
      </trkpt>
      <trkpt lat="48.55451" lon="2.37271">
        <ele>53</ele>
        <time>2024-01-07T14:34:08Z</time>
      </trkpt>
      <trkpt lat="48.55448" lon="2.37264">
        <ele>52</ele>
        <time>2024-01-07T14:34:34Z</time>
      </trkpt>
      <trkpt lat="48.55444" lon="2.3726">
        <ele>53</ele>
        <time>2024-01-07T14:35:08Z</time>
      </trkpt>
      <trkpt lat="48.55441" lon="2.37266">
        <ele>53</ele>
        <time>2024-01-07T14:35:13Z</time>
      </trkpt>
      <trkpt lat="48.55437" lon="2.3727">
        <ele>52</ele>
        <time>2024-01-07T14:35:18Z</time>
      </trkpt>
      <trkpt lat="48.55419" lon="2.37312">
        <ele>49</ele>
        <time>2024-01-07T14:35:50Z</time>
      </trkpt>
      <trkpt lat="48.55397" lon="2.37363">
        <ele>47</ele>
        <time>2024-01-07T14:36:21Z</time>
      </trkpt>
      <trkpt lat="48.55393" lon="2.37369">
        <ele>47</ele>
        <time>2024-01-07T14:36:25Z</time>
      </trkpt>
      <trkpt lat="48.55385" lon="2.3738">
        <ele>47</ele>
        <time>2024-01-07T14:36:35Z</time>
      </trkpt>
      <trkpt lat="48.55376" lon="2.37396">
        <ele>47</ele>
        <time>2024-01-07T14:36:47Z</time>
      </trkpt>
      <trkpt lat="48.55372" lon="2.37403">
        <ele>47</ele>
        <time>2024-01-07T14:36:51Z</time>
      </trkpt>
      <trkpt lat="48.5536" lon="2.37431">
        <ele>47</ele>
        <time>2024-01-07T14:37:09Z</time>
      </trkpt>
      <trkpt lat="48.55364" lon="2.37436">
        <ele>47</ele>
        <time>2024-01-07T14:37:16Z</time>
      </trkpt>
      <trkpt lat="48.55356" lon="2.37443">
        <ele>48</ele>
        <time>2024-01-07T14:37:30Z</time>
      </trkpt>
      <trkpt lat="48.55352" lon="2.37448">
        <ele>48</ele>
        <time>2024-01-07T14:37:34Z</time>
      </trkpt>
      <trkpt lat="48.55342" lon="2.37473">
        <ele>48</ele>
        <time>2024-01-07T14:37:50Z</time>
      </trkpt>
      <trkpt lat="48.55334" lon="2.37483">
        <ele>48</ele>
        <time>2024-01-07T14:37:58Z</time>
      </trkpt>
      <trkpt lat="48.55329" lon="2.37484">
        <ele>48</ele>
        <time>2024-01-07T14:38:03Z</time>
      </trkpt>
      <trkpt lat="48.55298" lon="2.37496">
        <ele>48</ele>
        <time>2024-01-07T14:38:27Z</time>
      </trkpt>
      <trkpt lat="48.55293" lon="2.37496">
        <ele>48</ele>
        <time>2024-01-07T14:38:31Z</time>
      </trkpt>
      <trkpt lat="48.55288" lon="2.37493">
        <ele>48</ele>
        <time>2024-01-07T14:38:35Z</time>
      </trkpt>
      <trkpt lat="48.55263" lon="2.37456">
        <ele>48</ele>
        <time>2024-01-07T14:39:00Z</time>
      </trkpt>
      <trkpt lat="48.55249" lon="2.37421">
        <ele>48</ele>
        <time>2024-01-07T14:39:22Z</time>
      </trkpt>
      <trkpt lat="48.55246" lon="2.37416">
        <ele>48</ele>
        <time>2024-01-07T14:39:26Z</time>
      </trkpt>
      <trkpt lat="48.55244" lon="2.37406">
        <ele>47</ele>
        <time>2024-01-07T14:39:32Z</time>
      </trkpt>
      <trkpt lat="48.55241" lon="2.374">
        <ele>47</ele>
        <time>2024-01-07T14:39:37Z</time>
      </trkpt>
      <trkpt lat="48.55237" lon="2.37395">
        <ele>47</ele>
        <time>2024-01-07T14:39:41Z</time>
      </trkpt>
      <trkpt lat="48.55229" lon="2.37403">
        <ele>47</ele>
        <time>2024-01-07T14:40:01Z</time>
      </trkpt>
      <trkpt lat="48.55223" lon="2.37414">
        <ele>47</ele>
        <time>2024-01-07T14:40:09Z</time>
      </trkpt>
      <trkpt lat="48.55219" lon="2.37417">
        <ele>47</ele>
        <time>2024-01-07T14:40:12Z</time>
      </trkpt>
      <trkpt lat="48.55215" lon="2.37423">
        <ele>47</ele>
        <time>2024-01-07T14:40:16Z</time>
      </trkpt>
      <trkpt lat="48.55212" lon="2.37429">
        <ele>48</ele>
        <time>2024-01-07T14:40:20Z</time>
      </trkpt>
      <trkpt lat="48.55204" lon="2.37438">
        <ele>48</ele>
        <time>2024-01-07T14:40:27Z</time>
      </trkpt>
      <trkpt lat="48.55201" lon="2.37444">
        <ele>48</ele>
        <time>2024-01-07T14:40:31Z</time>
      </trkpt>
      <trkpt lat="48.552" lon="2.37451">
        <ele>48</ele>
        <time>2024-01-07T14:40:40Z</time>
      </trkpt>
      <trkpt lat="48.55192" lon="2.37446">
        <ele>48</ele>
        <time>2024-01-07T14:41:20Z</time>
      </trkpt>
      <trkpt lat="48.55186" lon="2.37445">
        <ele>48</ele>
        <time>2024-01-07T14:41:25Z</time>
      </trkpt>
      <trkpt lat="48.55177" lon="2.37443">
        <ele>48</ele>
        <time>2024-01-07T14:41:31Z</time>
      </trkpt>
      <trkpt lat="48.55162" lon="2.37438">
        <ele>48</ele>
        <time>2024-01-07T14:41:42Z</time>
      </trkpt>
      <trkpt lat="48.55158" lon="2.37438">
        <ele>48</ele>
        <time>2024-01-07T14:41:46Z</time>
      </trkpt>
      <trkpt lat="48.55126" lon="2.37429">
        <ele>48</ele>
        <time>2024-01-07T14:42:11Z</time>
      </trkpt>
      <trkpt lat="48.55087" lon="2.37433">
        <ele>48</ele>
        <time>2024-01-07T14:42:40Z</time>
      </trkpt>
      <trkpt lat="48.55048" lon="2.37418">
        <ele>47</ele>
        <time>2024-01-07T14:43:13Z</time>
      </trkpt>
      <trkpt lat="48.55043" lon="2.37417">
        <ele>47</ele>
        <time>2024-01-07T14:43:17Z</time>
      </trkpt>
      <trkpt lat="48.55024" lon="2.37408">
        <ele>47</ele>
        <time>2024-01-07T14:43:31Z</time>
      </trkpt>
      <trkpt lat="48.55019" lon="2.37404">
        <ele>47</ele>
        <time>2024-01-07T14:43:35Z</time>
      </trkpt>
      <trkpt lat="48.55001" lon="2.37392">
        <ele>48</ele>
        <time>2024-01-07T14:43:52Z</time>
      </trkpt>
      <trkpt lat="48.54982" lon="2.37398">
        <ele>48</ele>
        <time>2024-01-07T14:44:08Z</time>
      </trkpt>
      <trkpt lat="48.54966" lon="2.37404">
        <ele>48</ele>
        <time>2024-01-07T14:44:19Z</time>
      </trkpt>
      <trkpt lat="48.54956" lon="2.37407">
        <ele>48</ele>
        <time>2024-01-07T14:44:26Z</time>
      </trkpt>
      <trkpt lat="48.54947" lon="2.37405">
        <ele>48</ele>
        <time>2024-01-07T14:44:33Z</time>
      </trkpt>
      <trkpt lat="48.54928" lon="2.37393">
        <ele>48</ele>
        <time>2024-01-07T14:44:52Z</time>
      </trkpt>
      <trkpt lat="48.54913" lon="2.37372">
        <ele>48</ele>
        <time>2024-01-07T14:45:07Z</time>
      </trkpt>
      <trkpt lat="48.549" lon="2.37335">
        <ele>48</ele>
        <time>2024-01-07T14:45:27Z</time>
      </trkpt>
      <trkpt lat="48.54899" lon="2.37321">
        <ele>48</ele>
        <time>2024-01-07T14:45:34Z</time>
      </trkpt>
      <trkpt lat="48.54902" lon="2.37299">
        <ele>48</ele>
        <time>2024-01-07T14:45:44Z</time>
      </trkpt>
      <trkpt lat="48.54905" lon="2.37292">
        <ele>48</ele>
        <time>2024-01-07T14:45:48Z</time>
      </trkpt>
      <trkpt lat="48.54908" lon="2.37279">
        <ele>48</ele>
        <time>2024-01-07T14:45:54Z</time>
      </trkpt>
      <trkpt lat="48.54916" lon="2.37252">
        <ele>48</ele>
        <time>2024-01-07T14:46:11Z</time>
      </trkpt>
      <trkpt lat="48.54916" lon="2.37245">
        <ele>48</ele>
        <time>2024-01-07T14:46:16Z</time>
      </trkpt>
      <trkpt lat="48.54914" lon="2.37237">
        <ele>49</ele>
        <time>2024-01-07T14:46:21Z</time>
      </trkpt>
      <trkpt lat="48.54912" lon="2.37231">
        <ele>49</ele>
        <time>2024-01-07T14:46:24Z</time>
      </trkpt>
      <trkpt lat="48.54886" lon="2.37193">
        <ele>48</ele>
        <time>2024-01-07T14:46:55Z</time>
      </trkpt>
      <trkpt lat="48.54851" lon="2.37161">
        <ele>48</ele>
        <time>2024-01-07T14:47:29Z</time>
      </trkpt>
      <trkpt lat="48.54846" lon="2.37158">
        <ele>48</ele>
        <time>2024-01-07T14:47:33Z</time>
      </trkpt>
      <trkpt lat="48.54841" lon="2.37156">
        <ele>48</ele>
        <time>2024-01-07T14:47:38Z</time>
      </trkpt>
      <trkpt lat="48.5483" lon="2.3716">
        <ele>48</ele>
        <time>2024-01-07T14:47:45Z</time>
      </trkpt>
      <trkpt lat="48.54821" lon="2.37166">
        <ele>49</ele>
        <time>2024-01-07T14:47:52Z</time>
      </trkpt>
      <trkpt lat="48.54781" lon="2.37175">
        <ele>49</ele>
        <time>2024-01-07T14:48:25Z</time>
      </trkpt>
      <trkpt lat="48.5474" lon="2.37184">
        <ele>49</ele>
        <time>2024-01-07T14:48:58Z</time>
      </trkpt>
      <trkpt lat="48.54731" lon="2.37187">
        <ele>49</ele>
        <time>2024-01-07T14:49:06Z</time>
      </trkpt>
      <trkpt lat="48.54726" lon="2.37186">
        <ele>49</ele>
        <time>2024-01-07T14:49:10Z</time>
      </trkpt>
      <trkpt lat="48.54716" lon="2.37188">
        <ele>49</ele>
        <time>2024-01-07T14:49:18Z</time>
      </trkpt>
      <trkpt lat="48.54707" lon="2.37186">
        <ele>49</ele>
        <time>2024-01-07T14:49:26Z</time>
      </trkpt>
      <trkpt lat="48.54665" lon="2.37191">
        <ele>49</ele>
        <time>2024-01-07T14:50:00Z</time>
      </trkpt>
      <trkpt lat="48.54654" lon="2.37193">
        <ele>49</ele>
        <time>2024-01-07T14:50:09Z</time>
      </trkpt>
      <trkpt lat="48.54645" lon="2.37195">
        <ele>49</ele>
        <time>2024-01-07T14:50:18Z</time>
      </trkpt>
      <trkpt lat="48.54624" lon="2.37208">
        <ele>48</ele>
        <time>2024-01-07T14:50:49Z</time>
      </trkpt>
      <trkpt lat="48.54615" lon="2.37211">
        <ele>48</ele>
        <time>2024-01-07T14:50:57Z</time>
      </trkpt>
      <trkpt lat="48.54596" lon="2.3721">
        <ele>48</ele>
        <time>2024-01-07T14:51:14Z</time>
      </trkpt>
      <trkpt lat="48.54565" lon="2.37203">
        <ele>48</ele>
        <time>2024-01-07T14:51:39Z</time>
      </trkpt>
      <trkpt lat="48.5456" lon="2.37203">
        <ele>48</ele>
        <time>2024-01-07T14:51:42Z</time>
      </trkpt>
      <trkpt lat="48.54518" lon="2.37201">
        <ele>49</ele>
        <time>2024-01-07T14:52:14Z</time>
      </trkpt>
      <trkpt lat="48.54513" lon="2.37192">
        <ele>49</ele>
        <time>2024-01-07T14:52:26Z</time>
      </trkpt>
      <trkpt lat="48.54508" lon="2.37194">
        <ele>49</ele>
        <time>2024-01-07T14:52:32Z</time>
      </trkpt>
      <trkpt lat="48.54502" lon="2.37193">
        <ele>49</ele>
        <time>2024-01-07T14:52:37Z</time>
      </trkpt>
      <trkpt lat="48.54498" lon="2.37193">
        <ele>49</ele>
        <time>2024-01-07T14:52:41Z</time>
      </trkpt>
      <trkpt lat="48.5449" lon="2.3719">
        <ele>49</ele>
        <time>2024-01-07T14:52:50Z</time>
      </trkpt>
      <trkpt lat="48.54485" lon="2.37188">
        <ele>49</ele>
        <time>2024-01-07T14:52:55Z</time>
      </trkpt>
      <trkpt lat="48.54479" lon="2.37184">
        <ele>49</ele>
        <time>2024-01-07T14:53:04Z</time>
      </trkpt>
      <trkpt lat="48.54464" lon="2.37185">
        <ele>49</ele>
        <time>2024-01-07T14:53:16Z</time>
      </trkpt>
      <trkpt lat="48.5446" lon="2.37186">
        <ele>49</ele>
        <time>2024-01-07T14:53:20Z</time>
      </trkpt>
      <trkpt lat="48.54454" lon="2.37195">
        <ele>49</ele>
        <time>2024-01-07T14:53:39Z</time>
      </trkpt>
      <trkpt lat="48.54451" lon="2.37205">
        <ele>49</ele>
        <time>2024-01-07T14:53:59Z</time>
      </trkpt>
      <trkpt lat="48.54454" lon="2.37202">
        <ele>49</ele>
        <time>2024-01-07T14:54:40Z</time>
      </trkpt>
      <trkpt lat="48.54452" lon="2.37193">
        <ele>49</ele>
        <time>2024-01-07T14:54:49Z</time>
      </trkpt>
      <trkpt lat="48.54451" lon="2.37184">
        <ele>49</ele>
        <time>2024-01-07T14:55:01Z</time>
      </trkpt>
      <trkpt lat="48.54455" lon="2.37181">
        <ele>49</ele>
        <time>2024-01-07T14:55:25Z</time>
      </trkpt>
      <trkpt lat="48.54455" lon="2.37185">
        <ele>49</ele>
        <time>2024-01-07T14:55:58Z</time>
      </trkpt>
      <trkpt lat="48.5444" lon="2.37176">
        <ele>49</ele>
        <time>2024-01-07T14:56:10Z</time>
      </trkpt>
      <trkpt lat="48.54435" lon="2.37162">
        <ele>48</ele>
        <time>2024-01-07T14:56:17Z</time>
      </trkpt>
      <trkpt lat="48.54431" lon="2.37158">
        <ele>48</ele>
        <time>2024-01-07T14:56:20Z</time>
      </trkpt>
      <trkpt lat="48.54423" lon="2.37154">
        <ele>48</ele>
        <time>2024-01-07T14:56:56Z</time>
      </trkpt>
      <trkpt lat="48.54407" lon="2.37149">
        <ele>48</ele>
        <time>2024-01-07T14:57:09Z</time>
      </trkpt>
      <trkpt lat="48.54401" lon="2.37147">
        <ele>49</ele>
        <time>2024-01-07T14:57:35Z</time>
      </trkpt>
      <trkpt lat="48.54375" lon="2.37142">
        <ele>49</ele>
        <time>2024-01-07T14:58:00Z</time>
      </trkpt>
      <trkpt lat="48.54365" lon="2.3714">
        <ele>49</ele>
        <time>2024-01-07T14:58:10Z</time>
      </trkpt>
      <trkpt lat="48.54359" lon="2.37138">
        <ele>49</ele>
        <time>2024-01-07T14:58:14Z</time>
      </trkpt>
      <trkpt lat="48.54355" lon="2.37137">
        <ele>48</ele>
        <time>2024-01-07T14:58:16Z</time>
      </trkpt>
      <trkpt lat="48.54339" lon="2.37135">
        <ele>48</ele>
        <time>2024-01-07T14:58:29Z</time>
      </trkpt>
      <trkpt lat="48.54335" lon="2.37133">
        <ele>48</ele>
        <time>2024-01-07T14:58:33Z</time>
      </trkpt>
      <trkpt lat="48.54328" lon="2.3713">
        <ele>49</ele>
        <time>2024-01-07T14:58:45Z</time>
      </trkpt>
      <trkpt lat="48.54323" lon="2.37129">
        <ele>48</ele>
        <time>2024-01-07T14:58:50Z</time>
      </trkpt>
      <trkpt lat="48.54317" lon="2.37127">
        <ele>49</ele>
        <time>2024-01-07T14:58:56Z</time>
      </trkpt>
      <trkpt lat="48.54311" lon="2.37127">
        <ele>48</ele>
        <time>2024-01-07T14:58:59Z</time>
      </trkpt>
      <trkpt lat="48.5429" lon="2.37123">
        <ele>48</ele>
        <time>2024-01-07T14:59:14Z</time>
      </trkpt>
      <trkpt lat="48.54286" lon="2.37121">
        <ele>48</ele>
        <time>2024-01-07T14:59:17Z</time>
      </trkpt>
      <trkpt lat="48.54281" lon="2.37121">
        <ele>48</ele>
        <time>2024-01-07T14:59:21Z</time>
      </trkpt>
      <trkpt lat="48.54276" lon="2.37119">
        <ele>48</ele>
        <time>2024-01-07T14:59:25Z</time>
      </trkpt>
      <trkpt lat="48.54271" lon="2.37119">
        <ele>48</ele>
        <time>2024-01-07T14:59:29Z</time>
      </trkpt>
      <trkpt lat="48.54261" lon="2.37117">
        <ele>48</ele>
        <time>2024-01-07T14:59:37Z</time>
      </trkpt>
      <trkpt lat="48.54254" lon="2.37115">
        <ele>48</ele>
        <time>2024-01-07T14:59:41Z</time>
      </trkpt>
      <trkpt lat="48.54249" lon="2.37114">
        <ele>48</ele>
        <time>2024-01-07T14:59:45Z</time>
      </trkpt>
      <trkpt lat="48.54204" lon="2.37104">
        <ele>48</ele>
        <time>2024-01-07T15:00:18Z</time>
      </trkpt>
      <trkpt lat="48.54161" lon="2.37095">
        <ele>48</ele>
        <time>2024-01-07T15:00:51Z</time>
      </trkpt>
      <trkpt lat="48.54121" lon="2.37088">
        <ele>48</ele>
        <time>2024-01-07T15:01:18Z</time>
      </trkpt>
      <trkpt lat="48.54111" lon="2.37089">
        <ele>48</ele>
        <time>2024-01-07T15:01:24Z</time>
      </trkpt>
      <trkpt lat="48.54072" lon="2.37076">
        <ele>48</ele>
        <time>2024-01-07T15:01:54Z</time>
      </trkpt>
      <trkpt lat="48.54062" lon="2.37074">
        <ele>48</ele>
        <time>2024-01-07T15:02:01Z</time>
      </trkpt>
      <trkpt lat="48.54046" lon="2.3707">
        <ele>48</ele>
        <time>2024-01-07T15:02:13Z</time>
      </trkpt>
      <trkpt lat="48.54032" lon="2.37063">
        <ele>48</ele>
        <time>2024-01-07T15:02:27Z</time>
      </trkpt>
      <trkpt lat="48.53993" lon="2.37054">
        <ele>48</ele>
        <time>2024-01-07T15:02:59Z</time>
      </trkpt>
      <trkpt lat="48.53952" lon="2.37047">
        <ele>48</ele>
        <time>2024-01-07T15:03:30Z</time>
      </trkpt>
      <trkpt lat="48.5391" lon="2.37033">
        <ele>48</ele>
        <time>2024-01-07T15:04:02Z</time>
      </trkpt>
      <trkpt lat="48.53905" lon="2.37031">
        <ele>48</ele>
        <time>2024-01-07T15:04:06Z</time>
      </trkpt>
      <trkpt lat="48.53895" lon="2.37021">
        <ele>48</ele>
        <time>2024-01-07T15:04:17Z</time>
      </trkpt>
      <trkpt lat="48.5389" lon="2.37014">
        <ele>48</ele>
        <time>2024-01-07T15:04:28Z</time>
      </trkpt>
      <trkpt lat="48.53884" lon="2.37015">
        <ele>49</ele>
        <time>2024-01-07T15:04:41Z</time>
      </trkpt>
      <trkpt lat="48.53881" lon="2.3702">
        <ele>49</ele>
        <time>2024-01-07T15:04:46Z</time>
      </trkpt>
      <trkpt lat="48.53875" lon="2.37067">
        <ele>49</ele>
        <time>2024-01-07T15:05:20Z</time>
      </trkpt>
      <trkpt lat="48.53875" lon="2.3709">
        <ele>49</ele>
        <time>2024-01-07T15:05:35Z</time>
      </trkpt>
      <trkpt lat="48.53874" lon="2.37097">
        <ele>49</ele>
        <time>2024-01-07T15:05:39Z</time>
      </trkpt>
      <trkpt lat="48.53874" lon="2.37104">
        <ele>49</ele>
        <time>2024-01-07T15:05:43Z</time>
      </trkpt>
      <trkpt lat="48.53872" lon="2.37111">
        <ele>48</ele>
        <time>2024-01-07T15:05:58Z</time>
      </trkpt>
      <trkpt lat="48.5387" lon="2.37118">
        <ele>48</ele>
        <time>2024-01-07T15:06:03Z</time>
      </trkpt>
      <trkpt lat="48.53864" lon="2.37162">
        <ele>49</ele>
        <time>2024-01-07T15:06:33Z</time>
      </trkpt>
      <trkpt lat="48.53863" lon="2.37169">
        <ele>49</ele>
        <time>2024-01-07T15:06:37Z</time>
      </trkpt>
      <trkpt lat="48.53862" lon="2.37177">
        <ele>49</ele>
        <time>2024-01-07T15:06:41Z</time>
      </trkpt>
      <trkpt lat="48.53862" lon="2.37185">
        <ele>49</ele>
        <time>2024-01-07T15:06:45Z</time>
      </trkpt>
      <trkpt lat="48.53859" lon="2.372">
        <ele>49</ele>
        <time>2024-01-07T15:06:55Z</time>
      </trkpt>
      <trkpt lat="48.53857" lon="2.37208">
        <ele>50</ele>
        <time>2024-01-07T15:07:00Z</time>
      </trkpt>
      <trkpt lat="48.53854" lon="2.3723">
        <ele>49</ele>
        <time>2024-01-07T15:07:12Z</time>
      </trkpt>
      <trkpt lat="48.53845" lon="2.37256">
        <ele>50</ele>
        <time>2024-01-07T15:07:29Z</time>
      </trkpt>
      <trkpt lat="48.53841" lon="2.37261">
        <ele>49</ele>
        <time>2024-01-07T15:07:34Z</time>
      </trkpt>
      <trkpt lat="48.53839" lon="2.37268">
        <ele>50</ele>
        <time>2024-01-07T15:07:38Z</time>
      </trkpt>
      <trkpt lat="48.53836" lon="2.37274">
        <ele>50</ele>
        <time>2024-01-07T15:07:43Z</time>
      </trkpt>
      <trkpt lat="48.53827" lon="2.37291">
        <ele>51</ele>
        <time>2024-01-07T15:07:58Z</time>
      </trkpt>
      <trkpt lat="48.53822" lon="2.37298">
        <ele>50</ele>
        <time>2024-01-07T15:08:03Z</time>
      </trkpt>
      <trkpt lat="48.53815" lon="2.37309">
        <ele>50</ele>
        <time>2024-01-07T15:08:11Z</time>
      </trkpt>
      <trkpt lat="48.53807" lon="2.37327">
        <ele>51</ele>
        <time>2024-01-07T15:08:24Z</time>
      </trkpt>
      <trkpt lat="48.53806" lon="2.37335">
        <ele>52</ele>
        <time>2024-01-07T15:08:28Z</time>
      </trkpt>
      <trkpt lat="48.53804" lon="2.37343">
        <ele>51</ele>
        <time>2024-01-07T15:08:32Z</time>
      </trkpt>
      <trkpt lat="48.53803" lon="2.37351">
        <ele>51</ele>
        <time>2024-01-07T15:08:36Z</time>
      </trkpt>
      <trkpt lat="48.53801" lon="2.37359">
        <ele>52</ele>
        <time>2024-01-07T15:08:41Z</time>
      </trkpt>
      <trkpt lat="48.538" lon="2.37374">
        <ele>52</ele>
        <time>2024-01-07T15:08:51Z</time>
      </trkpt>
      <trkpt lat="48.53793" lon="2.37407">
        <ele>53</ele>
        <time>2024-01-07T15:09:11Z</time>
      </trkpt>
      <trkpt lat="48.53785" lon="2.37413">
        <ele>53</ele>
        <time>2024-01-07T15:09:18Z</time>
      </trkpt>
      <trkpt lat="48.53773" lon="2.37426">
        <ele>53</ele>
        <time>2024-01-07T15:09:29Z</time>
      </trkpt>
      <trkpt lat="48.53769" lon="2.37427">
        <ele>53</ele>
        <time>2024-01-07T15:09:33Z</time>
      </trkpt>
      <trkpt lat="48.53762" lon="2.3743">
        <ele>53</ele>
        <time>2024-01-07T15:09:39Z</time>
      </trkpt>
      <trkpt lat="48.53758" lon="2.37432">
        <ele>53</ele>
        <time>2024-01-07T15:09:43Z</time>
      </trkpt>
      <trkpt lat="48.53738" lon="2.37429">
        <ele>53</ele>
        <time>2024-01-07T15:10:00Z</time>
      </trkpt>
      <trkpt lat="48.53733" lon="2.3743">
        <ele>53</ele>
        <time>2024-01-07T15:10:04Z</time>
      </trkpt>
      <trkpt lat="48.53728" lon="2.3743">
        <ele>53</ele>
        <time>2024-01-07T15:10:08Z</time>
      </trkpt>
      <trkpt lat="48.53689" lon="2.37416">
        <ele>53</ele>
        <time>2024-01-07T15:10:39Z</time>
      </trkpt>
      <trkpt lat="48.53684" lon="2.37415">
        <ele>53</ele>
        <time>2024-01-07T15:10:43Z</time>
      </trkpt>
      <trkpt lat="48.53675" lon="2.37409">
        <ele>53</ele>
        <time>2024-01-07T15:10:51Z</time>
      </trkpt>
      <trkpt lat="48.53655" lon="2.37405">
        <ele>53</ele>
        <time>2024-01-07T15:11:08Z</time>
      </trkpt>
      <trkpt lat="48.5362" lon="2.37381">
        <ele>53</ele>
        <time>2024-01-07T15:11:39Z</time>
      </trkpt>
      <trkpt lat="48.53613" lon="2.37376">
        <ele>53</ele>
        <time>2024-01-07T15:11:46Z</time>
      </trkpt>
      <trkpt lat="48.53606" lon="2.37365">
        <ele>53</ele>
        <time>2024-01-07T15:11:53Z</time>
      </trkpt>
      <trkpt lat="48.53588" lon="2.3735">
        <ele>53</ele>
        <time>2024-01-07T15:12:08Z</time>
      </trkpt>
      <trkpt lat="48.53583" lon="2.37344">
        <ele>53</ele>
        <time>2024-01-07T15:12:14Z</time>
      </trkpt>
      <trkpt lat="48.53544" lon="2.37317">
        <ele>52</ele>
        <time>2024-01-07T15:12:46Z</time>
      </trkpt>
      <trkpt lat="48.53505" lon="2.3729">
        <ele>53</ele>
        <time>2024-01-07T15:13:19Z</time>
      </trkpt>
      <trkpt lat="48.53496" lon="2.37285">
        <ele>53</ele>
        <time>2024-01-07T15:13:26Z</time>
      </trkpt>
      <trkpt lat="48.53479" lon="2.3727">
        <ele>53</ele>
        <time>2024-01-07T15:13:43Z</time>
      </trkpt>
      <trkpt lat="48.53474" lon="2.37268">
        <ele>53</ele>
        <time>2024-01-07T15:13:48Z</time>
      </trkpt>
      <trkpt lat="48.5344" lon="2.37239">
        <ele>53</ele>
        <time>2024-01-07T15:14:20Z</time>
      </trkpt>
      <trkpt lat="48.53403" lon="2.37213">
        <ele>54</ele>
        <time>2024-01-07T15:14:53Z</time>
      </trkpt>
      <trkpt lat="48.53386" lon="2.37198">
        <ele>54</ele>
        <time>2024-01-07T15:15:11Z</time>
      </trkpt>
      <trkpt lat="48.53358" lon="2.37182">
        <ele>54</ele>
        <time>2024-01-07T15:15:33Z</time>
      </trkpt>
      <trkpt lat="48.53354" lon="2.37177">
        <ele>54</ele>
        <time>2024-01-07T15:15:38Z</time>
      </trkpt>
      <trkpt lat="48.53317" lon="2.37154">
        <ele>55</ele>
        <time>2024-01-07T15:16:11Z</time>
      </trkpt>
      <trkpt lat="48.53308" lon="2.37146">
        <ele>55</ele>
        <time>2024-01-07T15:16:20Z</time>
      </trkpt>
      <trkpt lat="48.53303" lon="2.37141">
        <ele>55</ele>
        <time>2024-01-07T15:16:26Z</time>
      </trkpt>
      <trkpt lat="48.53295" lon="2.37139">
        <ele>55</ele>
        <time>2024-01-07T15:16:37Z</time>
      </trkpt>
      <trkpt lat="48.5329" lon="2.3714">
        <ele>55</ele>
        <time>2024-01-07T15:16:43Z</time>
      </trkpt>
      <trkpt lat="48.53273" lon="2.37138">
        <ele>56</ele>
        <time>2024-01-07T15:16:58Z</time>
      </trkpt>
      <trkpt lat="48.53268" lon="2.3714">
        <ele>56</ele>
        <time>2024-01-07T15:17:06Z</time>
      </trkpt>
    </trkseg>
  </trk>
</gpx>